<?xml version="1.0" encoding="UTF-8" standalone="no" ?>
<gpx xmlns="http://www.topografix.com/GPX/1/1" xmlns:xsi="http://www.w3.org/2001/XMLSchema-instance" xsi:schemaLocation="http://www.topografix.com/GPX/1/1 http://www.topografix.com/GPX/1/1/gpx.xsd" version="1.1" creator="VisuGPX - https://www.visugpx.com">
  <metadata>
    <name>La Roussille circuit2 8,2km</name>
  </metadata>
  <wpt lat="46.33258" lon="-0.5077">
    <ele>7.7</ele>
  </wpt>
  <trk>
    <name><![CDATA[La Roussille circuit2 8,2km_1]]></name>
    <trkseg>
      <trkpt lat="46.33145" lon="-0.50875">
        <ele>42</ele>
        <time>2012-02-14T13:45:00Z</time>
      </trkpt>
      <trkpt lat="46.33145" lon="-0.50879">
        <ele>51</ele>
        <time>2012-02-14T13:45:05Z</time>
      </trkpt>
      <trkpt lat="46.33144" lon="-0.50879">
        <ele>51</ele>
        <time>2012-02-14T13:45:10Z</time>
      </trkpt>
      <trkpt lat="46.33146" lon="-0.50881">
        <ele>50</ele>
        <time>2012-02-14T13:45:15Z</time>
      </trkpt>
      <trkpt lat="46.33151" lon="-0.50886">
        <ele>52</ele>
        <time>2012-02-14T13:45:20Z</time>
      </trkpt>
      <trkpt lat="46.33157" lon="-0.5089">
        <ele>53</ele>
        <time>2012-02-14T13:45:25Z</time>
      </trkpt>
      <trkpt lat="46.33163" lon="-0.50886">
        <ele>52</ele>
        <time>2012-02-14T13:45:30Z</time>
      </trkpt>
      <trkpt lat="46.33169" lon="-0.50886">
        <ele>52</ele>
        <time>2012-02-14T13:45:35Z</time>
      </trkpt>
      <trkpt lat="46.33167" lon="-0.50886">
        <ele>52</ele>
        <time>2012-02-14T13:45:40Z</time>
      </trkpt>
      <trkpt lat="46.33168" lon="-0.50885">
        <ele>52</ele>
        <time>2012-02-14T13:45:45Z</time>
      </trkpt>
      <trkpt lat="46.3317" lon="-0.50886">
        <ele>53</ele>
        <time>2012-02-14T13:45:50Z</time>
      </trkpt>
      <trkpt lat="46.3317" lon="-0.50885">
        <ele>53</ele>
        <time>2012-02-14T13:45:55Z</time>
      </trkpt>
      <trkpt lat="46.3317" lon="-0.50887">
        <ele>54</ele>
        <time>2012-02-14T13:46:00Z</time>
      </trkpt>
      <trkpt lat="46.3317" lon="-0.50887">
        <ele>55</ele>
        <time>2012-02-14T13:46:05Z</time>
      </trkpt>
      <trkpt lat="46.33171" lon="-0.50882">
        <ele>52</ele>
        <time>2012-02-14T13:46:10Z</time>
      </trkpt>
      <trkpt lat="46.33171" lon="-0.50884">
        <ele>52</ele>
        <time>2012-02-14T13:46:15Z</time>
      </trkpt>
      <trkpt lat="46.33171" lon="-0.50883">
        <ele>52</ele>
        <time>2012-02-14T13:46:55Z</time>
      </trkpt>
      <trkpt lat="46.33171" lon="-0.50883">
        <ele>54</ele>
        <time>2012-02-14T13:47:05Z</time>
      </trkpt>
      <trkpt lat="46.33171" lon="-0.50884">
        <ele>54</ele>
        <time>2012-02-14T13:47:15Z</time>
      </trkpt>
      <trkpt lat="46.33171" lon="-0.5088">
        <ele>54</ele>
        <time>2012-02-14T13:47:30Z</time>
      </trkpt>
      <trkpt lat="46.3317" lon="-0.50881">
        <ele>54</ele>
        <time>2012-02-14T13:47:35Z</time>
      </trkpt>
      <trkpt lat="46.3317" lon="-0.50881">
        <ele>54</ele>
        <time>2012-02-14T13:47:45Z</time>
      </trkpt>
      <trkpt lat="46.3317" lon="-0.5088">
        <ele>54</ele>
        <time>2012-02-14T13:47:55Z</time>
      </trkpt>
      <trkpt lat="46.33168" lon="-0.50885">
        <ele>54</ele>
        <time>2012-02-14T13:48:00Z</time>
      </trkpt>
      <trkpt lat="46.33171" lon="-0.50885">
        <ele>56</ele>
        <time>2012-02-14T13:48:05Z</time>
      </trkpt>
      <trkpt lat="46.33171" lon="-0.50886">
        <ele>57</ele>
        <time>2012-02-14T13:48:10Z</time>
      </trkpt>
      <trkpt lat="46.33171" lon="-0.50887">
        <ele>56</ele>
        <time>2012-02-14T13:48:15Z</time>
      </trkpt>
      <trkpt lat="46.33175" lon="-0.5089">
        <ele>57</ele>
        <time>2012-02-14T13:48:20Z</time>
      </trkpt>
      <trkpt lat="46.33181" lon="-0.50897">
        <ele>57</ele>
        <time>2012-02-14T13:48:25Z</time>
      </trkpt>
      <trkpt lat="46.33186" lon="-0.50898">
        <ele>56</ele>
        <time>2012-02-14T13:48:30Z</time>
      </trkpt>
      <trkpt lat="46.33192" lon="-0.50901">
        <ele>57</ele>
        <time>2012-02-14T13:48:35Z</time>
      </trkpt>
      <trkpt lat="46.33195" lon="-0.50901">
        <ele>57</ele>
        <time>2012-02-14T13:48:40Z</time>
      </trkpt>
      <trkpt lat="46.33201" lon="-0.50898">
        <ele>57</ele>
        <time>2012-02-14T13:48:45Z</time>
      </trkpt>
      <trkpt lat="46.33206" lon="-0.50895">
        <ele>56</ele>
        <time>2012-02-14T13:48:50Z</time>
      </trkpt>
      <trkpt lat="46.33216" lon="-0.50887">
        <ele>57</ele>
        <time>2012-02-14T13:48:55Z</time>
      </trkpt>
      <trkpt lat="46.33217" lon="-0.5088">
        <ele>58</ele>
        <time>2012-02-14T13:49:00Z</time>
      </trkpt>
      <trkpt lat="46.33216" lon="-0.50874">
        <ele>59</ele>
        <time>2012-02-14T13:49:05Z</time>
      </trkpt>
      <trkpt lat="46.33216" lon="-0.50868">
        <ele>59</ele>
        <time>2012-02-14T13:49:10Z</time>
      </trkpt>
      <trkpt lat="46.33219" lon="-0.5086">
        <ele>59</ele>
        <time>2012-02-14T13:49:15Z</time>
      </trkpt>
      <trkpt lat="46.33222" lon="-0.50852">
        <ele>58</ele>
        <time>2012-02-14T13:49:20Z</time>
      </trkpt>
      <trkpt lat="46.33222" lon="-0.50846">
        <ele>57</ele>
        <time>2012-02-14T13:49:25Z</time>
      </trkpt>
      <trkpt lat="46.33224" lon="-0.50839">
        <ele>57</ele>
        <time>2012-02-14T13:49:30Z</time>
      </trkpt>
      <trkpt lat="46.33228" lon="-0.50832">
        <ele>57</ele>
        <time>2012-02-14T13:49:35Z</time>
      </trkpt>
      <trkpt lat="46.33233" lon="-0.50826">
        <ele>58</ele>
        <time>2012-02-14T13:49:40Z</time>
      </trkpt>
      <trkpt lat="46.33234" lon="-0.50825">
        <ele>58</ele>
        <time>2012-02-14T13:49:45Z</time>
      </trkpt>
      <trkpt lat="46.33239" lon="-0.50818">
        <ele>62</ele>
        <time>2012-02-14T13:49:50Z</time>
      </trkpt>
      <trkpt lat="46.33239" lon="-0.5081">
        <ele>60</ele>
        <time>2012-02-14T13:49:55Z</time>
      </trkpt>
      <trkpt lat="46.3324" lon="-0.50807">
        <ele>60</ele>
        <time>2012-02-14T13:50:00Z</time>
      </trkpt>
      <trkpt lat="46.33241" lon="-0.50808">
        <ele>60</ele>
        <time>2012-02-14T13:50:05Z</time>
      </trkpt>
      <trkpt lat="46.33246" lon="-0.50803">
        <ele>60</ele>
        <time>2012-02-14T13:50:10Z</time>
      </trkpt>
      <trkpt lat="46.33253" lon="-0.50795">
        <ele>61</ele>
        <time>2012-02-14T13:50:15Z</time>
      </trkpt>
      <trkpt lat="46.33254" lon="-0.50784">
        <ele>60</ele>
        <time>2012-02-14T13:50:20Z</time>
      </trkpt>
      <trkpt lat="46.33252" lon="-0.50778">
        <ele>60</ele>
        <time>2012-02-14T13:50:25Z</time>
      </trkpt>
      <trkpt lat="46.33251" lon="-0.50766">
        <ele>61</ele>
        <time>2012-02-14T13:50:30Z</time>
      </trkpt>
      <trkpt lat="46.33252" lon="-0.50761">
        <ele>59</ele>
        <time>2012-02-14T13:50:35Z</time>
      </trkpt>
      <trkpt lat="46.33255" lon="-0.50754">
        <ele>56</ele>
        <time>2012-02-14T13:50:40Z</time>
      </trkpt>
      <trkpt lat="46.33256" lon="-0.50749">
        <ele>55</ele>
        <time>2012-02-14T13:50:45Z</time>
      </trkpt>
      <trkpt lat="46.33255" lon="-0.50741">
        <ele>54</ele>
        <time>2012-02-14T13:50:50Z</time>
      </trkpt>
      <trkpt lat="46.33253" lon="-0.50729">
        <ele>57</ele>
        <time>2012-02-14T13:50:55Z</time>
      </trkpt>
      <trkpt lat="46.33252" lon="-0.50717">
        <ele>62</ele>
        <time>2012-02-14T13:51:00Z</time>
      </trkpt>
      <trkpt lat="46.33253" lon="-0.5071">
        <ele>64</ele>
        <time>2012-02-14T13:51:05Z</time>
      </trkpt>
      <trkpt lat="46.33255" lon="-0.50701">
        <ele>66</ele>
        <time>2012-02-14T13:51:10Z</time>
      </trkpt>
      <trkpt lat="46.33252" lon="-0.50704">
        <ele>63</ele>
        <time>2012-02-14T13:51:15Z</time>
      </trkpt>
      <trkpt lat="46.33253" lon="-0.50705">
        <ele>62</ele>
        <time>2012-02-14T13:51:20Z</time>
      </trkpt>
      <trkpt lat="46.33254" lon="-0.50707">
        <ele>63</ele>
        <time>2012-02-14T13:51:25Z</time>
      </trkpt>
      <trkpt lat="46.33263" lon="-0.50713">
        <ele>64</ele>
        <time>2012-02-14T13:51:30Z</time>
      </trkpt>
      <trkpt lat="46.3327" lon="-0.50713">
        <ele>61</ele>
        <time>2012-02-14T13:51:35Z</time>
      </trkpt>
      <trkpt lat="46.33275" lon="-0.50713">
        <ele>60</ele>
        <time>2012-02-14T13:51:40Z</time>
      </trkpt>
      <trkpt lat="46.33282" lon="-0.50715">
        <ele>60</ele>
        <time>2012-02-14T13:51:45Z</time>
      </trkpt>
      <trkpt lat="46.33283" lon="-0.50717">
        <ele>63</ele>
        <time>2012-02-14T13:51:50Z</time>
      </trkpt>
      <trkpt lat="46.33284" lon="-0.50718">
        <ele>63</ele>
        <time>2012-02-14T13:51:55Z</time>
      </trkpt>
      <trkpt lat="46.33285" lon="-0.50719">
        <ele>63</ele>
        <time>2012-02-14T13:52:00Z</time>
      </trkpt>
      <trkpt lat="46.3329" lon="-0.50724">
        <ele>63</ele>
        <time>2012-02-14T13:52:10Z</time>
      </trkpt>
      <trkpt lat="46.33301" lon="-0.50724">
        <ele>64</ele>
        <time>2012-02-14T13:52:15Z</time>
      </trkpt>
      <trkpt lat="46.33325" lon="-0.5072">
        <ele>66</ele>
        <time>2012-02-14T13:52:20Z</time>
      </trkpt>
      <trkpt lat="46.33335" lon="-0.50719">
        <ele>68</ele>
        <time>2012-02-14T13:52:25Z</time>
      </trkpt>
      <trkpt lat="46.33344" lon="-0.50718">
        <ele>70</ele>
        <time>2012-02-14T13:52:30Z</time>
      </trkpt>
      <trkpt lat="46.3335" lon="-0.50715">
        <ele>68</ele>
        <time>2012-02-14T13:52:35Z</time>
      </trkpt>
      <trkpt lat="46.33354" lon="-0.50708">
        <ele>66</ele>
        <time>2012-02-14T13:52:40Z</time>
      </trkpt>
      <trkpt lat="46.33358" lon="-0.50698">
        <ele>65</ele>
        <time>2012-02-14T13:52:45Z</time>
      </trkpt>
      <trkpt lat="46.3336" lon="-0.50686">
        <ele>62</ele>
        <time>2012-02-14T13:52:50Z</time>
      </trkpt>
      <trkpt lat="46.33359" lon="-0.50674">
        <ele>60</ele>
        <time>2012-02-14T13:52:55Z</time>
      </trkpt>
      <trkpt lat="46.33358" lon="-0.50667">
        <ele>61</ele>
        <time>2012-02-14T13:53:00Z</time>
      </trkpt>
      <trkpt lat="46.33357" lon="-0.50657">
        <ele>61</ele>
        <time>2012-02-14T13:53:05Z</time>
      </trkpt>
      <trkpt lat="46.33354" lon="-0.50648">
        <ele>62</ele>
        <time>2012-02-14T13:53:10Z</time>
      </trkpt>
      <trkpt lat="46.33353" lon="-0.50639">
        <ele>61</ele>
        <time>2012-02-14T13:53:15Z</time>
      </trkpt>
      <trkpt lat="46.33351" lon="-0.50631">
        <ele>60</ele>
        <time>2012-02-14T13:53:20Z</time>
      </trkpt>
      <trkpt lat="46.33348" lon="-0.50624">
        <ele>61</ele>
        <time>2012-02-14T13:53:25Z</time>
      </trkpt>
      <trkpt lat="46.33346" lon="-0.50613">
        <ele>64</ele>
        <time>2012-02-14T13:53:30Z</time>
      </trkpt>
      <trkpt lat="46.33348" lon="-0.50606">
        <ele>64</ele>
        <time>2012-02-14T13:53:35Z</time>
      </trkpt>
      <trkpt lat="46.33339" lon="-0.50598">
        <ele>67</ele>
        <time>2012-02-14T13:53:40Z</time>
      </trkpt>
      <trkpt lat="46.3334" lon="-0.50591">
        <ele>69</ele>
        <time>2012-02-14T13:53:45Z</time>
      </trkpt>
      <trkpt lat="46.33342" lon="-0.50588">
        <ele>68</ele>
        <time>2012-02-14T13:53:50Z</time>
      </trkpt>
      <trkpt lat="46.3334" lon="-0.50588">
        <ele>69</ele>
        <time>2012-02-14T13:53:55Z</time>
      </trkpt>
      <trkpt lat="46.33332" lon="-0.5059">
        <ele>69</ele>
        <time>2012-02-14T13:54:00Z</time>
      </trkpt>
      <trkpt lat="46.33322" lon="-0.50593">
        <ele>68</ele>
        <time>2012-02-14T13:54:05Z</time>
      </trkpt>
      <trkpt lat="46.33314" lon="-0.50592">
        <ele>62</ele>
        <time>2012-02-14T13:54:10Z</time>
      </trkpt>
      <trkpt lat="46.33306" lon="-0.50596">
        <ele>64</ele>
        <time>2012-02-14T13:54:15Z</time>
      </trkpt>
      <trkpt lat="46.33303" lon="-0.50599">
        <ele>65</ele>
        <time>2012-02-14T13:54:20Z</time>
      </trkpt>
      <trkpt lat="46.33298" lon="-0.50599">
        <ele>64</ele>
        <time>2012-02-14T13:54:25Z</time>
      </trkpt>
      <trkpt lat="46.33288" lon="-0.50599">
        <ele>63</ele>
        <time>2012-02-14T13:54:30Z</time>
      </trkpt>
      <trkpt lat="46.33282" lon="-0.50597">
        <ele>61</ele>
        <time>2012-02-14T13:54:35Z</time>
      </trkpt>
      <trkpt lat="46.33277" lon="-0.50596">
        <ele>61</ele>
        <time>2012-02-14T13:54:40Z</time>
      </trkpt>
      <trkpt lat="46.33273" lon="-0.50595">
        <ele>62</ele>
        <time>2012-02-14T13:54:45Z</time>
      </trkpt>
      <trkpt lat="46.33268" lon="-0.50592">
        <ele>63</ele>
        <time>2012-02-14T13:54:50Z</time>
      </trkpt>
      <trkpt lat="46.33262" lon="-0.50588">
        <ele>64</ele>
        <time>2012-02-14T13:54:55Z</time>
      </trkpt>
      <trkpt lat="46.33256" lon="-0.50588">
        <ele>66</ele>
        <time>2012-02-14T13:55:00Z</time>
      </trkpt>
      <trkpt lat="46.3325" lon="-0.50588">
        <ele>67</ele>
        <time>2012-02-14T13:55:05Z</time>
      </trkpt>
      <trkpt lat="46.33244" lon="-0.50586">
        <ele>67</ele>
        <time>2012-02-14T13:55:10Z</time>
      </trkpt>
      <trkpt lat="46.33239" lon="-0.50585">
        <ele>66</ele>
        <time>2012-02-14T13:55:15Z</time>
      </trkpt>
      <trkpt lat="46.33234" lon="-0.50584">
        <ele>66</ele>
        <time>2012-02-14T13:55:20Z</time>
      </trkpt>
      <trkpt lat="46.3323" lon="-0.50583">
        <ele>64</ele>
        <time>2012-02-14T13:55:25Z</time>
      </trkpt>
      <trkpt lat="46.33226" lon="-0.50581">
        <ele>62</ele>
        <time>2012-02-14T13:55:30Z</time>
      </trkpt>
      <trkpt lat="46.33222" lon="-0.50578">
        <ele>62</ele>
        <time>2012-02-14T13:55:35Z</time>
      </trkpt>
      <trkpt lat="46.33216" lon="-0.50575">
        <ele>61</ele>
        <time>2012-02-14T13:55:40Z</time>
      </trkpt>
      <trkpt lat="46.33212" lon="-0.50575">
        <ele>60</ele>
        <time>2012-02-14T13:55:45Z</time>
      </trkpt>
      <trkpt lat="46.33207" lon="-0.50574">
        <ele>60</ele>
        <time>2012-02-14T13:55:50Z</time>
      </trkpt>
      <trkpt lat="46.33201" lon="-0.50571">
        <ele>61</ele>
        <time>2012-02-14T13:55:55Z</time>
      </trkpt>
      <trkpt lat="46.33196" lon="-0.5057">
        <ele>61</ele>
        <time>2012-02-14T13:56:00Z</time>
      </trkpt>
      <trkpt lat="46.33188" lon="-0.50567">
        <ele>64</ele>
        <time>2012-02-14T13:56:05Z</time>
      </trkpt>
      <trkpt lat="46.33183" lon="-0.50566">
        <ele>62</ele>
        <time>2012-02-14T13:56:10Z</time>
      </trkpt>
      <trkpt lat="46.3318" lon="-0.50563">
        <ele>58</ele>
        <time>2012-02-14T13:56:15Z</time>
      </trkpt>
      <trkpt lat="46.33174" lon="-0.50563">
        <ele>58</ele>
        <time>2012-02-14T13:56:20Z</time>
      </trkpt>
      <trkpt lat="46.33168" lon="-0.50559">
        <ele>58</ele>
        <time>2012-02-14T13:56:25Z</time>
      </trkpt>
      <trkpt lat="46.33161" lon="-0.50559">
        <ele>58</ele>
        <time>2012-02-14T13:56:30Z</time>
      </trkpt>
      <trkpt lat="46.33155" lon="-0.50556">
        <ele>61</ele>
        <time>2012-02-14T13:56:35Z</time>
      </trkpt>
      <trkpt lat="46.33149" lon="-0.50556">
        <ele>62</ele>
        <time>2012-02-14T13:56:40Z</time>
      </trkpt>
      <trkpt lat="46.33141" lon="-0.50557">
        <ele>63</ele>
        <time>2012-02-14T13:56:45Z</time>
      </trkpt>
      <trkpt lat="46.33139" lon="-0.5056">
        <ele>60</ele>
        <time>2012-02-14T13:56:50Z</time>
      </trkpt>
      <trkpt lat="46.33132" lon="-0.50557">
        <ele>63</ele>
        <time>2012-02-14T13:56:55Z</time>
      </trkpt>
      <trkpt lat="46.33126" lon="-0.50554">
        <ele>67</ele>
        <time>2012-02-14T13:57:00Z</time>
      </trkpt>
      <trkpt lat="46.3312" lon="-0.50556">
        <ele>69</ele>
        <time>2012-02-14T13:57:05Z</time>
      </trkpt>
      <trkpt lat="46.33114" lon="-0.5056">
        <ele>72</ele>
        <time>2012-02-14T13:57:10Z</time>
      </trkpt>
      <trkpt lat="46.33108" lon="-0.50559">
        <ele>74</ele>
        <time>2012-02-14T13:57:15Z</time>
      </trkpt>
      <trkpt lat="46.331" lon="-0.50551">
        <ele>75</ele>
        <time>2012-02-14T13:57:20Z</time>
      </trkpt>
      <trkpt lat="46.33097" lon="-0.50551">
        <ele>73</ele>
        <time>2012-02-14T13:57:25Z</time>
      </trkpt>
      <trkpt lat="46.33091" lon="-0.50546">
        <ele>72</ele>
        <time>2012-02-14T13:57:30Z</time>
      </trkpt>
      <trkpt lat="46.33084" lon="-0.50545">
        <ele>72</ele>
        <time>2012-02-14T13:57:35Z</time>
      </trkpt>
      <trkpt lat="46.33077" lon="-0.50541">
        <ele>74</ele>
        <time>2012-02-14T13:57:40Z</time>
      </trkpt>
      <trkpt lat="46.33073" lon="-0.50542">
        <ele>74</ele>
        <time>2012-02-14T13:57:45Z</time>
      </trkpt>
      <trkpt lat="46.33068" lon="-0.50543">
        <ele>73</ele>
        <time>2012-02-14T13:57:50Z</time>
      </trkpt>
      <trkpt lat="46.33062" lon="-0.50545">
        <ele>70</ele>
        <time>2012-02-14T13:57:55Z</time>
      </trkpt>
      <trkpt lat="46.33056" lon="-0.50543">
        <ele>69</ele>
        <time>2012-02-14T13:58:00Z</time>
      </trkpt>
      <trkpt lat="46.33051" lon="-0.5054">
        <ele>68</ele>
        <time>2012-02-14T13:58:05Z</time>
      </trkpt>
      <trkpt lat="46.33047" lon="-0.50545">
        <ele>65</ele>
        <time>2012-02-14T13:58:10Z</time>
      </trkpt>
      <trkpt lat="46.33041" lon="-0.50546">
        <ele>64</ele>
        <time>2012-02-14T13:58:15Z</time>
      </trkpt>
      <trkpt lat="46.33039" lon="-0.50549">
        <ele>61</ele>
        <time>2012-02-14T13:58:20Z</time>
      </trkpt>
      <trkpt lat="46.33035" lon="-0.50552">
        <ele>57</ele>
        <time>2012-02-14T13:58:25Z</time>
      </trkpt>
      <trkpt lat="46.33029" lon="-0.50553">
        <ele>56</ele>
        <time>2012-02-14T13:58:30Z</time>
      </trkpt>
      <trkpt lat="46.33024" lon="-0.50552">
        <ele>55</ele>
        <time>2012-02-14T13:58:35Z</time>
      </trkpt>
      <trkpt lat="46.33017" lon="-0.50551">
        <ele>55</ele>
        <time>2012-02-14T13:58:40Z</time>
      </trkpt>
      <trkpt lat="46.33011" lon="-0.50551">
        <ele>56</ele>
        <time>2012-02-14T13:58:45Z</time>
      </trkpt>
      <trkpt lat="46.33004" lon="-0.50547">
        <ele>59</ele>
        <time>2012-02-14T13:58:50Z</time>
      </trkpt>
      <trkpt lat="46.32999" lon="-0.50545">
        <ele>57</ele>
        <time>2012-02-14T13:58:55Z</time>
      </trkpt>
      <trkpt lat="46.32995" lon="-0.50544">
        <ele>56</ele>
        <time>2012-02-14T13:59:00Z</time>
      </trkpt>
      <trkpt lat="46.3299" lon="-0.5054">
        <ele>56</ele>
        <time>2012-02-14T13:59:05Z</time>
      </trkpt>
      <trkpt lat="46.32986" lon="-0.5054">
        <ele>56</ele>
        <time>2012-02-14T13:59:10Z</time>
      </trkpt>
      <trkpt lat="46.32979" lon="-0.50539">
        <ele>57</ele>
        <time>2012-02-14T13:59:15Z</time>
      </trkpt>
      <trkpt lat="46.32974" lon="-0.50534">
        <ele>58</ele>
        <time>2012-02-14T13:59:20Z</time>
      </trkpt>
      <trkpt lat="46.32971" lon="-0.50536">
        <ele>56</ele>
        <time>2012-02-14T13:59:25Z</time>
      </trkpt>
      <trkpt lat="46.32965" lon="-0.50533">
        <ele>57</ele>
        <time>2012-02-14T13:59:30Z</time>
      </trkpt>
      <trkpt lat="46.3296" lon="-0.50532">
        <ele>57</ele>
        <time>2012-02-14T13:59:35Z</time>
      </trkpt>
      <trkpt lat="46.32954" lon="-0.50533">
        <ele>58</ele>
        <time>2012-02-14T13:59:40Z</time>
      </trkpt>
      <trkpt lat="46.3295" lon="-0.50531">
        <ele>57</ele>
        <time>2012-02-14T13:59:45Z</time>
      </trkpt>
      <trkpt lat="46.32944" lon="-0.5053">
        <ele>56</ele>
        <time>2012-02-14T13:59:50Z</time>
      </trkpt>
      <trkpt lat="46.32939" lon="-0.5053">
        <ele>56</ele>
        <time>2012-02-14T13:59:55Z</time>
      </trkpt>
      <trkpt lat="46.32935" lon="-0.5053">
        <ele>55</ele>
        <time>2012-02-14T14:00:00Z</time>
      </trkpt>
      <trkpt lat="46.32928" lon="-0.50526">
        <ele>57</ele>
        <time>2012-02-14T14:00:05Z</time>
      </trkpt>
      <trkpt lat="46.32923" lon="-0.50525">
        <ele>58</ele>
        <time>2012-02-14T14:00:10Z</time>
      </trkpt>
      <trkpt lat="46.32917" lon="-0.50524">
        <ele>56</ele>
        <time>2012-02-14T14:00:15Z</time>
      </trkpt>
      <trkpt lat="46.32912" lon="-0.50524">
        <ele>56</ele>
        <time>2012-02-14T14:00:20Z</time>
      </trkpt>
      <trkpt lat="46.32905" lon="-0.50523">
        <ele>57</ele>
        <time>2012-02-14T14:00:25Z</time>
      </trkpt>
      <trkpt lat="46.32899" lon="-0.50525">
        <ele>57</ele>
        <time>2012-02-14T14:00:30Z</time>
      </trkpt>
      <trkpt lat="46.32894" lon="-0.50526">
        <ele>57</ele>
        <time>2012-02-14T14:00:35Z</time>
      </trkpt>
      <trkpt lat="46.32889" lon="-0.50525">
        <ele>58</ele>
        <time>2012-02-14T14:00:40Z</time>
      </trkpt>
      <trkpt lat="46.32883" lon="-0.50524">
        <ele>60</ele>
        <time>2012-02-14T14:00:45Z</time>
      </trkpt>
      <trkpt lat="46.32877" lon="-0.50524">
        <ele>61</ele>
        <time>2012-02-14T14:00:50Z</time>
      </trkpt>
      <trkpt lat="46.32872" lon="-0.50525">
        <ele>62</ele>
        <time>2012-02-14T14:00:55Z</time>
      </trkpt>
      <trkpt lat="46.32867" lon="-0.50526">
        <ele>62</ele>
        <time>2012-02-14T14:01:00Z</time>
      </trkpt>
      <trkpt lat="46.32862" lon="-0.50527">
        <ele>60</ele>
        <time>2012-02-14T14:01:05Z</time>
      </trkpt>
      <trkpt lat="46.32856" lon="-0.50527">
        <ele>62</ele>
        <time>2012-02-14T14:01:10Z</time>
      </trkpt>
      <trkpt lat="46.32852" lon="-0.50528">
        <ele>63</ele>
        <time>2012-02-14T14:01:15Z</time>
      </trkpt>
      <trkpt lat="46.32845" lon="-0.50529">
        <ele>63</ele>
        <time>2012-02-14T14:01:20Z</time>
      </trkpt>
      <trkpt lat="46.32839" lon="-0.5053">
        <ele>64</ele>
        <time>2012-02-14T14:01:25Z</time>
      </trkpt>
      <trkpt lat="46.32835" lon="-0.5053">
        <ele>64</ele>
        <time>2012-02-14T14:01:30Z</time>
      </trkpt>
      <trkpt lat="46.32828" lon="-0.5053">
        <ele>63</ele>
        <time>2012-02-14T14:01:35Z</time>
      </trkpt>
      <trkpt lat="46.32823" lon="-0.50531">
        <ele>63</ele>
        <time>2012-02-14T14:01:40Z</time>
      </trkpt>
      <trkpt lat="46.32818" lon="-0.5053">
        <ele>65</ele>
        <time>2012-02-14T14:01:45Z</time>
      </trkpt>
      <trkpt lat="46.32812" lon="-0.50531">
        <ele>65</ele>
        <time>2012-02-14T14:01:50Z</time>
      </trkpt>
      <trkpt lat="46.32807" lon="-0.50531">
        <ele>62</ele>
        <time>2012-02-14T14:01:55Z</time>
      </trkpt>
      <trkpt lat="46.32802" lon="-0.50529">
        <ele>64</ele>
        <time>2012-02-14T14:02:00Z</time>
      </trkpt>
      <trkpt lat="46.32797" lon="-0.50529">
        <ele>61</ele>
        <time>2012-02-14T14:02:05Z</time>
      </trkpt>
      <trkpt lat="46.32793" lon="-0.50529">
        <ele>61</ele>
        <time>2012-02-14T14:02:10Z</time>
      </trkpt>
      <trkpt lat="46.32787" lon="-0.50529">
        <ele>59</ele>
        <time>2012-02-14T14:02:15Z</time>
      </trkpt>
      <trkpt lat="46.32782" lon="-0.50529">
        <ele>59</ele>
        <time>2012-02-14T14:02:20Z</time>
      </trkpt>
      <trkpt lat="46.32778" lon="-0.50529">
        <ele>58</ele>
        <time>2012-02-14T14:02:25Z</time>
      </trkpt>
      <trkpt lat="46.32773" lon="-0.50529">
        <ele>58</ele>
        <time>2012-02-14T14:02:30Z</time>
      </trkpt>
      <trkpt lat="46.32767" lon="-0.50529">
        <ele>57</ele>
        <time>2012-02-14T14:02:35Z</time>
      </trkpt>
      <trkpt lat="46.32762" lon="-0.50531">
        <ele>57</ele>
        <time>2012-02-14T14:02:40Z</time>
      </trkpt>
      <trkpt lat="46.32756" lon="-0.50529">
        <ele>57</ele>
        <time>2012-02-14T14:02:45Z</time>
      </trkpt>
      <trkpt lat="46.32751" lon="-0.50527">
        <ele>57</ele>
        <time>2012-02-14T14:02:50Z</time>
      </trkpt>
      <trkpt lat="46.32745" lon="-0.50526">
        <ele>56</ele>
        <time>2012-02-14T14:02:55Z</time>
      </trkpt>
      <trkpt lat="46.32739" lon="-0.50523">
        <ele>57</ele>
        <time>2012-02-14T14:03:00Z</time>
      </trkpt>
      <trkpt lat="46.32736" lon="-0.50524">
        <ele>55</ele>
        <time>2012-02-14T14:03:05Z</time>
      </trkpt>
      <trkpt lat="46.32731" lon="-0.50524">
        <ele>55</ele>
        <time>2012-02-14T14:03:10Z</time>
      </trkpt>
      <trkpt lat="46.32726" lon="-0.50526">
        <ele>55</ele>
        <time>2012-02-14T14:03:15Z</time>
      </trkpt>
      <trkpt lat="46.32719" lon="-0.50526">
        <ele>57</ele>
        <time>2012-02-14T14:03:20Z</time>
      </trkpt>
      <trkpt lat="46.32715" lon="-0.50526">
        <ele>56</ele>
        <time>2012-02-14T14:03:25Z</time>
      </trkpt>
      <trkpt lat="46.32709" lon="-0.50523">
        <ele>59</ele>
        <time>2012-02-14T14:03:30Z</time>
      </trkpt>
      <trkpt lat="46.3271" lon="-0.50523">
        <ele>59</ele>
        <time>2012-02-14T14:03:35Z</time>
      </trkpt>
      <trkpt lat="46.32709" lon="-0.50523">
        <ele>57</ele>
        <time>2012-02-14T14:03:45Z</time>
      </trkpt>
      <trkpt lat="46.32705" lon="-0.50522">
        <ele>59</ele>
        <time>2012-02-14T14:03:50Z</time>
      </trkpt>
      <trkpt lat="46.32699" lon="-0.50519">
        <ele>59</ele>
        <time>2012-02-14T14:03:55Z</time>
      </trkpt>
      <trkpt lat="46.32694" lon="-0.5052">
        <ele>58</ele>
        <time>2012-02-14T14:04:00Z</time>
      </trkpt>
      <trkpt lat="46.3269" lon="-0.50519">
        <ele>58</ele>
        <time>2012-02-14T14:04:05Z</time>
      </trkpt>
      <trkpt lat="46.3269" lon="-0.50519">
        <ele>60</ele>
        <time>2012-02-14T14:04:10Z</time>
      </trkpt>
      <trkpt lat="46.3269" lon="-0.50519">
        <ele>59</ele>
        <time>2012-02-14T14:04:15Z</time>
      </trkpt>
      <trkpt lat="46.3269" lon="-0.50519">
        <ele>59</ele>
        <time>2012-02-14T14:04:20Z</time>
      </trkpt>
      <trkpt lat="46.32691" lon="-0.5052">
        <ele>59</ele>
        <time>2012-02-14T14:04:25Z</time>
      </trkpt>
      <trkpt lat="46.3269" lon="-0.5052">
        <ele>62</ele>
        <time>2012-02-14T14:04:30Z</time>
      </trkpt>
      <trkpt lat="46.32691" lon="-0.50519">
        <ele>62</ele>
        <time>2012-02-14T14:04:35Z</time>
      </trkpt>
      <trkpt lat="46.3269" lon="-0.50519">
        <ele>62</ele>
        <time>2012-02-14T14:04:40Z</time>
      </trkpt>
      <trkpt lat="46.32685" lon="-0.50519">
        <ele>61</ele>
        <time>2012-02-14T14:04:50Z</time>
      </trkpt>
      <trkpt lat="46.32677" lon="-0.50518">
        <ele>64</ele>
        <time>2012-02-14T14:04:55Z</time>
      </trkpt>
      <trkpt lat="46.32672" lon="-0.50517">
        <ele>62</ele>
        <time>2012-02-14T14:05:00Z</time>
      </trkpt>
      <trkpt lat="46.32666" lon="-0.50517">
        <ele>62</ele>
        <time>2012-02-14T14:05:05Z</time>
      </trkpt>
      <trkpt lat="46.32661" lon="-0.50516">
        <ele>63</ele>
        <time>2012-02-14T14:05:10Z</time>
      </trkpt>
      <trkpt lat="46.32656" lon="-0.50515">
        <ele>63</ele>
        <time>2012-02-14T14:05:15Z</time>
      </trkpt>
      <trkpt lat="46.32651" lon="-0.50515">
        <ele>63</ele>
        <time>2012-02-14T14:05:20Z</time>
      </trkpt>
      <trkpt lat="46.32648" lon="-0.50516">
        <ele>62</ele>
        <time>2012-02-14T14:05:25Z</time>
      </trkpt>
      <trkpt lat="46.32643" lon="-0.50514">
        <ele>63</ele>
        <time>2012-02-14T14:05:30Z</time>
      </trkpt>
      <trkpt lat="46.32638" lon="-0.50514">
        <ele>64</ele>
        <time>2012-02-14T14:05:35Z</time>
      </trkpt>
      <trkpt lat="46.32633" lon="-0.50512">
        <ele>63</ele>
        <time>2012-02-14T14:05:40Z</time>
      </trkpt>
      <trkpt lat="46.32626" lon="-0.50511">
        <ele>62</ele>
        <time>2012-02-14T14:05:45Z</time>
      </trkpt>
      <trkpt lat="46.32621" lon="-0.5051">
        <ele>62</ele>
        <time>2012-02-14T14:05:50Z</time>
      </trkpt>
      <trkpt lat="46.32617" lon="-0.5051">
        <ele>62</ele>
        <time>2012-02-14T14:05:55Z</time>
      </trkpt>
      <trkpt lat="46.32612" lon="-0.50506">
        <ele>62</ele>
        <time>2012-02-14T14:06:00Z</time>
      </trkpt>
      <trkpt lat="46.3261" lon="-0.50501">
        <ele>63</ele>
        <time>2012-02-14T14:06:05Z</time>
      </trkpt>
      <trkpt lat="46.32607" lon="-0.50494">
        <ele>63</ele>
        <time>2012-02-14T14:06:10Z</time>
      </trkpt>
      <trkpt lat="46.32605" lon="-0.50488">
        <ele>63</ele>
        <time>2012-02-14T14:06:15Z</time>
      </trkpt>
      <trkpt lat="46.32599" lon="-0.50483">
        <ele>63</ele>
        <time>2012-02-14T14:06:20Z</time>
      </trkpt>
      <trkpt lat="46.32601" lon="-0.50478">
        <ele>61</ele>
        <time>2012-02-14T14:06:30Z</time>
      </trkpt>
      <trkpt lat="46.32604" lon="-0.50468">
        <ele>61</ele>
        <time>2012-02-14T14:06:35Z</time>
      </trkpt>
      <trkpt lat="46.32604" lon="-0.50461">
        <ele>61</ele>
        <time>2012-02-14T14:06:40Z</time>
      </trkpt>
      <trkpt lat="46.32603" lon="-0.50457">
        <ele>59</ele>
        <time>2012-02-14T14:06:45Z</time>
      </trkpt>
      <trkpt lat="46.32603" lon="-0.50449">
        <ele>59</ele>
        <time>2012-02-14T14:06:50Z</time>
      </trkpt>
      <trkpt lat="46.32603" lon="-0.50441">
        <ele>58</ele>
        <time>2012-02-14T14:06:55Z</time>
      </trkpt>
      <trkpt lat="46.32601" lon="-0.50433">
        <ele>58</ele>
        <time>2012-02-14T14:07:00Z</time>
      </trkpt>
      <trkpt lat="46.32596" lon="-0.50428">
        <ele>60</ele>
        <time>2012-02-14T14:07:05Z</time>
      </trkpt>
      <trkpt lat="46.32591" lon="-0.50421">
        <ele>63</ele>
        <time>2012-02-14T14:07:10Z</time>
      </trkpt>
      <trkpt lat="46.32591" lon="-0.50413">
        <ele>63</ele>
        <time>2012-02-14T14:07:15Z</time>
      </trkpt>
      <trkpt lat="46.32585" lon="-0.50407">
        <ele>64</ele>
        <time>2012-02-14T14:07:20Z</time>
      </trkpt>
      <trkpt lat="46.32582" lon="-0.50404">
        <ele>65</ele>
        <time>2012-02-14T14:07:25Z</time>
      </trkpt>
      <trkpt lat="46.32583" lon="-0.50396">
        <ele>64</ele>
        <time>2012-02-14T14:07:30Z</time>
      </trkpt>
      <trkpt lat="46.32581" lon="-0.50388">
        <ele>63</ele>
        <time>2012-02-14T14:07:35Z</time>
      </trkpt>
      <trkpt lat="46.32578" lon="-0.50383">
        <ele>64</ele>
        <time>2012-02-14T14:07:40Z</time>
      </trkpt>
      <trkpt lat="46.32574" lon="-0.50377">
        <ele>64</ele>
        <time>2012-02-14T14:07:45Z</time>
      </trkpt>
      <trkpt lat="46.32574" lon="-0.50371">
        <ele>65</ele>
        <time>2012-02-14T14:07:50Z</time>
      </trkpt>
      <trkpt lat="46.32568" lon="-0.50365">
        <ele>65</ele>
        <time>2012-02-14T14:07:55Z</time>
      </trkpt>
      <trkpt lat="46.32564" lon="-0.50358">
        <ele>65</ele>
        <time>2012-02-14T14:08:00Z</time>
      </trkpt>
      <trkpt lat="46.32563" lon="-0.50354">
        <ele>64</ele>
        <time>2012-02-14T14:08:05Z</time>
      </trkpt>
      <trkpt lat="46.32562" lon="-0.50346">
        <ele>64</ele>
        <time>2012-02-14T14:08:10Z</time>
      </trkpt>
      <trkpt lat="46.32561" lon="-0.50341">
        <ele>64</ele>
        <time>2012-02-14T14:08:15Z</time>
      </trkpt>
      <trkpt lat="46.32561" lon="-0.5034">
        <ele>64</ele>
        <time>2012-02-14T14:08:20Z</time>
      </trkpt>
      <trkpt lat="46.32561" lon="-0.50339">
        <ele>64</ele>
        <time>2012-02-14T14:08:25Z</time>
      </trkpt>
      <trkpt lat="46.3256" lon="-0.50337">
        <ele>64</ele>
        <time>2012-02-14T14:08:35Z</time>
      </trkpt>
      <trkpt lat="46.32559" lon="-0.50332">
        <ele>64</ele>
        <time>2012-02-14T14:08:40Z</time>
      </trkpt>
      <trkpt lat="46.32557" lon="-0.50324">
        <ele>64</ele>
        <time>2012-02-14T14:08:45Z</time>
      </trkpt>
      <trkpt lat="46.32557" lon="-0.50317">
        <ele>64</ele>
        <time>2012-02-14T14:08:50Z</time>
      </trkpt>
      <trkpt lat="46.32557" lon="-0.50313">
        <ele>63</ele>
        <time>2012-02-14T14:08:55Z</time>
      </trkpt>
      <trkpt lat="46.32556" lon="-0.50312">
        <ele>64</ele>
        <time>2012-02-14T14:09:00Z</time>
      </trkpt>
      <trkpt lat="46.32556" lon="-0.5031">
        <ele>63</ele>
        <time>2012-02-14T14:09:05Z</time>
      </trkpt>
      <trkpt lat="46.32555" lon="-0.50305">
        <ele>63</ele>
        <time>2012-02-14T14:09:10Z</time>
      </trkpt>
      <trkpt lat="46.32553" lon="-0.50303">
        <ele>63</ele>
        <time>2012-02-14T14:09:15Z</time>
      </trkpt>
      <trkpt lat="46.32552" lon="-0.50302">
        <ele>65</ele>
        <time>2012-02-14T14:09:20Z</time>
      </trkpt>
      <trkpt lat="46.32552" lon="-0.50301">
        <ele>65</ele>
        <time>2012-02-14T14:09:25Z</time>
      </trkpt>
      <trkpt lat="46.32552" lon="-0.50301">
        <ele>65</ele>
        <time>2012-02-14T14:09:30Z</time>
      </trkpt>
      <trkpt lat="46.32551" lon="-0.50297">
        <ele>63</ele>
        <time>2012-02-14T14:09:35Z</time>
      </trkpt>
      <trkpt lat="46.3255" lon="-0.5029">
        <ele>65</ele>
        <time>2012-02-14T14:09:40Z</time>
      </trkpt>
      <trkpt lat="46.32548" lon="-0.50282">
        <ele>64</ele>
        <time>2012-02-14T14:09:45Z</time>
      </trkpt>
      <trkpt lat="46.32546" lon="-0.50279">
        <ele>64</ele>
        <time>2012-02-14T14:09:50Z</time>
      </trkpt>
      <trkpt lat="46.32545" lon="-0.50275">
        <ele>61</ele>
        <time>2012-02-14T14:09:55Z</time>
      </trkpt>
      <trkpt lat="46.32544" lon="-0.5027">
        <ele>62</ele>
        <time>2012-02-14T14:10:00Z</time>
      </trkpt>
      <trkpt lat="46.32542" lon="-0.50263">
        <ele>62</ele>
        <time>2012-02-14T14:10:05Z</time>
      </trkpt>
      <trkpt lat="46.32542" lon="-0.50257">
        <ele>61</ele>
        <time>2012-02-14T14:10:10Z</time>
      </trkpt>
      <trkpt lat="46.3254" lon="-0.50249">
        <ele>62</ele>
        <time>2012-02-14T14:10:15Z</time>
      </trkpt>
      <trkpt lat="46.32538" lon="-0.50241">
        <ele>59</ele>
        <time>2012-02-14T14:10:20Z</time>
      </trkpt>
      <trkpt lat="46.32537" lon="-0.50233">
        <ele>58</ele>
        <time>2012-02-14T14:10:25Z</time>
      </trkpt>
      <trkpt lat="46.32534" lon="-0.50226">
        <ele>59</ele>
        <time>2012-02-14T14:10:30Z</time>
      </trkpt>
      <trkpt lat="46.32531" lon="-0.50218">
        <ele>58</ele>
        <time>2012-02-14T14:10:35Z</time>
      </trkpt>
      <trkpt lat="46.32528" lon="-0.50209">
        <ele>59</ele>
        <time>2012-02-14T14:10:40Z</time>
      </trkpt>
      <trkpt lat="46.32526" lon="-0.50201">
        <ele>58</ele>
        <time>2012-02-14T14:10:45Z</time>
      </trkpt>
      <trkpt lat="46.32524" lon="-0.50193">
        <ele>60</ele>
        <time>2012-02-14T14:10:50Z</time>
      </trkpt>
      <trkpt lat="46.32522" lon="-0.50186">
        <ele>60</ele>
        <time>2012-02-14T14:10:55Z</time>
      </trkpt>
      <trkpt lat="46.32519" lon="-0.50179">
        <ele>60</ele>
        <time>2012-02-14T14:11:00Z</time>
      </trkpt>
      <trkpt lat="46.32516" lon="-0.50171">
        <ele>62</ele>
        <time>2012-02-14T14:11:05Z</time>
      </trkpt>
      <trkpt lat="46.32513" lon="-0.50164">
        <ele>61</ele>
        <time>2012-02-14T14:11:10Z</time>
      </trkpt>
      <trkpt lat="46.32513" lon="-0.50157">
        <ele>60</ele>
        <time>2012-02-14T14:11:15Z</time>
      </trkpt>
      <trkpt lat="46.3251" lon="-0.5015">
        <ele>59</ele>
        <time>2012-02-14T14:11:20Z</time>
      </trkpt>
      <trkpt lat="46.32508" lon="-0.50144">
        <ele>62</ele>
        <time>2012-02-14T14:11:25Z</time>
      </trkpt>
      <trkpt lat="46.32506" lon="-0.50136">
        <ele>62</ele>
        <time>2012-02-14T14:11:30Z</time>
      </trkpt>
      <trkpt lat="46.32505" lon="-0.5013">
        <ele>62</ele>
        <time>2012-02-14T14:11:35Z</time>
      </trkpt>
      <trkpt lat="46.32503" lon="-0.50124">
        <ele>62</ele>
        <time>2012-02-14T14:11:40Z</time>
      </trkpt>
      <trkpt lat="46.32502" lon="-0.50121">
        <ele>63</ele>
        <time>2012-02-14T14:11:45Z</time>
      </trkpt>
      <trkpt lat="46.32501" lon="-0.50114">
        <ele>64</ele>
        <time>2012-02-14T14:11:50Z</time>
      </trkpt>
      <trkpt lat="46.32503" lon="-0.5011">
        <ele>65</ele>
        <time>2012-02-14T14:11:55Z</time>
      </trkpt>
      <trkpt lat="46.32509" lon="-0.50104">
        <ele>64</ele>
        <time>2012-02-14T14:12:00Z</time>
      </trkpt>
      <trkpt lat="46.32515" lon="-0.50104">
        <ele>63</ele>
        <time>2012-02-14T14:12:05Z</time>
      </trkpt>
      <trkpt lat="46.32522" lon="-0.50104">
        <ele>62</ele>
        <time>2012-02-14T14:12:10Z</time>
      </trkpt>
      <trkpt lat="46.32526" lon="-0.50105">
        <ele>62</ele>
        <time>2012-02-14T14:12:15Z</time>
      </trkpt>
      <trkpt lat="46.32536" lon="-0.50106">
        <ele>61</ele>
        <time>2012-02-14T14:12:20Z</time>
      </trkpt>
      <trkpt lat="46.32542" lon="-0.50107">
        <ele>60</ele>
        <time>2012-02-14T14:12:25Z</time>
      </trkpt>
      <trkpt lat="46.32548" lon="-0.50108">
        <ele>58</ele>
        <time>2012-02-14T14:12:30Z</time>
      </trkpt>
      <trkpt lat="46.32552" lon="-0.50109">
        <ele>59</ele>
        <time>2012-02-14T14:12:35Z</time>
      </trkpt>
      <trkpt lat="46.32559" lon="-0.50108">
        <ele>58</ele>
        <time>2012-02-14T14:12:40Z</time>
      </trkpt>
      <trkpt lat="46.32564" lon="-0.50106">
        <ele>59</ele>
        <time>2012-02-14T14:12:45Z</time>
      </trkpt>
      <trkpt lat="46.32571" lon="-0.50106">
        <ele>58</ele>
        <time>2012-02-14T14:12:50Z</time>
      </trkpt>
      <trkpt lat="46.32577" lon="-0.50106">
        <ele>61</ele>
        <time>2012-02-14T14:12:55Z</time>
      </trkpt>
      <trkpt lat="46.32582" lon="-0.50108">
        <ele>62</ele>
        <time>2012-02-14T14:13:00Z</time>
      </trkpt>
      <trkpt lat="46.32589" lon="-0.50107">
        <ele>61</ele>
        <time>2012-02-14T14:13:05Z</time>
      </trkpt>
      <trkpt lat="46.32591" lon="-0.50105">
        <ele>59</ele>
        <time>2012-02-14T14:13:10Z</time>
      </trkpt>
      <trkpt lat="46.32597" lon="-0.50107">
        <ele>60</ele>
        <time>2012-02-14T14:13:15Z</time>
      </trkpt>
      <trkpt lat="46.32604" lon="-0.5011">
        <ele>59</ele>
        <time>2012-02-14T14:13:20Z</time>
      </trkpt>
      <trkpt lat="46.32609" lon="-0.50111">
        <ele>59</ele>
        <time>2012-02-14T14:13:25Z</time>
      </trkpt>
      <trkpt lat="46.32617" lon="-0.50111">
        <ele>58</ele>
        <time>2012-02-14T14:13:30Z</time>
      </trkpt>
      <trkpt lat="46.32622" lon="-0.50109">
        <ele>58</ele>
        <time>2012-02-14T14:13:35Z</time>
      </trkpt>
      <trkpt lat="46.32628" lon="-0.50111">
        <ele>57</ele>
        <time>2012-02-14T14:13:40Z</time>
      </trkpt>
      <trkpt lat="46.32636" lon="-0.5011">
        <ele>58</ele>
        <time>2012-02-14T14:13:45Z</time>
      </trkpt>
      <trkpt lat="46.32643" lon="-0.5011">
        <ele>59</ele>
        <time>2012-02-14T14:13:50Z</time>
      </trkpt>
      <trkpt lat="46.32646" lon="-0.5011">
        <ele>59</ele>
        <time>2012-02-14T14:13:55Z</time>
      </trkpt>
      <trkpt lat="46.32651" lon="-0.50112">
        <ele>58</ele>
        <time>2012-02-14T14:14:00Z</time>
      </trkpt>
      <trkpt lat="46.32658" lon="-0.50112">
        <ele>57</ele>
        <time>2012-02-14T14:14:05Z</time>
      </trkpt>
      <trkpt lat="46.32662" lon="-0.50114">
        <ele>58</ele>
        <time>2012-02-14T14:14:10Z</time>
      </trkpt>
      <trkpt lat="46.32668" lon="-0.50114">
        <ele>59</ele>
        <time>2012-02-14T14:14:15Z</time>
      </trkpt>
      <trkpt lat="46.32671" lon="-0.50112">
        <ele>58</ele>
        <time>2012-02-14T14:14:20Z</time>
      </trkpt>
      <trkpt lat="46.32677" lon="-0.50114">
        <ele>60</ele>
        <time>2012-02-14T14:14:25Z</time>
      </trkpt>
      <trkpt lat="46.32682" lon="-0.50117">
        <ele>59</ele>
        <time>2012-02-14T14:14:30Z</time>
      </trkpt>
      <trkpt lat="46.32688" lon="-0.50115">
        <ele>59</ele>
        <time>2012-02-14T14:14:35Z</time>
      </trkpt>
      <trkpt lat="46.32699" lon="-0.50112">
        <ele>58</ele>
        <time>2012-02-14T14:14:40Z</time>
      </trkpt>
      <trkpt lat="46.32713" lon="-0.50112">
        <ele>60</ele>
        <time>2012-02-14T14:14:45Z</time>
      </trkpt>
      <trkpt lat="46.32715" lon="-0.50114">
        <ele>61</ele>
        <time>2012-02-14T14:14:50Z</time>
      </trkpt>
      <trkpt lat="46.32718" lon="-0.50115">
        <ele>61</ele>
        <time>2012-02-14T14:14:55Z</time>
      </trkpt>
      <trkpt lat="46.32721" lon="-0.50118">
        <ele>61</ele>
        <time>2012-02-14T14:15:00Z</time>
      </trkpt>
      <trkpt lat="46.32723" lon="-0.50117">
        <ele>59</ele>
        <time>2012-02-14T14:15:05Z</time>
      </trkpt>
      <trkpt lat="46.32728" lon="-0.50117">
        <ele>59</ele>
        <time>2012-02-14T14:15:10Z</time>
      </trkpt>
      <trkpt lat="46.32734" lon="-0.50116">
        <ele>58</ele>
        <time>2012-02-14T14:15:15Z</time>
      </trkpt>
      <trkpt lat="46.32738" lon="-0.50118">
        <ele>57</ele>
        <time>2012-02-14T14:15:20Z</time>
      </trkpt>
      <trkpt lat="46.32744" lon="-0.50119">
        <ele>58</ele>
        <time>2012-02-14T14:15:25Z</time>
      </trkpt>
      <trkpt lat="46.32749" lon="-0.50117">
        <ele>57</ele>
        <time>2012-02-14T14:15:30Z</time>
      </trkpt>
      <trkpt lat="46.32755" lon="-0.50118">
        <ele>56</ele>
        <time>2012-02-14T14:15:35Z</time>
      </trkpt>
      <trkpt lat="46.32765" lon="-0.50117">
        <ele>58</ele>
        <time>2012-02-14T14:15:40Z</time>
      </trkpt>
      <trkpt lat="46.32771" lon="-0.50115">
        <ele>57</ele>
        <time>2012-02-14T14:15:45Z</time>
      </trkpt>
      <trkpt lat="46.32776" lon="-0.50118">
        <ele>56</ele>
        <time>2012-02-14T14:15:50Z</time>
      </trkpt>
      <trkpt lat="46.32781" lon="-0.50119">
        <ele>56</ele>
        <time>2012-02-14T14:15:55Z</time>
      </trkpt>
      <trkpt lat="46.32787" lon="-0.5012">
        <ele>58</ele>
        <time>2012-02-14T14:16:00Z</time>
      </trkpt>
      <trkpt lat="46.32792" lon="-0.50121">
        <ele>58</ele>
        <time>2012-02-14T14:16:05Z</time>
      </trkpt>
      <trkpt lat="46.32797" lon="-0.5012">
        <ele>59</ele>
        <time>2012-02-14T14:16:10Z</time>
      </trkpt>
      <trkpt lat="46.32803" lon="-0.5012">
        <ele>59</ele>
        <time>2012-02-14T14:16:15Z</time>
      </trkpt>
      <trkpt lat="46.32807" lon="-0.50119">
        <ele>60</ele>
        <time>2012-02-14T14:16:20Z</time>
      </trkpt>
      <trkpt lat="46.32813" lon="-0.5012">
        <ele>59</ele>
        <time>2012-02-14T14:16:25Z</time>
      </trkpt>
      <trkpt lat="46.32819" lon="-0.50122">
        <ele>58</ele>
        <time>2012-02-14T14:16:30Z</time>
      </trkpt>
      <trkpt lat="46.32824" lon="-0.50125">
        <ele>59</ele>
        <time>2012-02-14T14:16:35Z</time>
      </trkpt>
      <trkpt lat="46.3283" lon="-0.50125">
        <ele>59</ele>
        <time>2012-02-14T14:16:40Z</time>
      </trkpt>
      <trkpt lat="46.32834" lon="-0.50125">
        <ele>58</ele>
        <time>2012-02-14T14:16:45Z</time>
      </trkpt>
      <trkpt lat="46.32836" lon="-0.50127">
        <ele>57</ele>
        <time>2012-02-14T14:16:50Z</time>
      </trkpt>
      <trkpt lat="46.32843" lon="-0.50127">
        <ele>57</ele>
        <time>2012-02-14T14:16:55Z</time>
      </trkpt>
      <trkpt lat="46.32851" lon="-0.50124">
        <ele>58</ele>
        <time>2012-02-14T14:17:00Z</time>
      </trkpt>
      <trkpt lat="46.32856" lon="-0.50124">
        <ele>59</ele>
        <time>2012-02-14T14:17:05Z</time>
      </trkpt>
      <trkpt lat="46.32861" lon="-0.50127">
        <ele>59</ele>
        <time>2012-02-14T14:17:10Z</time>
      </trkpt>
      <trkpt lat="46.32865" lon="-0.50127">
        <ele>58</ele>
        <time>2012-02-14T14:17:15Z</time>
      </trkpt>
      <trkpt lat="46.32871" lon="-0.50128">
        <ele>60</ele>
        <time>2012-02-14T14:17:20Z</time>
      </trkpt>
      <trkpt lat="46.32877" lon="-0.50127">
        <ele>59</ele>
        <time>2012-02-14T14:17:25Z</time>
      </trkpt>
      <trkpt lat="46.32883" lon="-0.50127">
        <ele>57</ele>
        <time>2012-02-14T14:17:30Z</time>
      </trkpt>
      <trkpt lat="46.32886" lon="-0.50126">
        <ele>56</ele>
        <time>2012-02-14T14:17:35Z</time>
      </trkpt>
      <trkpt lat="46.32891" lon="-0.50128">
        <ele>56</ele>
        <time>2012-02-14T14:17:40Z</time>
      </trkpt>
      <trkpt lat="46.32896" lon="-0.50129">
        <ele>57</ele>
        <time>2012-02-14T14:17:45Z</time>
      </trkpt>
      <trkpt lat="46.32903" lon="-0.50129">
        <ele>58</ele>
        <time>2012-02-14T14:17:50Z</time>
      </trkpt>
      <trkpt lat="46.32908" lon="-0.50129">
        <ele>57</ele>
        <time>2012-02-14T14:17:55Z</time>
      </trkpt>
      <trkpt lat="46.32913" lon="-0.5013">
        <ele>59</ele>
        <time>2012-02-14T14:18:00Z</time>
      </trkpt>
      <trkpt lat="46.3292" lon="-0.5013">
        <ele>60</ele>
        <time>2012-02-14T14:18:05Z</time>
      </trkpt>
      <trkpt lat="46.32924" lon="-0.50129">
        <ele>60</ele>
        <time>2012-02-14T14:18:10Z</time>
      </trkpt>
      <trkpt lat="46.3293" lon="-0.50129">
        <ele>60</ele>
        <time>2012-02-14T14:18:15Z</time>
      </trkpt>
      <trkpt lat="46.32936" lon="-0.5013">
        <ele>60</ele>
        <time>2012-02-14T14:18:20Z</time>
      </trkpt>
      <trkpt lat="46.32941" lon="-0.5013">
        <ele>61</ele>
        <time>2012-02-14T14:18:25Z</time>
      </trkpt>
      <trkpt lat="46.32947" lon="-0.50131">
        <ele>62</ele>
        <time>2012-02-14T14:18:30Z</time>
      </trkpt>
      <trkpt lat="46.32952" lon="-0.50131">
        <ele>63</ele>
        <time>2012-02-14T14:18:35Z</time>
      </trkpt>
      <trkpt lat="46.32958" lon="-0.5013">
        <ele>63</ele>
        <time>2012-02-14T14:18:40Z</time>
      </trkpt>
      <trkpt lat="46.32963" lon="-0.50132">
        <ele>63</ele>
        <time>2012-02-14T14:18:45Z</time>
      </trkpt>
      <trkpt lat="46.32969" lon="-0.50132">
        <ele>63</ele>
        <time>2012-02-14T14:18:50Z</time>
      </trkpt>
      <trkpt lat="46.32974" lon="-0.50133">
        <ele>65</ele>
        <time>2012-02-14T14:18:55Z</time>
      </trkpt>
      <trkpt lat="46.3298" lon="-0.50133">
        <ele>65</ele>
        <time>2012-02-14T14:19:00Z</time>
      </trkpt>
      <trkpt lat="46.32985" lon="-0.50134">
        <ele>66</ele>
        <time>2012-02-14T14:19:05Z</time>
      </trkpt>
      <trkpt lat="46.3299" lon="-0.50134">
        <ele>66</ele>
        <time>2012-02-14T14:19:10Z</time>
      </trkpt>
      <trkpt lat="46.32995" lon="-0.50134">
        <ele>66</ele>
        <time>2012-02-14T14:19:15Z</time>
      </trkpt>
      <trkpt lat="46.33001" lon="-0.50135">
        <ele>66</ele>
        <time>2012-02-14T14:19:20Z</time>
      </trkpt>
      <trkpt lat="46.33006" lon="-0.50136">
        <ele>68</ele>
        <time>2012-02-14T14:19:25Z</time>
      </trkpt>
      <trkpt lat="46.33013" lon="-0.50135">
        <ele>68</ele>
        <time>2012-02-14T14:19:30Z</time>
      </trkpt>
      <trkpt lat="46.33018" lon="-0.50135">
        <ele>68</ele>
        <time>2012-02-14T14:19:35Z</time>
      </trkpt>
      <trkpt lat="46.33024" lon="-0.50135">
        <ele>67</ele>
        <time>2012-02-14T14:19:40Z</time>
      </trkpt>
      <trkpt lat="46.33028" lon="-0.50137">
        <ele>67</ele>
        <time>2012-02-14T14:19:45Z</time>
      </trkpt>
      <trkpt lat="46.33034" lon="-0.50139">
        <ele>68</ele>
        <time>2012-02-14T14:19:50Z</time>
      </trkpt>
      <trkpt lat="46.33039" lon="-0.50139">
        <ele>69</ele>
        <time>2012-02-14T14:19:55Z</time>
      </trkpt>
      <trkpt lat="46.33044" lon="-0.50139">
        <ele>71</ele>
        <time>2012-02-14T14:20:00Z</time>
      </trkpt>
      <trkpt lat="46.3305" lon="-0.5014">
        <ele>72</ele>
        <time>2012-02-14T14:20:05Z</time>
      </trkpt>
      <trkpt lat="46.33055" lon="-0.5014">
        <ele>72</ele>
        <time>2012-02-14T14:20:10Z</time>
      </trkpt>
      <trkpt lat="46.33061" lon="-0.5014">
        <ele>73</ele>
        <time>2012-02-14T14:20:15Z</time>
      </trkpt>
      <trkpt lat="46.33066" lon="-0.50141">
        <ele>75</ele>
        <time>2012-02-14T14:20:20Z</time>
      </trkpt>
      <trkpt lat="46.33071" lon="-0.50142">
        <ele>76</ele>
        <time>2012-02-14T14:20:25Z</time>
      </trkpt>
      <trkpt lat="46.33076" lon="-0.50142">
        <ele>76</ele>
        <time>2012-02-14T14:20:30Z</time>
      </trkpt>
      <trkpt lat="46.3308" lon="-0.50143">
        <ele>78</ele>
        <time>2012-02-14T14:20:35Z</time>
      </trkpt>
      <trkpt lat="46.33086" lon="-0.50143">
        <ele>77</ele>
        <time>2012-02-14T14:20:40Z</time>
      </trkpt>
      <trkpt lat="46.33091" lon="-0.50144">
        <ele>78</ele>
        <time>2012-02-14T14:20:45Z</time>
      </trkpt>
      <trkpt lat="46.33097" lon="-0.50143">
        <ele>77</ele>
        <time>2012-02-14T14:20:50Z</time>
      </trkpt>
      <trkpt lat="46.33101" lon="-0.50144">
        <ele>77</ele>
        <time>2012-02-14T14:20:55Z</time>
      </trkpt>
      <trkpt lat="46.33107" lon="-0.50144">
        <ele>76</ele>
        <time>2012-02-14T14:21:00Z</time>
      </trkpt>
      <trkpt lat="46.33113" lon="-0.50144">
        <ele>77</ele>
        <time>2012-02-14T14:21:05Z</time>
      </trkpt>
      <trkpt lat="46.33119" lon="-0.50146">
        <ele>78</ele>
        <time>2012-02-14T14:21:10Z</time>
      </trkpt>
      <trkpt lat="46.33124" lon="-0.50145">
        <ele>78</ele>
        <time>2012-02-14T14:21:15Z</time>
      </trkpt>
      <trkpt lat="46.3313" lon="-0.50146">
        <ele>78</ele>
        <time>2012-02-14T14:21:20Z</time>
      </trkpt>
      <trkpt lat="46.33136" lon="-0.50146">
        <ele>78</ele>
        <time>2012-02-14T14:21:25Z</time>
      </trkpt>
      <trkpt lat="46.33141" lon="-0.50147">
        <ele>79</ele>
        <time>2012-02-14T14:21:30Z</time>
      </trkpt>
      <trkpt lat="46.33147" lon="-0.50147">
        <ele>79</ele>
        <time>2012-02-14T14:21:35Z</time>
      </trkpt>
      <trkpt lat="46.33153" lon="-0.50147">
        <ele>79</ele>
        <time>2012-02-14T14:21:40Z</time>
      </trkpt>
      <trkpt lat="46.33159" lon="-0.50147">
        <ele>79</ele>
        <time>2012-02-14T14:21:45Z</time>
      </trkpt>
      <trkpt lat="46.33165" lon="-0.50147">
        <ele>79</ele>
        <time>2012-02-14T14:21:50Z</time>
      </trkpt>
      <trkpt lat="46.3317" lon="-0.50148">
        <ele>79</ele>
        <time>2012-02-14T14:21:55Z</time>
      </trkpt>
      <trkpt lat="46.33175" lon="-0.50149">
        <ele>80</ele>
        <time>2012-02-14T14:22:00Z</time>
      </trkpt>
      <trkpt lat="46.33181" lon="-0.5015">
        <ele>80</ele>
        <time>2012-02-14T14:22:05Z</time>
      </trkpt>
      <trkpt lat="46.33186" lon="-0.50149">
        <ele>81</ele>
        <time>2012-02-14T14:22:10Z</time>
      </trkpt>
      <trkpt lat="46.33192" lon="-0.50149">
        <ele>82</ele>
        <time>2012-02-14T14:22:15Z</time>
      </trkpt>
      <trkpt lat="46.33197" lon="-0.5015">
        <ele>83</ele>
        <time>2012-02-14T14:22:20Z</time>
      </trkpt>
      <trkpt lat="46.33202" lon="-0.5015">
        <ele>82</ele>
        <time>2012-02-14T14:22:25Z</time>
      </trkpt>
      <trkpt lat="46.33207" lon="-0.50151">
        <ele>83</ele>
        <time>2012-02-14T14:22:30Z</time>
      </trkpt>
      <trkpt lat="46.33212" lon="-0.50154">
        <ele>85</ele>
        <time>2012-02-14T14:22:35Z</time>
      </trkpt>
      <trkpt lat="46.33218" lon="-0.50155">
        <ele>86</ele>
        <time>2012-02-14T14:22:40Z</time>
      </trkpt>
      <trkpt lat="46.33223" lon="-0.50155">
        <ele>88</ele>
        <time>2012-02-14T14:22:45Z</time>
      </trkpt>
      <trkpt lat="46.33229" lon="-0.50155">
        <ele>88</ele>
        <time>2012-02-14T14:22:50Z</time>
      </trkpt>
      <trkpt lat="46.33234" lon="-0.50156">
        <ele>88</ele>
        <time>2012-02-14T14:22:55Z</time>
      </trkpt>
      <trkpt lat="46.33239" lon="-0.50156">
        <ele>87</ele>
        <time>2012-02-14T14:23:00Z</time>
      </trkpt>
      <trkpt lat="46.33245" lon="-0.50156">
        <ele>88</ele>
        <time>2012-02-14T14:23:05Z</time>
      </trkpt>
      <trkpt lat="46.3325" lon="-0.50157">
        <ele>89</ele>
        <time>2012-02-14T14:23:10Z</time>
      </trkpt>
      <trkpt lat="46.33255" lon="-0.50156">
        <ele>89</ele>
        <time>2012-02-14T14:23:15Z</time>
      </trkpt>
      <trkpt lat="46.33261" lon="-0.50157">
        <ele>88</ele>
        <time>2012-02-14T14:23:20Z</time>
      </trkpt>
      <trkpt lat="46.33267" lon="-0.50156">
        <ele>88</ele>
        <time>2012-02-14T14:23:25Z</time>
      </trkpt>
      <trkpt lat="46.33272" lon="-0.50156">
        <ele>88</ele>
        <time>2012-02-14T14:23:30Z</time>
      </trkpt>
      <trkpt lat="46.33277" lon="-0.50155">
        <ele>88</ele>
        <time>2012-02-14T14:23:35Z</time>
      </trkpt>
      <trkpt lat="46.33284" lon="-0.50154">
        <ele>88</ele>
        <time>2012-02-14T14:23:40Z</time>
      </trkpt>
      <trkpt lat="46.33289" lon="-0.50152">
        <ele>89</ele>
        <time>2012-02-14T14:23:45Z</time>
      </trkpt>
      <trkpt lat="46.33295" lon="-0.50151">
        <ele>90</ele>
        <time>2012-02-14T14:23:50Z</time>
      </trkpt>
      <trkpt lat="46.33299" lon="-0.50152">
        <ele>90</ele>
        <time>2012-02-14T14:23:55Z</time>
      </trkpt>
      <trkpt lat="46.33305" lon="-0.50154">
        <ele>89</ele>
        <time>2012-02-14T14:24:00Z</time>
      </trkpt>
      <trkpt lat="46.33311" lon="-0.50156">
        <ele>89</ele>
        <time>2012-02-14T14:24:05Z</time>
      </trkpt>
      <trkpt lat="46.33316" lon="-0.50158">
        <ele>89</ele>
        <time>2012-02-14T14:24:10Z</time>
      </trkpt>
      <trkpt lat="46.33322" lon="-0.50161">
        <ele>88</ele>
        <time>2012-02-14T14:24:15Z</time>
      </trkpt>
      <trkpt lat="46.33326" lon="-0.50164">
        <ele>89</ele>
        <time>2012-02-14T14:24:20Z</time>
      </trkpt>
      <trkpt lat="46.33333" lon="-0.50168">
        <ele>88</ele>
        <time>2012-02-14T14:24:25Z</time>
      </trkpt>
      <trkpt lat="46.33334" lon="-0.50171">
        <ele>85</ele>
        <time>2012-02-14T14:24:30Z</time>
      </trkpt>
      <trkpt lat="46.33341" lon="-0.50174">
        <ele>84</ele>
        <time>2012-02-14T14:24:35Z</time>
      </trkpt>
      <trkpt lat="46.33347" lon="-0.50178">
        <ele>82</ele>
        <time>2012-02-14T14:24:40Z</time>
      </trkpt>
      <trkpt lat="46.33351" lon="-0.50183">
        <ele>83</ele>
        <time>2012-02-14T14:24:45Z</time>
      </trkpt>
      <trkpt lat="46.33356" lon="-0.50187">
        <ele>80</ele>
        <time>2012-02-14T14:24:50Z</time>
      </trkpt>
      <trkpt lat="46.33362" lon="-0.50193">
        <ele>80</ele>
        <time>2012-02-14T14:24:55Z</time>
      </trkpt>
      <trkpt lat="46.33366" lon="-0.50195">
        <ele>78</ele>
        <time>2012-02-14T14:25:00Z</time>
      </trkpt>
      <trkpt lat="46.33371" lon="-0.50199">
        <ele>78</ele>
        <time>2012-02-14T14:25:05Z</time>
      </trkpt>
      <trkpt lat="46.33375" lon="-0.50203">
        <ele>79</ele>
        <time>2012-02-14T14:25:10Z</time>
      </trkpt>
      <trkpt lat="46.3338" lon="-0.50205">
        <ele>78</ele>
        <time>2012-02-14T14:25:15Z</time>
      </trkpt>
      <trkpt lat="46.33385" lon="-0.50209">
        <ele>78</ele>
        <time>2012-02-14T14:25:20Z</time>
      </trkpt>
      <trkpt lat="46.33389" lon="-0.50213">
        <ele>78</ele>
        <time>2012-02-14T14:25:25Z</time>
      </trkpt>
      <trkpt lat="46.33394" lon="-0.50216">
        <ele>78</ele>
        <time>2012-02-14T14:25:30Z</time>
      </trkpt>
      <trkpt lat="46.334" lon="-0.50221">
        <ele>78</ele>
        <time>2012-02-14T14:25:35Z</time>
      </trkpt>
      <trkpt lat="46.33404" lon="-0.50225">
        <ele>78</ele>
        <time>2012-02-14T14:25:40Z</time>
      </trkpt>
      <trkpt lat="46.33409" lon="-0.50229">
        <ele>77</ele>
        <time>2012-02-14T14:25:45Z</time>
      </trkpt>
      <trkpt lat="46.33415" lon="-0.50231">
        <ele>77</ele>
        <time>2012-02-14T14:25:50Z</time>
      </trkpt>
      <trkpt lat="46.3342" lon="-0.50236">
        <ele>77</ele>
        <time>2012-02-14T14:25:55Z</time>
      </trkpt>
      <trkpt lat="46.33424" lon="-0.5024">
        <ele>77</ele>
        <time>2012-02-14T14:26:00Z</time>
      </trkpt>
      <trkpt lat="46.33429" lon="-0.50247">
        <ele>76</ele>
        <time>2012-02-14T14:26:05Z</time>
      </trkpt>
      <trkpt lat="46.33433" lon="-0.50253">
        <ele>77</ele>
        <time>2012-02-14T14:26:10Z</time>
      </trkpt>
      <trkpt lat="46.33437" lon="-0.50259">
        <ele>78</ele>
        <time>2012-02-14T14:26:15Z</time>
      </trkpt>
      <trkpt lat="46.3344" lon="-0.50266">
        <ele>79</ele>
        <time>2012-02-14T14:26:20Z</time>
      </trkpt>
      <trkpt lat="46.33443" lon="-0.50273">
        <ele>78</ele>
        <time>2012-02-14T14:26:25Z</time>
      </trkpt>
      <trkpt lat="46.33447" lon="-0.50279">
        <ele>79</ele>
        <time>2012-02-14T14:26:30Z</time>
      </trkpt>
      <trkpt lat="46.3345" lon="-0.50287">
        <ele>79</ele>
        <time>2012-02-14T14:26:35Z</time>
      </trkpt>
      <trkpt lat="46.33452" lon="-0.50295">
        <ele>79</ele>
        <time>2012-02-14T14:26:40Z</time>
      </trkpt>
      <trkpt lat="46.33454" lon="-0.50302">
        <ele>80</ele>
        <time>2012-02-14T14:26:45Z</time>
      </trkpt>
      <trkpt lat="46.33455" lon="-0.50308">
        <ele>79</ele>
        <time>2012-02-14T14:26:50Z</time>
      </trkpt>
      <trkpt lat="46.33458" lon="-0.50315">
        <ele>78</ele>
        <time>2012-02-14T14:26:55Z</time>
      </trkpt>
      <trkpt lat="46.33464" lon="-0.50321">
        <ele>76</ele>
        <time>2012-02-14T14:27:00Z</time>
      </trkpt>
      <trkpt lat="46.33468" lon="-0.50323">
        <ele>77</ele>
        <time>2012-02-14T14:27:05Z</time>
      </trkpt>
      <trkpt lat="46.33476" lon="-0.50324">
        <ele>78</ele>
        <time>2012-02-14T14:27:10Z</time>
      </trkpt>
      <trkpt lat="46.33477" lon="-0.50327">
        <ele>77</ele>
        <time>2012-02-14T14:27:15Z</time>
      </trkpt>
      <trkpt lat="46.33483" lon="-0.50328">
        <ele>78</ele>
        <time>2012-02-14T14:27:20Z</time>
      </trkpt>
      <trkpt lat="46.33488" lon="-0.50328">
        <ele>79</ele>
        <time>2012-02-14T14:27:25Z</time>
      </trkpt>
      <trkpt lat="46.33488" lon="-0.50327">
        <ele>82</ele>
        <time>2012-02-14T14:27:30Z</time>
      </trkpt>
      <trkpt lat="46.33488" lon="-0.50326">
        <ele>83</ele>
        <time>2012-02-14T14:27:35Z</time>
      </trkpt>
      <trkpt lat="46.33488" lon="-0.50327">
        <ele>83</ele>
        <time>2012-02-14T14:27:40Z</time>
      </trkpt>
      <trkpt lat="46.33489" lon="-0.50328">
        <ele>83</ele>
        <time>2012-02-14T14:27:45Z</time>
      </trkpt>
      <trkpt lat="46.33488" lon="-0.50327">
        <ele>83</ele>
        <time>2012-02-14T14:27:50Z</time>
      </trkpt>
      <trkpt lat="46.33489" lon="-0.50323">
        <ele>84</ele>
        <time>2012-02-14T14:28:25Z</time>
      </trkpt>
      <trkpt lat="46.3349" lon="-0.50318">
        <ele>85</ele>
        <time>2012-02-14T14:28:30Z</time>
      </trkpt>
      <trkpt lat="46.3349" lon="-0.50316">
        <ele>86</ele>
        <time>2012-02-14T14:28:35Z</time>
      </trkpt>
      <trkpt lat="46.33492" lon="-0.50308">
        <ele>86</ele>
        <time>2012-02-14T14:28:40Z</time>
      </trkpt>
      <trkpt lat="46.33495" lon="-0.50299">
        <ele>86</ele>
        <time>2012-02-14T14:28:45Z</time>
      </trkpt>
      <trkpt lat="46.33498" lon="-0.50292">
        <ele>85</ele>
        <time>2012-02-14T14:28:50Z</time>
      </trkpt>
      <trkpt lat="46.33501" lon="-0.50286">
        <ele>84</ele>
        <time>2012-02-14T14:28:55Z</time>
      </trkpt>
      <trkpt lat="46.33503" lon="-0.5028">
        <ele>82</ele>
        <time>2012-02-14T14:29:00Z</time>
      </trkpt>
      <trkpt lat="46.33506" lon="-0.50274">
        <ele>80</ele>
        <time>2012-02-14T14:29:05Z</time>
      </trkpt>
      <trkpt lat="46.33507" lon="-0.50265">
        <ele>81</ele>
        <time>2012-02-14T14:29:10Z</time>
      </trkpt>
      <trkpt lat="46.33511" lon="-0.50259">
        <ele>81</ele>
        <time>2012-02-14T14:29:15Z</time>
      </trkpt>
      <trkpt lat="46.33514" lon="-0.5025">
        <ele>85</ele>
        <time>2012-02-14T14:29:20Z</time>
      </trkpt>
      <trkpt lat="46.33517" lon="-0.50244">
        <ele>85</ele>
        <time>2012-02-14T14:29:25Z</time>
      </trkpt>
      <trkpt lat="46.3352" lon="-0.50237">
        <ele>83</ele>
        <time>2012-02-14T14:29:30Z</time>
      </trkpt>
      <trkpt lat="46.33523" lon="-0.5023">
        <ele>84</ele>
        <time>2012-02-14T14:29:35Z</time>
      </trkpt>
      <trkpt lat="46.33524" lon="-0.50222">
        <ele>84</ele>
        <time>2012-02-14T14:29:40Z</time>
      </trkpt>
      <trkpt lat="46.33526" lon="-0.50215">
        <ele>83</ele>
        <time>2012-02-14T14:29:45Z</time>
      </trkpt>
      <trkpt lat="46.33529" lon="-0.50208">
        <ele>85</ele>
        <time>2012-02-14T14:29:50Z</time>
      </trkpt>
      <trkpt lat="46.33532" lon="-0.50201">
        <ele>84</ele>
        <time>2012-02-14T14:29:55Z</time>
      </trkpt>
      <trkpt lat="46.33534" lon="-0.50193">
        <ele>83</ele>
        <time>2012-02-14T14:30:00Z</time>
      </trkpt>
      <trkpt lat="46.33537" lon="-0.50184">
        <ele>83</ele>
        <time>2012-02-14T14:30:05Z</time>
      </trkpt>
      <trkpt lat="46.33539" lon="-0.50179">
        <ele>82</ele>
        <time>2012-02-14T14:30:10Z</time>
      </trkpt>
      <trkpt lat="46.33543" lon="-0.50173">
        <ele>80</ele>
        <time>2012-02-14T14:30:15Z</time>
      </trkpt>
      <trkpt lat="46.33546" lon="-0.50165">
        <ele>78</ele>
        <time>2012-02-14T14:30:20Z</time>
      </trkpt>
      <trkpt lat="46.33548" lon="-0.50159">
        <ele>77</ele>
        <time>2012-02-14T14:30:25Z</time>
      </trkpt>
      <trkpt lat="46.33551" lon="-0.50152">
        <ele>77</ele>
        <time>2012-02-14T14:30:30Z</time>
      </trkpt>
      <trkpt lat="46.33553" lon="-0.50147">
        <ele>77</ele>
        <time>2012-02-14T14:30:35Z</time>
      </trkpt>
      <trkpt lat="46.33557" lon="-0.50139">
        <ele>76</ele>
        <time>2012-02-14T14:30:40Z</time>
      </trkpt>
      <trkpt lat="46.3356" lon="-0.50132">
        <ele>76</ele>
        <time>2012-02-14T14:30:45Z</time>
      </trkpt>
      <trkpt lat="46.33562" lon="-0.50124">
        <ele>76</ele>
        <time>2012-02-14T14:30:50Z</time>
      </trkpt>
      <trkpt lat="46.33565" lon="-0.50117">
        <ele>76</ele>
        <time>2012-02-14T14:30:55Z</time>
      </trkpt>
      <trkpt lat="46.33568" lon="-0.50108">
        <ele>77</ele>
        <time>2012-02-14T14:31:00Z</time>
      </trkpt>
      <trkpt lat="46.3357" lon="-0.50102">
        <ele>78</ele>
        <time>2012-02-14T14:31:05Z</time>
      </trkpt>
      <trkpt lat="46.33572" lon="-0.50093">
        <ele>78</ele>
        <time>2012-02-14T14:31:10Z</time>
      </trkpt>
      <trkpt lat="46.33573" lon="-0.50087">
        <ele>79</ele>
        <time>2012-02-14T14:31:15Z</time>
      </trkpt>
      <trkpt lat="46.33579" lon="-0.50078">
        <ele>80</ele>
        <time>2012-02-14T14:31:20Z</time>
      </trkpt>
      <trkpt lat="46.33582" lon="-0.50071">
        <ele>80</ele>
        <time>2012-02-14T14:31:25Z</time>
      </trkpt>
      <trkpt lat="46.33585" lon="-0.50065">
        <ele>79</ele>
        <time>2012-02-14T14:31:30Z</time>
      </trkpt>
      <trkpt lat="46.33586" lon="-0.50059">
        <ele>80</ele>
        <time>2012-02-14T14:31:35Z</time>
      </trkpt>
      <trkpt lat="46.33588" lon="-0.50052">
        <ele>81</ele>
        <time>2012-02-14T14:31:40Z</time>
      </trkpt>
      <trkpt lat="46.3359" lon="-0.50044">
        <ele>82</ele>
        <time>2012-02-14T14:31:45Z</time>
      </trkpt>
      <trkpt lat="46.33593" lon="-0.50038">
        <ele>80</ele>
        <time>2012-02-14T14:31:50Z</time>
      </trkpt>
      <trkpt lat="46.33595" lon="-0.50031">
        <ele>80</ele>
        <time>2012-02-14T14:31:55Z</time>
      </trkpt>
      <trkpt lat="46.33598" lon="-0.50025">
        <ele>80</ele>
        <time>2012-02-14T14:32:00Z</time>
      </trkpt>
      <trkpt lat="46.33601" lon="-0.50016">
        <ele>80</ele>
        <time>2012-02-14T14:32:05Z</time>
      </trkpt>
      <trkpt lat="46.33604" lon="-0.50009">
        <ele>81</ele>
        <time>2012-02-14T14:32:10Z</time>
      </trkpt>
      <trkpt lat="46.33606" lon="-0.50001">
        <ele>81</ele>
        <time>2012-02-14T14:32:15Z</time>
      </trkpt>
      <trkpt lat="46.33608" lon="-0.49994">
        <ele>80</ele>
        <time>2012-02-14T14:32:20Z</time>
      </trkpt>
      <trkpt lat="46.3361" lon="-0.49987">
        <ele>80</ele>
        <time>2012-02-14T14:32:25Z</time>
      </trkpt>
      <trkpt lat="46.33613" lon="-0.49981">
        <ele>79</ele>
        <time>2012-02-14T14:32:30Z</time>
      </trkpt>
      <trkpt lat="46.33614" lon="-0.49973">
        <ele>80</ele>
        <time>2012-02-14T14:32:35Z</time>
      </trkpt>
      <trkpt lat="46.33616" lon="-0.49965">
        <ele>81</ele>
        <time>2012-02-14T14:32:40Z</time>
      </trkpt>
      <trkpt lat="46.33619" lon="-0.49958">
        <ele>80</ele>
        <time>2012-02-14T14:32:45Z</time>
      </trkpt>
      <trkpt lat="46.3362" lon="-0.49951">
        <ele>80</ele>
        <time>2012-02-14T14:32:50Z</time>
      </trkpt>
      <trkpt lat="46.33623" lon="-0.49942">
        <ele>81</ele>
        <time>2012-02-14T14:32:55Z</time>
      </trkpt>
      <trkpt lat="46.33624" lon="-0.49935">
        <ele>80</ele>
        <time>2012-02-14T14:33:00Z</time>
      </trkpt>
      <trkpt lat="46.33627" lon="-0.49928">
        <ele>80</ele>
        <time>2012-02-14T14:33:05Z</time>
      </trkpt>
      <trkpt lat="46.33628" lon="-0.49921">
        <ele>79</ele>
        <time>2012-02-14T14:33:10Z</time>
      </trkpt>
      <trkpt lat="46.33629" lon="-0.49913">
        <ele>79</ele>
        <time>2012-02-14T14:33:15Z</time>
      </trkpt>
      <trkpt lat="46.33631" lon="-0.49906">
        <ele>80</ele>
        <time>2012-02-14T14:33:20Z</time>
      </trkpt>
      <trkpt lat="46.33632" lon="-0.49899">
        <ele>80</ele>
        <time>2012-02-14T14:33:25Z</time>
      </trkpt>
      <trkpt lat="46.33634" lon="-0.49892">
        <ele>78</ele>
        <time>2012-02-14T14:33:30Z</time>
      </trkpt>
      <trkpt lat="46.33636" lon="-0.49884">
        <ele>78</ele>
        <time>2012-02-14T14:33:35Z</time>
      </trkpt>
      <trkpt lat="46.3364" lon="-0.49875">
        <ele>77</ele>
        <time>2012-02-14T14:33:40Z</time>
      </trkpt>
      <trkpt lat="46.33641" lon="-0.49868">
        <ele>77</ele>
        <time>2012-02-14T14:33:45Z</time>
      </trkpt>
      <trkpt lat="46.33644" lon="-0.49859">
        <ele>77</ele>
        <time>2012-02-14T14:33:50Z</time>
      </trkpt>
      <trkpt lat="46.33645" lon="-0.4985">
        <ele>78</ele>
        <time>2012-02-14T14:33:55Z</time>
      </trkpt>
      <trkpt lat="46.33647" lon="-0.49842">
        <ele>78</ele>
        <time>2012-02-14T14:34:00Z</time>
      </trkpt>
      <trkpt lat="46.3365" lon="-0.49833">
        <ele>79</ele>
        <time>2012-02-14T14:34:05Z</time>
      </trkpt>
      <trkpt lat="46.33651" lon="-0.49826">
        <ele>78</ele>
        <time>2012-02-14T14:34:10Z</time>
      </trkpt>
      <trkpt lat="46.33653" lon="-0.49818">
        <ele>78</ele>
        <time>2012-02-14T14:34:15Z</time>
      </trkpt>
      <trkpt lat="46.33653" lon="-0.4981">
        <ele>78</ele>
        <time>2012-02-14T14:34:20Z</time>
      </trkpt>
      <trkpt lat="46.33654" lon="-0.49802">
        <ele>77</ele>
        <time>2012-02-14T14:34:25Z</time>
      </trkpt>
      <trkpt lat="46.33657" lon="-0.49793">
        <ele>77</ele>
        <time>2012-02-14T14:34:30Z</time>
      </trkpt>
      <trkpt lat="46.33658" lon="-0.49784">
        <ele>77</ele>
        <time>2012-02-14T14:34:35Z</time>
      </trkpt>
      <trkpt lat="46.33659" lon="-0.49775">
        <ele>77</ele>
        <time>2012-02-14T14:34:40Z</time>
      </trkpt>
      <trkpt lat="46.33658" lon="-0.49766">
        <ele>77</ele>
        <time>2012-02-14T14:34:45Z</time>
      </trkpt>
      <trkpt lat="46.3366" lon="-0.49758">
        <ele>78</ele>
        <time>2012-02-14T14:34:50Z</time>
      </trkpt>
      <trkpt lat="46.3366" lon="-0.49748">
        <ele>77</ele>
        <time>2012-02-14T14:34:55Z</time>
      </trkpt>
      <trkpt lat="46.33661" lon="-0.49738">
        <ele>77</ele>
        <time>2012-02-14T14:35:00Z</time>
      </trkpt>
      <trkpt lat="46.33661" lon="-0.4973">
        <ele>76</ele>
        <time>2012-02-14T14:35:05Z</time>
      </trkpt>
      <trkpt lat="46.33663" lon="-0.49723">
        <ele>75</ele>
        <time>2012-02-14T14:35:10Z</time>
      </trkpt>
      <trkpt lat="46.33663" lon="-0.49716">
        <ele>73</ele>
        <time>2012-02-14T14:35:15Z</time>
      </trkpt>
      <trkpt lat="46.33665" lon="-0.49708">
        <ele>73</ele>
        <time>2012-02-14T14:35:20Z</time>
      </trkpt>
      <trkpt lat="46.33667" lon="-0.49699">
        <ele>73</ele>
        <time>2012-02-14T14:35:25Z</time>
      </trkpt>
      <trkpt lat="46.33666" lon="-0.4969">
        <ele>73</ele>
        <time>2012-02-14T14:35:30Z</time>
      </trkpt>
      <trkpt lat="46.33667" lon="-0.49679">
        <ele>73</ele>
        <time>2012-02-14T14:35:35Z</time>
      </trkpt>
      <trkpt lat="46.33669" lon="-0.49671">
        <ele>72</ele>
        <time>2012-02-14T14:35:40Z</time>
      </trkpt>
      <trkpt lat="46.33673" lon="-0.49663">
        <ele>72</ele>
        <time>2012-02-14T14:35:45Z</time>
      </trkpt>
      <trkpt lat="46.3367" lon="-0.49656">
        <ele>70</ele>
        <time>2012-02-14T14:35:50Z</time>
      </trkpt>
      <trkpt lat="46.33672" lon="-0.49646">
        <ele>72</ele>
        <time>2012-02-14T14:35:55Z</time>
      </trkpt>
      <trkpt lat="46.33672" lon="-0.49639">
        <ele>72</ele>
        <time>2012-02-14T14:36:00Z</time>
      </trkpt>
      <trkpt lat="46.33673" lon="-0.49631">
        <ele>70</ele>
        <time>2012-02-14T14:36:05Z</time>
      </trkpt>
      <trkpt lat="46.33674" lon="-0.49621">
        <ele>68</ele>
        <time>2012-02-14T14:36:10Z</time>
      </trkpt>
      <trkpt lat="46.33673" lon="-0.49612">
        <ele>68</ele>
        <time>2012-02-14T14:36:15Z</time>
      </trkpt>
      <trkpt lat="46.33672" lon="-0.49604">
        <ele>68</ele>
        <time>2012-02-14T14:36:20Z</time>
      </trkpt>
      <trkpt lat="46.33671" lon="-0.49594">
        <ele>69</ele>
        <time>2012-02-14T14:36:25Z</time>
      </trkpt>
      <trkpt lat="46.33671" lon="-0.49585">
        <ele>68</ele>
        <time>2012-02-14T14:36:30Z</time>
      </trkpt>
      <trkpt lat="46.33669" lon="-0.49578">
        <ele>68</ele>
        <time>2012-02-14T14:36:35Z</time>
      </trkpt>
      <trkpt lat="46.33669" lon="-0.4957">
        <ele>68</ele>
        <time>2012-02-14T14:36:40Z</time>
      </trkpt>
      <trkpt lat="46.33668" lon="-0.49563">
        <ele>68</ele>
        <time>2012-02-14T14:36:45Z</time>
      </trkpt>
      <trkpt lat="46.33667" lon="-0.49554">
        <ele>69</ele>
        <time>2012-02-14T14:36:50Z</time>
      </trkpt>
      <trkpt lat="46.33665" lon="-0.49548">
        <ele>69</ele>
        <time>2012-02-14T14:36:55Z</time>
      </trkpt>
      <trkpt lat="46.33665" lon="-0.49538">
        <ele>69</ele>
        <time>2012-02-14T14:37:00Z</time>
      </trkpt>
      <trkpt lat="46.33665" lon="-0.49529">
        <ele>69</ele>
        <time>2012-02-14T14:37:05Z</time>
      </trkpt>
      <trkpt lat="46.33664" lon="-0.49519">
        <ele>69</ele>
        <time>2012-02-14T14:37:10Z</time>
      </trkpt>
      <trkpt lat="46.33664" lon="-0.4951">
        <ele>69</ele>
        <time>2012-02-14T14:37:15Z</time>
      </trkpt>
      <trkpt lat="46.33662" lon="-0.49501">
        <ele>69</ele>
        <time>2012-02-14T14:37:20Z</time>
      </trkpt>
      <trkpt lat="46.33659" lon="-0.49494">
        <ele>69</ele>
        <time>2012-02-14T14:37:25Z</time>
      </trkpt>
      <trkpt lat="46.3366" lon="-0.49485">
        <ele>66</ele>
        <time>2012-02-14T14:37:30Z</time>
      </trkpt>
      <trkpt lat="46.33661" lon="-0.49475">
        <ele>66</ele>
        <time>2012-02-14T14:37:35Z</time>
      </trkpt>
      <trkpt lat="46.33661" lon="-0.49466">
        <ele>66</ele>
        <time>2012-02-14T14:37:40Z</time>
      </trkpt>
      <trkpt lat="46.3366" lon="-0.49457">
        <ele>67</ele>
        <time>2012-02-14T14:37:45Z</time>
      </trkpt>
      <trkpt lat="46.3366" lon="-0.4945">
        <ele>66</ele>
        <time>2012-02-14T14:37:50Z</time>
      </trkpt>
      <trkpt lat="46.3366" lon="-0.49441">
        <ele>65</ele>
        <time>2012-02-14T14:37:55Z</time>
      </trkpt>
      <trkpt lat="46.3366" lon="-0.49433">
        <ele>66</ele>
        <time>2012-02-14T14:38:00Z</time>
      </trkpt>
      <trkpt lat="46.33661" lon="-0.49423">
        <ele>67</ele>
        <time>2012-02-14T14:38:05Z</time>
      </trkpt>
      <trkpt lat="46.33659" lon="-0.49414">
        <ele>67</ele>
        <time>2012-02-14T14:38:10Z</time>
      </trkpt>
      <trkpt lat="46.33659" lon="-0.49405">
        <ele>67</ele>
        <time>2012-02-14T14:38:15Z</time>
      </trkpt>
      <trkpt lat="46.33658" lon="-0.49397">
        <ele>67</ele>
        <time>2012-02-14T14:38:20Z</time>
      </trkpt>
      <trkpt lat="46.33656" lon="-0.49393">
        <ele>66</ele>
        <time>2012-02-14T14:38:25Z</time>
      </trkpt>
      <trkpt lat="46.33656" lon="-0.49392">
        <ele>65</ele>
        <time>2012-02-14T14:38:30Z</time>
      </trkpt>
      <trkpt lat="46.33656" lon="-0.49394">
        <ele>64</ele>
        <time>2012-02-14T14:38:35Z</time>
      </trkpt>
      <trkpt lat="46.33657" lon="-0.49397">
        <ele>63</ele>
        <time>2012-02-14T14:38:40Z</time>
      </trkpt>
      <trkpt lat="46.33656" lon="-0.49395">
        <ele>64</ele>
        <time>2012-02-14T14:38:45Z</time>
      </trkpt>
      <trkpt lat="46.33655" lon="-0.4939">
        <ele>65</ele>
        <time>2012-02-14T14:38:50Z</time>
      </trkpt>
      <trkpt lat="46.33656" lon="-0.49387">
        <ele>65</ele>
        <time>2012-02-14T14:38:55Z</time>
      </trkpt>
      <trkpt lat="46.33656" lon="-0.49388">
        <ele>65</ele>
        <time>2012-02-14T14:39:00Z</time>
      </trkpt>
      <trkpt lat="46.33656" lon="-0.49388">
        <ele>65</ele>
        <time>2012-02-14T14:39:05Z</time>
      </trkpt>
      <trkpt lat="46.33656" lon="-0.49388">
        <ele>65</ele>
        <time>2012-02-14T14:39:15Z</time>
      </trkpt>
      <trkpt lat="46.33655" lon="-0.49388">
        <ele>64</ele>
        <time>2012-02-14T14:39:20Z</time>
      </trkpt>
      <trkpt lat="46.33651" lon="-0.49385">
        <ele>65</ele>
        <time>2012-02-14T14:39:25Z</time>
      </trkpt>
      <trkpt lat="46.33645" lon="-0.49383">
        <ele>65</ele>
        <time>2012-02-14T14:39:30Z</time>
      </trkpt>
      <trkpt lat="46.33642" lon="-0.49382">
        <ele>66</ele>
        <time>2012-02-14T14:39:35Z</time>
      </trkpt>
      <trkpt lat="46.33636" lon="-0.49384">
        <ele>64</ele>
        <time>2012-02-14T14:39:40Z</time>
      </trkpt>
      <trkpt lat="46.33632" lon="-0.49384">
        <ele>61</ele>
        <time>2012-02-14T14:39:45Z</time>
      </trkpt>
      <trkpt lat="46.33628" lon="-0.49385">
        <ele>60</ele>
        <time>2012-02-14T14:39:50Z</time>
      </trkpt>
      <trkpt lat="46.33622" lon="-0.49387">
        <ele>59</ele>
        <time>2012-02-14T14:39:55Z</time>
      </trkpt>
      <trkpt lat="46.33617" lon="-0.4939">
        <ele>60</ele>
        <time>2012-02-14T14:40:00Z</time>
      </trkpt>
      <trkpt lat="46.3361" lon="-0.4939">
        <ele>61</ele>
        <time>2012-02-14T14:40:05Z</time>
      </trkpt>
      <trkpt lat="46.33605" lon="-0.4939">
        <ele>63</ele>
        <time>2012-02-14T14:40:10Z</time>
      </trkpt>
      <trkpt lat="46.33598" lon="-0.49392">
        <ele>62</ele>
        <time>2012-02-14T14:40:15Z</time>
      </trkpt>
      <trkpt lat="46.33591" lon="-0.49393">
        <ele>63</ele>
        <time>2012-02-14T14:40:20Z</time>
      </trkpt>
      <trkpt lat="46.33586" lon="-0.49398">
        <ele>62</ele>
        <time>2012-02-14T14:40:25Z</time>
      </trkpt>
      <trkpt lat="46.33581" lon="-0.49401">
        <ele>62</ele>
        <time>2012-02-14T14:40:30Z</time>
      </trkpt>
      <trkpt lat="46.33576" lon="-0.49404">
        <ele>63</ele>
        <time>2012-02-14T14:40:35Z</time>
      </trkpt>
      <trkpt lat="46.33571" lon="-0.49406">
        <ele>66</ele>
        <time>2012-02-14T14:40:40Z</time>
      </trkpt>
      <trkpt lat="46.33564" lon="-0.49408">
        <ele>71</ele>
        <time>2012-02-14T14:40:45Z</time>
      </trkpt>
      <trkpt lat="46.33559" lon="-0.49411">
        <ele>72</ele>
        <time>2012-02-14T14:40:50Z</time>
      </trkpt>
      <trkpt lat="46.33554" lon="-0.4941">
        <ele>71</ele>
        <time>2012-02-14T14:40:55Z</time>
      </trkpt>
      <trkpt lat="46.33548" lon="-0.49413">
        <ele>72</ele>
        <time>2012-02-14T14:41:00Z</time>
      </trkpt>
      <trkpt lat="46.33542" lon="-0.49416">
        <ele>72</ele>
        <time>2012-02-14T14:41:05Z</time>
      </trkpt>
      <trkpt lat="46.33535" lon="-0.49419">
        <ele>72</ele>
        <time>2012-02-14T14:41:10Z</time>
      </trkpt>
      <trkpt lat="46.3353" lon="-0.49422">
        <ele>72</ele>
        <time>2012-02-14T14:41:15Z</time>
      </trkpt>
      <trkpt lat="46.33525" lon="-0.49423">
        <ele>72</ele>
        <time>2012-02-14T14:41:20Z</time>
      </trkpt>
      <trkpt lat="46.33519" lon="-0.49426">
        <ele>73</ele>
        <time>2012-02-14T14:41:25Z</time>
      </trkpt>
      <trkpt lat="46.33511" lon="-0.49427">
        <ele>73</ele>
        <time>2012-02-14T14:41:30Z</time>
      </trkpt>
      <trkpt lat="46.33506" lon="-0.49432">
        <ele>73</ele>
        <time>2012-02-14T14:41:35Z</time>
      </trkpt>
      <trkpt lat="46.33501" lon="-0.49433">
        <ele>73</ele>
        <time>2012-02-14T14:41:40Z</time>
      </trkpt>
      <trkpt lat="46.33496" lon="-0.49435">
        <ele>74</ele>
        <time>2012-02-14T14:41:45Z</time>
      </trkpt>
      <trkpt lat="46.3349" lon="-0.49436">
        <ele>73</ele>
        <time>2012-02-14T14:41:50Z</time>
      </trkpt>
      <trkpt lat="46.33484" lon="-0.49437">
        <ele>73</ele>
        <time>2012-02-14T14:41:55Z</time>
      </trkpt>
      <trkpt lat="46.33482" lon="-0.49439">
        <ele>74</ele>
        <time>2012-02-14T14:42:00Z</time>
      </trkpt>
      <trkpt lat="46.33481" lon="-0.49439">
        <ele>73</ele>
        <time>2012-02-14T14:42:05Z</time>
      </trkpt>
      <trkpt lat="46.33482" lon="-0.49439">
        <ele>73</ele>
        <time>2012-02-14T14:42:15Z</time>
      </trkpt>
      <trkpt lat="46.33481" lon="-0.4944">
        <ele>74</ele>
        <time>2012-02-14T14:42:20Z</time>
      </trkpt>
      <trkpt lat="46.3348" lon="-0.49438">
        <ele>74</ele>
        <time>2012-02-14T14:42:25Z</time>
      </trkpt>
      <trkpt lat="46.33476" lon="-0.49436">
        <ele>72</ele>
        <time>2012-02-14T14:42:30Z</time>
      </trkpt>
      <trkpt lat="46.33476" lon="-0.4943">
        <ele>74</ele>
        <time>2012-02-14T14:42:35Z</time>
      </trkpt>
      <trkpt lat="46.33474" lon="-0.49426">
        <ele>73</ele>
        <time>2012-02-14T14:42:40Z</time>
      </trkpt>
      <trkpt lat="46.33472" lon="-0.4942">
        <ele>73</ele>
        <time>2012-02-14T14:42:45Z</time>
      </trkpt>
      <trkpt lat="46.33469" lon="-0.49413">
        <ele>73</ele>
        <time>2012-02-14T14:42:50Z</time>
      </trkpt>
      <trkpt lat="46.3347" lon="-0.49406">
        <ele>73</ele>
        <time>2012-02-14T14:42:55Z</time>
      </trkpt>
      <trkpt lat="46.33467" lon="-0.49399">
        <ele>73</ele>
        <time>2012-02-14T14:43:00Z</time>
      </trkpt>
      <trkpt lat="46.33463" lon="-0.49392">
        <ele>73</ele>
        <time>2012-02-14T14:43:05Z</time>
      </trkpt>
      <trkpt lat="46.33459" lon="-0.49384">
        <ele>73</ele>
        <time>2012-02-14T14:43:10Z</time>
      </trkpt>
      <trkpt lat="46.33458" lon="-0.49377">
        <ele>72</ele>
        <time>2012-02-14T14:43:15Z</time>
      </trkpt>
      <trkpt lat="46.33455" lon="-0.49374">
        <ele>70</ele>
        <time>2012-02-14T14:43:20Z</time>
      </trkpt>
      <trkpt lat="46.33453" lon="-0.49369">
        <ele>66</ele>
        <time>2012-02-14T14:43:25Z</time>
      </trkpt>
      <trkpt lat="46.33453" lon="-0.49363">
        <ele>64</ele>
        <time>2012-02-14T14:43:30Z</time>
      </trkpt>
      <trkpt lat="46.33452" lon="-0.49354">
        <ele>63</ele>
        <time>2012-02-14T14:43:35Z</time>
      </trkpt>
      <trkpt lat="46.33446" lon="-0.49349">
        <ele>64</ele>
        <time>2012-02-14T14:43:40Z</time>
      </trkpt>
      <trkpt lat="46.33444" lon="-0.49344">
        <ele>64</ele>
        <time>2012-02-14T14:43:45Z</time>
      </trkpt>
      <trkpt lat="46.33441" lon="-0.49339">
        <ele>64</ele>
        <time>2012-02-14T14:43:50Z</time>
      </trkpt>
      <trkpt lat="46.33437" lon="-0.49338">
        <ele>63</ele>
        <time>2012-02-14T14:43:55Z</time>
      </trkpt>
      <trkpt lat="46.33434" lon="-0.49341">
        <ele>63</ele>
        <time>2012-02-14T14:44:00Z</time>
      </trkpt>
      <trkpt lat="46.33432" lon="-0.49344">
        <ele>62</ele>
        <time>2012-02-14T14:44:05Z</time>
      </trkpt>
      <trkpt lat="46.33427" lon="-0.49351">
        <ele>61</ele>
        <time>2012-02-14T14:44:10Z</time>
      </trkpt>
      <trkpt lat="46.33422" lon="-0.49358">
        <ele>61</ele>
        <time>2012-02-14T14:44:15Z</time>
      </trkpt>
      <trkpt lat="46.33416" lon="-0.49363">
        <ele>62</ele>
        <time>2012-02-14T14:44:20Z</time>
      </trkpt>
      <trkpt lat="46.3341" lon="-0.49364">
        <ele>61</ele>
        <time>2012-02-14T14:44:25Z</time>
      </trkpt>
      <trkpt lat="46.33404" lon="-0.49367">
        <ele>63</ele>
        <time>2012-02-14T14:44:30Z</time>
      </trkpt>
      <trkpt lat="46.33399" lon="-0.49368">
        <ele>63</ele>
        <time>2012-02-14T14:44:35Z</time>
      </trkpt>
      <trkpt lat="46.33393" lon="-0.49369">
        <ele>63</ele>
        <time>2012-02-14T14:44:40Z</time>
      </trkpt>
      <trkpt lat="46.33387" lon="-0.49374">
        <ele>63</ele>
        <time>2012-02-14T14:44:45Z</time>
      </trkpt>
      <trkpt lat="46.33382" lon="-0.49377">
        <ele>63</ele>
        <time>2012-02-14T14:44:50Z</time>
      </trkpt>
      <trkpt lat="46.33378" lon="-0.49382">
        <ele>61</ele>
        <time>2012-02-14T14:44:55Z</time>
      </trkpt>
      <trkpt lat="46.33372" lon="-0.49384">
        <ele>61</ele>
        <time>2012-02-14T14:45:00Z</time>
      </trkpt>
      <trkpt lat="46.33368" lon="-0.49388">
        <ele>60</ele>
        <time>2012-02-14T14:45:05Z</time>
      </trkpt>
      <trkpt lat="46.33361" lon="-0.4939">
        <ele>62</ele>
        <time>2012-02-14T14:45:10Z</time>
      </trkpt>
      <trkpt lat="46.33355" lon="-0.49387">
        <ele>63</ele>
        <time>2012-02-14T14:45:15Z</time>
      </trkpt>
      <trkpt lat="46.33349" lon="-0.49388">
        <ele>63</ele>
        <time>2012-02-14T14:45:20Z</time>
      </trkpt>
      <trkpt lat="46.3334" lon="-0.49387">
        <ele>68</ele>
        <time>2012-02-14T14:45:25Z</time>
      </trkpt>
      <trkpt lat="46.33333" lon="-0.49391">
        <ele>68</ele>
        <time>2012-02-14T14:45:30Z</time>
      </trkpt>
      <trkpt lat="46.33329" lon="-0.49397">
        <ele>65</ele>
        <time>2012-02-14T14:45:35Z</time>
      </trkpt>
      <trkpt lat="46.33325" lon="-0.49397">
        <ele>65</ele>
        <time>2012-02-14T14:45:40Z</time>
      </trkpt>
      <trkpt lat="46.33319" lon="-0.49398">
        <ele>65</ele>
        <time>2012-02-14T14:45:45Z</time>
      </trkpt>
      <trkpt lat="46.33315" lon="-0.494">
        <ele>66</ele>
        <time>2012-02-14T14:45:50Z</time>
      </trkpt>
      <trkpt lat="46.33309" lon="-0.49403">
        <ele>66</ele>
        <time>2012-02-14T14:45:55Z</time>
      </trkpt>
      <trkpt lat="46.333" lon="-0.49404">
        <ele>65</ele>
        <time>2012-02-14T14:46:00Z</time>
      </trkpt>
      <trkpt lat="46.33296" lon="-0.49407">
        <ele>64</ele>
        <time>2012-02-14T14:46:05Z</time>
      </trkpt>
      <trkpt lat="46.33289" lon="-0.49407">
        <ele>64</ele>
        <time>2012-02-14T14:46:10Z</time>
      </trkpt>
      <trkpt lat="46.33284" lon="-0.49407">
        <ele>66</ele>
        <time>2012-02-14T14:46:15Z</time>
      </trkpt>
      <trkpt lat="46.33278" lon="-0.49408">
        <ele>65</ele>
        <time>2012-02-14T14:46:20Z</time>
      </trkpt>
      <trkpt lat="46.33273" lon="-0.49404">
        <ele>67</ele>
        <time>2012-02-14T14:46:25Z</time>
      </trkpt>
      <trkpt lat="46.33268" lon="-0.49408">
        <ele>69</ele>
        <time>2012-02-14T14:46:30Z</time>
      </trkpt>
      <trkpt lat="46.33262" lon="-0.49411">
        <ele>67</ele>
        <time>2012-02-14T14:46:35Z</time>
      </trkpt>
      <trkpt lat="46.33258" lon="-0.49417">
        <ele>62</ele>
        <time>2012-02-14T14:46:40Z</time>
      </trkpt>
      <trkpt lat="46.33253" lon="-0.4942">
        <ele>62</ele>
        <time>2012-02-14T14:46:45Z</time>
      </trkpt>
      <trkpt lat="46.33248" lon="-0.49421">
        <ele>62</ele>
        <time>2012-02-14T14:46:50Z</time>
      </trkpt>
      <trkpt lat="46.33244" lon="-0.4942">
        <ele>67</ele>
        <time>2012-02-14T14:46:55Z</time>
      </trkpt>
      <trkpt lat="46.33236" lon="-0.49422">
        <ele>66</ele>
        <time>2012-02-14T14:47:00Z</time>
      </trkpt>
      <trkpt lat="46.33229" lon="-0.49423">
        <ele>66</ele>
        <time>2012-02-14T14:47:05Z</time>
      </trkpt>
      <trkpt lat="46.33223" lon="-0.49423">
        <ele>66</ele>
        <time>2012-02-14T14:47:10Z</time>
      </trkpt>
      <trkpt lat="46.33218" lon="-0.49425">
        <ele>65</ele>
        <time>2012-02-14T14:47:15Z</time>
      </trkpt>
      <trkpt lat="46.33212" lon="-0.49425">
        <ele>63</ele>
        <time>2012-02-14T14:47:20Z</time>
      </trkpt>
      <trkpt lat="46.33207" lon="-0.49427">
        <ele>62</ele>
        <time>2012-02-14T14:47:25Z</time>
      </trkpt>
      <trkpt lat="46.33201" lon="-0.49429">
        <ele>61</ele>
        <time>2012-02-14T14:47:30Z</time>
      </trkpt>
      <trkpt lat="46.33196" lon="-0.49431">
        <ele>59</ele>
        <time>2012-02-14T14:47:35Z</time>
      </trkpt>
      <trkpt lat="46.3319" lon="-0.4943">
        <ele>60</ele>
        <time>2012-02-14T14:47:40Z</time>
      </trkpt>
      <trkpt lat="46.33184" lon="-0.4943">
        <ele>61</ele>
        <time>2012-02-14T14:47:45Z</time>
      </trkpt>
      <trkpt lat="46.33177" lon="-0.49433">
        <ele>61</ele>
        <time>2012-02-14T14:47:50Z</time>
      </trkpt>
      <trkpt lat="46.3317" lon="-0.49434">
        <ele>61</ele>
        <time>2012-02-14T14:47:55Z</time>
      </trkpt>
      <trkpt lat="46.33164" lon="-0.49436">
        <ele>60</ele>
        <time>2012-02-14T14:48:00Z</time>
      </trkpt>
      <trkpt lat="46.33158" lon="-0.49436">
        <ele>60</ele>
        <time>2012-02-14T14:48:05Z</time>
      </trkpt>
      <trkpt lat="46.33155" lon="-0.49443">
        <ele>53</ele>
        <time>2012-02-14T14:48:10Z</time>
      </trkpt>
      <trkpt lat="46.33147" lon="-0.49441">
        <ele>54</ele>
        <time>2012-02-14T14:48:15Z</time>
      </trkpt>
      <trkpt lat="46.33141" lon="-0.49441">
        <ele>55</ele>
        <time>2012-02-14T14:48:20Z</time>
      </trkpt>
      <trkpt lat="46.33135" lon="-0.49441">
        <ele>55</ele>
        <time>2012-02-14T14:48:25Z</time>
      </trkpt>
      <trkpt lat="46.3313" lon="-0.49442">
        <ele>55</ele>
        <time>2012-02-14T14:48:30Z</time>
      </trkpt>
      <trkpt lat="46.33124" lon="-0.4944">
        <ele>58</ele>
        <time>2012-02-14T14:48:35Z</time>
      </trkpt>
      <trkpt lat="46.33117" lon="-0.49438">
        <ele>60</ele>
        <time>2012-02-14T14:48:40Z</time>
      </trkpt>
      <trkpt lat="46.3311" lon="-0.49436">
        <ele>61</ele>
        <time>2012-02-14T14:48:45Z</time>
      </trkpt>
      <trkpt lat="46.33106" lon="-0.49436">
        <ele>59</ele>
        <time>2012-02-14T14:48:50Z</time>
      </trkpt>
      <trkpt lat="46.331" lon="-0.49435">
        <ele>58</ele>
        <time>2012-02-14T14:48:55Z</time>
      </trkpt>
      <trkpt lat="46.33094" lon="-0.49433">
        <ele>59</ele>
        <time>2012-02-14T14:49:00Z</time>
      </trkpt>
      <trkpt lat="46.33089" lon="-0.49432">
        <ele>58</ele>
        <time>2012-02-14T14:49:05Z</time>
      </trkpt>
      <trkpt lat="46.33083" lon="-0.49433">
        <ele>57</ele>
        <time>2012-02-14T14:49:10Z</time>
      </trkpt>
      <trkpt lat="46.33077" lon="-0.49432">
        <ele>57</ele>
        <time>2012-02-14T14:49:15Z</time>
      </trkpt>
      <trkpt lat="46.3307" lon="-0.49432">
        <ele>56</ele>
        <time>2012-02-14T14:49:20Z</time>
      </trkpt>
      <trkpt lat="46.33065" lon="-0.49432">
        <ele>58</ele>
        <time>2012-02-14T14:49:25Z</time>
      </trkpt>
      <trkpt lat="46.3306" lon="-0.4943">
        <ele>57</ele>
        <time>2012-02-14T14:49:30Z</time>
      </trkpt>
      <trkpt lat="46.33053" lon="-0.49429">
        <ele>56</ele>
        <time>2012-02-14T14:49:35Z</time>
      </trkpt>
      <trkpt lat="46.33046" lon="-0.49429">
        <ele>56</ele>
        <time>2012-02-14T14:49:40Z</time>
      </trkpt>
      <trkpt lat="46.3304" lon="-0.49428">
        <ele>56</ele>
        <time>2012-02-14T14:49:45Z</time>
      </trkpt>
      <trkpt lat="46.33035" lon="-0.49429">
        <ele>56</ele>
        <time>2012-02-14T14:49:50Z</time>
      </trkpt>
      <trkpt lat="46.33031" lon="-0.49429">
        <ele>55</ele>
        <time>2012-02-14T14:49:55Z</time>
      </trkpt>
      <trkpt lat="46.33026" lon="-0.49429">
        <ele>53</ele>
        <time>2012-02-14T14:50:00Z</time>
      </trkpt>
      <trkpt lat="46.33018" lon="-0.4943">
        <ele>53</ele>
        <time>2012-02-14T14:50:05Z</time>
      </trkpt>
      <trkpt lat="46.33012" lon="-0.49427">
        <ele>55</ele>
        <time>2012-02-14T14:50:10Z</time>
      </trkpt>
      <trkpt lat="46.33005" lon="-0.49426">
        <ele>55</ele>
        <time>2012-02-14T14:50:15Z</time>
      </trkpt>
      <trkpt lat="46.32999" lon="-0.49425">
        <ele>52</ele>
        <time>2012-02-14T14:50:20Z</time>
      </trkpt>
      <trkpt lat="46.32995" lon="-0.49425">
        <ele>53</ele>
        <time>2012-02-14T14:50:25Z</time>
      </trkpt>
      <trkpt lat="46.3299" lon="-0.49425">
        <ele>51</ele>
        <time>2012-02-14T14:50:30Z</time>
      </trkpt>
      <trkpt lat="46.32985" lon="-0.49424">
        <ele>52</ele>
        <time>2012-02-14T14:50:35Z</time>
      </trkpt>
      <trkpt lat="46.32979" lon="-0.49418">
        <ele>54</ele>
        <time>2012-02-14T14:50:40Z</time>
      </trkpt>
      <trkpt lat="46.32974" lon="-0.49421">
        <ele>54</ele>
        <time>2012-02-14T14:50:45Z</time>
      </trkpt>
      <trkpt lat="46.3297" lon="-0.49422">
        <ele>54</ele>
        <time>2012-02-14T14:50:50Z</time>
      </trkpt>
      <trkpt lat="46.32964" lon="-0.49421">
        <ele>52</ele>
        <time>2012-02-14T14:50:55Z</time>
      </trkpt>
      <trkpt lat="46.32958" lon="-0.4942">
        <ele>53</ele>
        <time>2012-02-14T14:51:00Z</time>
      </trkpt>
      <trkpt lat="46.32951" lon="-0.49415">
        <ele>54</ele>
        <time>2012-02-14T14:51:05Z</time>
      </trkpt>
      <trkpt lat="46.32944" lon="-0.49414">
        <ele>55</ele>
        <time>2012-02-14T14:51:10Z</time>
      </trkpt>
      <trkpt lat="46.32939" lon="-0.49414">
        <ele>56</ele>
        <time>2012-02-14T14:51:15Z</time>
      </trkpt>
      <trkpt lat="46.32932" lon="-0.49415">
        <ele>55</ele>
        <time>2012-02-14T14:51:20Z</time>
      </trkpt>
      <trkpt lat="46.32925" lon="-0.49415">
        <ele>56</ele>
        <time>2012-02-14T14:51:25Z</time>
      </trkpt>
      <trkpt lat="46.3292" lon="-0.49411">
        <ele>58</ele>
        <time>2012-02-14T14:51:30Z</time>
      </trkpt>
      <trkpt lat="46.32915" lon="-0.4941">
        <ele>60</ele>
        <time>2012-02-14T14:51:35Z</time>
      </trkpt>
      <trkpt lat="46.32909" lon="-0.49412">
        <ele>58</ele>
        <time>2012-02-14T14:51:40Z</time>
      </trkpt>
      <trkpt lat="46.32905" lon="-0.49415">
        <ele>58</ele>
        <time>2012-02-14T14:51:45Z</time>
      </trkpt>
      <trkpt lat="46.329" lon="-0.49416">
        <ele>56</ele>
        <time>2012-02-14T14:51:50Z</time>
      </trkpt>
      <trkpt lat="46.32892" lon="-0.49414">
        <ele>56</ele>
        <time>2012-02-14T14:51:55Z</time>
      </trkpt>
      <trkpt lat="46.32886" lon="-0.4941">
        <ele>59</ele>
        <time>2012-02-14T14:52:00Z</time>
      </trkpt>
      <trkpt lat="46.3288" lon="-0.49408">
        <ele>59</ele>
        <time>2012-02-14T14:52:05Z</time>
      </trkpt>
      <trkpt lat="46.32875" lon="-0.49406">
        <ele>59</ele>
        <time>2012-02-14T14:52:10Z</time>
      </trkpt>
      <trkpt lat="46.32868" lon="-0.49406">
        <ele>58</ele>
        <time>2012-02-14T14:52:15Z</time>
      </trkpt>
      <trkpt lat="46.32864" lon="-0.49405">
        <ele>60</ele>
        <time>2012-02-14T14:52:20Z</time>
      </trkpt>
      <trkpt lat="46.32858" lon="-0.49404">
        <ele>60</ele>
        <time>2012-02-14T14:52:25Z</time>
      </trkpt>
      <trkpt lat="46.3285" lon="-0.494">
        <ele>61</ele>
        <time>2012-02-14T14:52:30Z</time>
      </trkpt>
      <trkpt lat="46.32842" lon="-0.49397">
        <ele>61</ele>
        <time>2012-02-14T14:52:35Z</time>
      </trkpt>
      <trkpt lat="46.32839" lon="-0.494">
        <ele>57</ele>
        <time>2012-02-14T14:52:40Z</time>
      </trkpt>
      <trkpt lat="46.32833" lon="-0.49399">
        <ele>60</ele>
        <time>2012-02-14T14:52:45Z</time>
      </trkpt>
      <trkpt lat="46.32827" lon="-0.49397">
        <ele>63</ele>
        <time>2012-02-14T14:52:50Z</time>
      </trkpt>
      <trkpt lat="46.32819" lon="-0.49392">
        <ele>62</ele>
        <time>2012-02-14T14:52:55Z</time>
      </trkpt>
      <trkpt lat="46.32817" lon="-0.49394">
        <ele>62</ele>
        <time>2012-02-14T14:53:00Z</time>
      </trkpt>
      <trkpt lat="46.32811" lon="-0.49394">
        <ele>63</ele>
        <time>2012-02-14T14:53:05Z</time>
      </trkpt>
      <trkpt lat="46.32805" lon="-0.49394">
        <ele>60</ele>
        <time>2012-02-14T14:53:10Z</time>
      </trkpt>
      <trkpt lat="46.32801" lon="-0.49392">
        <ele>59</ele>
        <time>2012-02-14T14:53:15Z</time>
      </trkpt>
      <trkpt lat="46.32796" lon="-0.49391">
        <ele>60</ele>
        <time>2012-02-14T14:53:20Z</time>
      </trkpt>
      <trkpt lat="46.32788" lon="-0.49387">
        <ele>62</ele>
        <time>2012-02-14T14:53:25Z</time>
      </trkpt>
      <trkpt lat="46.3278" lon="-0.49385">
        <ele>62</ele>
        <time>2012-02-14T14:53:30Z</time>
      </trkpt>
      <trkpt lat="46.32776" lon="-0.49385">
        <ele>62</ele>
        <time>2012-02-14T14:53:35Z</time>
      </trkpt>
      <trkpt lat="46.3277" lon="-0.49385">
        <ele>62</ele>
        <time>2012-02-14T14:53:40Z</time>
      </trkpt>
      <trkpt lat="46.32766" lon="-0.49385">
        <ele>61</ele>
        <time>2012-02-14T14:53:45Z</time>
      </trkpt>
      <trkpt lat="46.32759" lon="-0.49384">
        <ele>62</ele>
        <time>2012-02-14T14:53:50Z</time>
      </trkpt>
      <trkpt lat="46.32753" lon="-0.49382">
        <ele>61</ele>
        <time>2012-02-14T14:53:55Z</time>
      </trkpt>
      <trkpt lat="46.32747" lon="-0.49382">
        <ele>61</ele>
        <time>2012-02-14T14:54:00Z</time>
      </trkpt>
      <trkpt lat="46.32741" lon="-0.49379">
        <ele>62</ele>
        <time>2012-02-14T14:54:05Z</time>
      </trkpt>
      <trkpt lat="46.32733" lon="-0.49377">
        <ele>63</ele>
        <time>2012-02-14T14:54:10Z</time>
      </trkpt>
      <trkpt lat="46.32727" lon="-0.49379">
        <ele>63</ele>
        <time>2012-02-14T14:54:15Z</time>
      </trkpt>
      <trkpt lat="46.32723" lon="-0.49379">
        <ele>64</ele>
        <time>2012-02-14T14:54:20Z</time>
      </trkpt>
      <trkpt lat="46.32716" lon="-0.49378">
        <ele>64</ele>
        <time>2012-02-14T14:54:25Z</time>
      </trkpt>
      <trkpt lat="46.32711" lon="-0.49377">
        <ele>64</ele>
        <time>2012-02-14T14:54:30Z</time>
      </trkpt>
      <trkpt lat="46.32706" lon="-0.49376">
        <ele>62</ele>
        <time>2012-02-14T14:54:35Z</time>
      </trkpt>
      <trkpt lat="46.32701" lon="-0.49377">
        <ele>62</ele>
        <time>2012-02-14T14:54:40Z</time>
      </trkpt>
      <trkpt lat="46.32695" lon="-0.49373">
        <ele>62</ele>
        <time>2012-02-14T14:54:45Z</time>
      </trkpt>
      <trkpt lat="46.32688" lon="-0.4937">
        <ele>63</ele>
        <time>2012-02-14T14:54:50Z</time>
      </trkpt>
      <trkpt lat="46.32685" lon="-0.49367">
        <ele>65</ele>
        <time>2012-02-14T14:54:55Z</time>
      </trkpt>
      <trkpt lat="46.32679" lon="-0.49367">
        <ele>65</ele>
        <time>2012-02-14T14:55:00Z</time>
      </trkpt>
      <trkpt lat="46.32673" lon="-0.49366">
        <ele>63</ele>
        <time>2012-02-14T14:55:05Z</time>
      </trkpt>
      <trkpt lat="46.3267" lon="-0.49364">
        <ele>64</ele>
        <time>2012-02-14T14:55:10Z</time>
      </trkpt>
      <trkpt lat="46.32665" lon="-0.49364">
        <ele>63</ele>
        <time>2012-02-14T14:55:15Z</time>
      </trkpt>
      <trkpt lat="46.32662" lon="-0.49366">
        <ele>60</ele>
        <time>2012-02-14T14:55:20Z</time>
      </trkpt>
      <trkpt lat="46.32657" lon="-0.49364">
        <ele>60</ele>
        <time>2012-02-14T14:55:25Z</time>
      </trkpt>
      <trkpt lat="46.3265" lon="-0.49366">
        <ele>60</ele>
        <time>2012-02-14T14:55:30Z</time>
      </trkpt>
      <trkpt lat="46.32645" lon="-0.49363">
        <ele>60</ele>
        <time>2012-02-14T14:55:35Z</time>
      </trkpt>
      <trkpt lat="46.32638" lon="-0.49362">
        <ele>60</ele>
        <time>2012-02-14T14:55:40Z</time>
      </trkpt>
      <trkpt lat="46.32634" lon="-0.49361">
        <ele>60</ele>
        <time>2012-02-14T14:55:45Z</time>
      </trkpt>
      <trkpt lat="46.32629" lon="-0.49359">
        <ele>61</ele>
        <time>2012-02-14T14:55:50Z</time>
      </trkpt>
      <trkpt lat="46.32625" lon="-0.49357">
        <ele>61</ele>
        <time>2012-02-14T14:55:55Z</time>
      </trkpt>
      <trkpt lat="46.3262" lon="-0.49355">
        <ele>61</ele>
        <time>2012-02-14T14:56:00Z</time>
      </trkpt>
      <trkpt lat="46.32615" lon="-0.49355">
        <ele>61</ele>
        <time>2012-02-14T14:56:05Z</time>
      </trkpt>
      <trkpt lat="46.32611" lon="-0.49359">
        <ele>59</ele>
        <time>2012-02-14T14:56:10Z</time>
      </trkpt>
      <trkpt lat="46.32605" lon="-0.49362">
        <ele>58</ele>
        <time>2012-02-14T14:56:15Z</time>
      </trkpt>
      <trkpt lat="46.32601" lon="-0.49365">
        <ele>57</ele>
        <time>2012-02-14T14:56:20Z</time>
      </trkpt>
      <trkpt lat="46.32598" lon="-0.49366">
        <ele>55</ele>
        <time>2012-02-14T14:56:25Z</time>
      </trkpt>
      <trkpt lat="46.32593" lon="-0.4937">
        <ele>55</ele>
        <time>2012-02-14T14:56:30Z</time>
      </trkpt>
      <trkpt lat="46.32591" lon="-0.49374">
        <ele>53</ele>
        <time>2012-02-14T14:56:35Z</time>
      </trkpt>
      <trkpt lat="46.32586" lon="-0.49377">
        <ele>53</ele>
        <time>2012-02-14T14:56:40Z</time>
      </trkpt>
      <trkpt lat="46.32581" lon="-0.49382">
        <ele>53</ele>
        <time>2012-02-14T14:56:45Z</time>
      </trkpt>
      <trkpt lat="46.32574" lon="-0.49389">
        <ele>54</ele>
        <time>2012-02-14T14:56:50Z</time>
      </trkpt>
      <trkpt lat="46.32568" lon="-0.49389">
        <ele>55</ele>
        <time>2012-02-14T14:56:55Z</time>
      </trkpt>
      <trkpt lat="46.32563" lon="-0.49392">
        <ele>55</ele>
        <time>2012-02-14T14:57:00Z</time>
      </trkpt>
      <trkpt lat="46.3256" lon="-0.49395">
        <ele>55</ele>
        <time>2012-02-14T14:57:05Z</time>
      </trkpt>
      <trkpt lat="46.32554" lon="-0.49397">
        <ele>55</ele>
        <time>2012-02-14T14:57:10Z</time>
      </trkpt>
      <trkpt lat="46.32548" lon="-0.494">
        <ele>57</ele>
        <time>2012-02-14T14:57:15Z</time>
      </trkpt>
      <trkpt lat="46.32541" lon="-0.49398">
        <ele>57</ele>
        <time>2012-02-14T14:57:20Z</time>
      </trkpt>
      <trkpt lat="46.32536" lon="-0.49401">
        <ele>57</ele>
        <time>2012-02-14T14:57:25Z</time>
      </trkpt>
      <trkpt lat="46.32531" lon="-0.49405">
        <ele>58</ele>
        <time>2012-02-14T14:57:30Z</time>
      </trkpt>
      <trkpt lat="46.32524" lon="-0.49406">
        <ele>60</ele>
        <time>2012-02-14T14:57:35Z</time>
      </trkpt>
      <trkpt lat="46.32519" lon="-0.49408">
        <ele>60</ele>
        <time>2012-02-14T14:57:40Z</time>
      </trkpt>
      <trkpt lat="46.32515" lon="-0.49411">
        <ele>60</ele>
        <time>2012-02-14T14:57:45Z</time>
      </trkpt>
      <trkpt lat="46.32513" lon="-0.49416">
        <ele>57</ele>
        <time>2012-02-14T14:57:50Z</time>
      </trkpt>
      <trkpt lat="46.32508" lon="-0.4942">
        <ele>57</ele>
        <time>2012-02-14T14:57:55Z</time>
      </trkpt>
      <trkpt lat="46.32501" lon="-0.49419">
        <ele>56</ele>
        <time>2012-02-14T14:58:00Z</time>
      </trkpt>
      <trkpt lat="46.32496" lon="-0.49421">
        <ele>56</ele>
        <time>2012-02-14T14:58:05Z</time>
      </trkpt>
      <trkpt lat="46.32491" lon="-0.49425">
        <ele>56</ele>
        <time>2012-02-14T14:58:10Z</time>
      </trkpt>
      <trkpt lat="46.32486" lon="-0.49426">
        <ele>57</ele>
        <time>2012-02-14T14:58:15Z</time>
      </trkpt>
      <trkpt lat="46.3248" lon="-0.49433">
        <ele>57</ele>
        <time>2012-02-14T14:58:20Z</time>
      </trkpt>
      <trkpt lat="46.32478" lon="-0.49436">
        <ele>56</ele>
        <time>2012-02-14T14:58:25Z</time>
      </trkpt>
      <trkpt lat="46.32471" lon="-0.49441">
        <ele>57</ele>
        <time>2012-02-14T14:58:30Z</time>
      </trkpt>
      <trkpt lat="46.32466" lon="-0.4944">
        <ele>56</ele>
        <time>2012-02-14T14:58:35Z</time>
      </trkpt>
      <trkpt lat="46.3246" lon="-0.49447">
        <ele>56</ele>
        <time>2012-02-14T14:58:40Z</time>
      </trkpt>
      <trkpt lat="46.32454" lon="-0.49447">
        <ele>57</ele>
        <time>2012-02-14T14:58:45Z</time>
      </trkpt>
      <trkpt lat="46.32451" lon="-0.49453">
        <ele>57</ele>
        <time>2012-02-14T14:58:50Z</time>
      </trkpt>
      <trkpt lat="46.32446" lon="-0.49457">
        <ele>56</ele>
        <time>2012-02-14T14:58:55Z</time>
      </trkpt>
      <trkpt lat="46.32441" lon="-0.49459">
        <ele>55</ele>
        <time>2012-02-14T14:59:00Z</time>
      </trkpt>
      <trkpt lat="46.32435" lon="-0.49463">
        <ele>55</ele>
        <time>2012-02-14T14:59:05Z</time>
      </trkpt>
      <trkpt lat="46.32431" lon="-0.49464">
        <ele>55</ele>
        <time>2012-02-14T14:59:10Z</time>
      </trkpt>
      <trkpt lat="46.32425" lon="-0.49469">
        <ele>55</ele>
        <time>2012-02-14T14:59:15Z</time>
      </trkpt>
      <trkpt lat="46.32424" lon="-0.49475">
        <ele>53</ele>
        <time>2012-02-14T14:59:20Z</time>
      </trkpt>
      <trkpt lat="46.32417" lon="-0.49482">
        <ele>53</ele>
        <time>2012-02-14T14:59:25Z</time>
      </trkpt>
      <trkpt lat="46.32414" lon="-0.49482">
        <ele>54</ele>
        <time>2012-02-14T14:59:30Z</time>
      </trkpt>
      <trkpt lat="46.32408" lon="-0.49486">
        <ele>55</ele>
        <time>2012-02-14T14:59:35Z</time>
      </trkpt>
      <trkpt lat="46.32405" lon="-0.49491">
        <ele>54</ele>
        <time>2012-02-14T14:59:40Z</time>
      </trkpt>
      <trkpt lat="46.32399" lon="-0.49494">
        <ele>56</ele>
        <time>2012-02-14T14:59:45Z</time>
      </trkpt>
      <trkpt lat="46.32394" lon="-0.49499">
        <ele>57</ele>
        <time>2012-02-14T14:59:50Z</time>
      </trkpt>
      <trkpt lat="46.3239" lon="-0.49504">
        <ele>57</ele>
        <time>2012-02-14T14:59:55Z</time>
      </trkpt>
      <trkpt lat="46.32386" lon="-0.49504">
        <ele>56</ele>
        <time>2012-02-14T15:00:00Z</time>
      </trkpt>
      <trkpt lat="46.3238" lon="-0.4951">
        <ele>55</ele>
        <time>2012-02-14T15:00:05Z</time>
      </trkpt>
      <trkpt lat="46.32374" lon="-0.49516">
        <ele>56</ele>
        <time>2012-02-14T15:00:10Z</time>
      </trkpt>
      <trkpt lat="46.3237" lon="-0.49516">
        <ele>56</ele>
        <time>2012-02-14T15:00:15Z</time>
      </trkpt>
      <trkpt lat="46.32366" lon="-0.49522">
        <ele>56</ele>
        <time>2012-02-14T15:00:20Z</time>
      </trkpt>
      <trkpt lat="46.3236" lon="-0.49527">
        <ele>59</ele>
        <time>2012-02-14T15:00:25Z</time>
      </trkpt>
      <trkpt lat="46.32355" lon="-0.49528">
        <ele>59</ele>
        <time>2012-02-14T15:00:30Z</time>
      </trkpt>
      <trkpt lat="46.32349" lon="-0.49524">
        <ele>59</ele>
        <time>2012-02-14T15:00:35Z</time>
      </trkpt>
      <trkpt lat="46.32344" lon="-0.49522">
        <ele>58</ele>
        <time>2012-02-14T15:00:40Z</time>
      </trkpt>
      <trkpt lat="46.32338" lon="-0.49516">
        <ele>60</ele>
        <time>2012-02-14T15:00:45Z</time>
      </trkpt>
      <trkpt lat="46.32332" lon="-0.49517">
        <ele>59</ele>
        <time>2012-02-14T15:00:50Z</time>
      </trkpt>
      <trkpt lat="46.32326" lon="-0.49519">
        <ele>60</ele>
        <time>2012-02-14T15:00:55Z</time>
      </trkpt>
      <trkpt lat="46.32322" lon="-0.49524">
        <ele>59</ele>
        <time>2012-02-14T15:01:00Z</time>
      </trkpt>
      <trkpt lat="46.32316" lon="-0.49529">
        <ele>59</ele>
        <time>2012-02-14T15:01:05Z</time>
      </trkpt>
      <trkpt lat="46.32313" lon="-0.49532">
        <ele>59</ele>
        <time>2012-02-14T15:01:10Z</time>
      </trkpt>
      <trkpt lat="46.3231" lon="-0.49539">
        <ele>59</ele>
        <time>2012-02-14T15:01:15Z</time>
      </trkpt>
      <trkpt lat="46.32306" lon="-0.49547">
        <ele>58</ele>
        <time>2012-02-14T15:01:20Z</time>
      </trkpt>
      <trkpt lat="46.32302" lon="-0.49552">
        <ele>57</ele>
        <time>2012-02-14T15:01:25Z</time>
      </trkpt>
      <trkpt lat="46.32299" lon="-0.49556">
        <ele>58</ele>
        <time>2012-02-14T15:01:30Z</time>
      </trkpt>
      <trkpt lat="46.32294" lon="-0.49561">
        <ele>57</ele>
        <time>2012-02-14T15:01:35Z</time>
      </trkpt>
      <trkpt lat="46.32294" lon="-0.49563">
        <ele>56</ele>
        <time>2012-02-14T15:01:40Z</time>
      </trkpt>
      <trkpt lat="46.32288" lon="-0.49569">
        <ele>55</ele>
        <time>2012-02-14T15:01:45Z</time>
      </trkpt>
      <trkpt lat="46.32283" lon="-0.49577">
        <ele>54</ele>
        <time>2012-02-14T15:01:50Z</time>
      </trkpt>
      <trkpt lat="46.32279" lon="-0.49585">
        <ele>55</ele>
        <time>2012-02-14T15:01:55Z</time>
      </trkpt>
      <trkpt lat="46.32277" lon="-0.4959">
        <ele>55</ele>
        <time>2012-02-14T15:02:00Z</time>
      </trkpt>
      <trkpt lat="46.32273" lon="-0.49597">
        <ele>52</ele>
        <time>2012-02-14T15:02:05Z</time>
      </trkpt>
      <trkpt lat="46.32269" lon="-0.49603">
        <ele>52</ele>
        <time>2012-02-14T15:02:10Z</time>
      </trkpt>
      <trkpt lat="46.32267" lon="-0.49608">
        <ele>51</ele>
        <time>2012-02-14T15:02:15Z</time>
      </trkpt>
      <trkpt lat="46.32264" lon="-0.49614">
        <ele>50</ele>
        <time>2012-02-14T15:02:20Z</time>
      </trkpt>
      <trkpt lat="46.32258" lon="-0.49625">
        <ele>49</ele>
        <time>2012-02-14T15:02:25Z</time>
      </trkpt>
      <trkpt lat="46.32254" lon="-0.49629">
        <ele>50</ele>
        <time>2012-02-14T15:02:30Z</time>
      </trkpt>
      <trkpt lat="46.32254" lon="-0.49633">
        <ele>49</ele>
        <time>2012-02-14T15:02:35Z</time>
      </trkpt>
      <trkpt lat="46.32252" lon="-0.49635">
        <ele>52</ele>
        <time>2012-02-14T15:02:40Z</time>
      </trkpt>
      <trkpt lat="46.32248" lon="-0.4964">
        <ele>52</ele>
        <time>2012-02-14T15:02:45Z</time>
      </trkpt>
      <trkpt lat="46.32244" lon="-0.49646">
        <ele>54</ele>
        <time>2012-02-14T15:02:50Z</time>
      </trkpt>
      <trkpt lat="46.32245" lon="-0.49653">
        <ele>58</ele>
        <time>2012-02-14T15:02:55Z</time>
      </trkpt>
      <trkpt lat="46.32243" lon="-0.49661">
        <ele>59</ele>
        <time>2012-02-14T15:03:00Z</time>
      </trkpt>
      <trkpt lat="46.32241" lon="-0.49663">
        <ele>59</ele>
        <time>2012-02-14T15:03:05Z</time>
      </trkpt>
      <trkpt lat="46.3224" lon="-0.4966">
        <ele>59</ele>
        <time>2012-02-14T15:03:10Z</time>
      </trkpt>
      <trkpt lat="46.3224" lon="-0.49656">
        <ele>58</ele>
        <time>2012-02-14T15:03:15Z</time>
      </trkpt>
      <trkpt lat="46.3224" lon="-0.49659">
        <ele>56</ele>
        <time>2012-02-14T15:03:20Z</time>
      </trkpt>
      <trkpt lat="46.32238" lon="-0.49662">
        <ele>55</ele>
        <time>2012-02-14T15:03:25Z</time>
      </trkpt>
      <trkpt lat="46.32239" lon="-0.49662">
        <ele>54</ele>
        <time>2012-02-14T15:03:30Z</time>
      </trkpt>
      <trkpt lat="46.32234" lon="-0.49663">
        <ele>52</ele>
        <time>2012-02-14T15:03:35Z</time>
      </trkpt>
      <trkpt lat="46.32232" lon="-0.49662">
        <ele>53</ele>
        <time>2012-02-14T15:03:40Z</time>
      </trkpt>
      <trkpt lat="46.32226" lon="-0.49667">
        <ele>53</ele>
        <time>2012-02-14T15:03:45Z</time>
      </trkpt>
      <trkpt lat="46.32216" lon="-0.49676">
        <ele>53</ele>
        <time>2012-02-14T15:03:50Z</time>
      </trkpt>
      <trkpt lat="46.32212" lon="-0.49678">
        <ele>53</ele>
        <time>2012-02-14T15:03:55Z</time>
      </trkpt>
      <trkpt lat="46.32207" lon="-0.49683">
        <ele>55</ele>
        <time>2012-02-14T15:04:00Z</time>
      </trkpt>
      <trkpt lat="46.32202" lon="-0.49686">
        <ele>55</ele>
        <time>2012-02-14T15:04:05Z</time>
      </trkpt>
      <trkpt lat="46.32198" lon="-0.49692">
        <ele>56</ele>
        <time>2012-02-14T15:04:10Z</time>
      </trkpt>
      <trkpt lat="46.32193" lon="-0.49694">
        <ele>56</ele>
        <time>2012-02-14T15:04:15Z</time>
      </trkpt>
      <trkpt lat="46.32188" lon="-0.49696">
        <ele>56</ele>
        <time>2012-02-14T15:04:20Z</time>
      </trkpt>
      <trkpt lat="46.32185" lon="-0.497">
        <ele>58</ele>
        <time>2012-02-14T15:04:25Z</time>
      </trkpt>
      <trkpt lat="46.3218" lon="-0.49703">
        <ele>57</ele>
        <time>2012-02-14T15:04:30Z</time>
      </trkpt>
      <trkpt lat="46.32176" lon="-0.49705">
        <ele>57</ele>
        <time>2012-02-14T15:04:35Z</time>
      </trkpt>
      <trkpt lat="46.32171" lon="-0.49707">
        <ele>59</ele>
        <time>2012-02-14T15:04:40Z</time>
      </trkpt>
      <trkpt lat="46.32168" lon="-0.49708">
        <ele>58</ele>
        <time>2012-02-14T15:04:45Z</time>
      </trkpt>
      <trkpt lat="46.32163" lon="-0.49711">
        <ele>57</ele>
        <time>2012-02-14T15:04:50Z</time>
      </trkpt>
      <trkpt lat="46.32157" lon="-0.49715">
        <ele>57</ele>
        <time>2012-02-14T15:04:55Z</time>
      </trkpt>
      <trkpt lat="46.32152" lon="-0.49715">
        <ele>57</ele>
        <time>2012-02-14T15:05:00Z</time>
      </trkpt>
      <trkpt lat="46.32147" lon="-0.49716">
        <ele>57</ele>
        <time>2012-02-14T15:05:05Z</time>
      </trkpt>
      <trkpt lat="46.32143" lon="-0.49718">
        <ele>57</ele>
        <time>2012-02-14T15:05:10Z</time>
      </trkpt>
      <trkpt lat="46.32138" lon="-0.49718">
        <ele>58</ele>
        <time>2012-02-14T15:05:15Z</time>
      </trkpt>
      <trkpt lat="46.32134" lon="-0.49721">
        <ele>58</ele>
        <time>2012-02-14T15:05:20Z</time>
      </trkpt>
      <trkpt lat="46.32129" lon="-0.49725">
        <ele>59</ele>
        <time>2012-02-14T15:05:25Z</time>
      </trkpt>
      <trkpt lat="46.32125" lon="-0.49729">
        <ele>60</ele>
        <time>2012-02-14T15:05:30Z</time>
      </trkpt>
      <trkpt lat="46.3212" lon="-0.49732">
        <ele>60</ele>
        <time>2012-02-14T15:05:35Z</time>
      </trkpt>
      <trkpt lat="46.32116" lon="-0.49734">
        <ele>61</ele>
        <time>2012-02-14T15:05:40Z</time>
      </trkpt>
      <trkpt lat="46.32112" lon="-0.49738">
        <ele>59</ele>
        <time>2012-02-14T15:05:45Z</time>
      </trkpt>
      <trkpt lat="46.3211" lon="-0.49742">
        <ele>58</ele>
        <time>2012-02-14T15:05:50Z</time>
      </trkpt>
      <trkpt lat="46.32105" lon="-0.49747">
        <ele>58</ele>
        <time>2012-02-14T15:05:55Z</time>
      </trkpt>
      <trkpt lat="46.321" lon="-0.49753">
        <ele>58</ele>
        <time>2012-02-14T15:06:00Z</time>
      </trkpt>
      <trkpt lat="46.321" lon="-0.49754">
        <ele>57</ele>
        <time>2012-02-14T15:06:05Z</time>
      </trkpt>
      <trkpt lat="46.32095" lon="-0.49759">
        <ele>58</ele>
        <time>2012-02-14T15:06:10Z</time>
      </trkpt>
      <trkpt lat="46.32089" lon="-0.49768">
        <ele>58</ele>
        <time>2012-02-14T15:06:15Z</time>
      </trkpt>
      <trkpt lat="46.32086" lon="-0.49773">
        <ele>58</ele>
        <time>2012-02-14T15:06:20Z</time>
      </trkpt>
      <trkpt lat="46.32086" lon="-0.49776">
        <ele>56</ele>
        <time>2012-02-14T15:06:25Z</time>
      </trkpt>
      <trkpt lat="46.32083" lon="-0.49777">
        <ele>56</ele>
        <time>2012-02-14T15:06:35Z</time>
      </trkpt>
      <trkpt lat="46.32081" lon="-0.49777">
        <ele>55</ele>
        <time>2012-02-14T15:06:40Z</time>
      </trkpt>
      <trkpt lat="46.32076" lon="-0.49781">
        <ele>54</ele>
        <time>2012-02-14T15:06:45Z</time>
      </trkpt>
      <trkpt lat="46.32075" lon="-0.49786">
        <ele>53</ele>
        <time>2012-02-14T15:06:50Z</time>
      </trkpt>
      <trkpt lat="46.32069" lon="-0.4979">
        <ele>55</ele>
        <time>2012-02-14T15:06:55Z</time>
      </trkpt>
      <trkpt lat="46.32061" lon="-0.49797">
        <ele>56</ele>
        <time>2012-02-14T15:07:00Z</time>
      </trkpt>
      <trkpt lat="46.32057" lon="-0.498">
        <ele>56</ele>
        <time>2012-02-14T15:07:05Z</time>
      </trkpt>
      <trkpt lat="46.32055" lon="-0.49804">
        <ele>56</ele>
        <time>2012-02-14T15:07:10Z</time>
      </trkpt>
      <trkpt lat="46.32055" lon="-0.49805">
        <ele>52</ele>
        <time>2012-02-14T15:07:15Z</time>
      </trkpt>
      <trkpt lat="46.32049" lon="-0.49813">
        <ele>55</ele>
        <time>2012-02-14T15:07:20Z</time>
      </trkpt>
      <trkpt lat="46.32046" lon="-0.49819">
        <ele>55</ele>
        <time>2012-02-14T15:07:25Z</time>
      </trkpt>
      <trkpt lat="46.32042" lon="-0.49819">
        <ele>55</ele>
        <time>2012-02-14T15:07:30Z</time>
      </trkpt>
      <trkpt lat="46.32038" lon="-0.49824">
        <ele>54</ele>
        <time>2012-02-14T15:07:35Z</time>
      </trkpt>
      <trkpt lat="46.32033" lon="-0.49831">
        <ele>54</ele>
        <time>2012-02-14T15:07:40Z</time>
      </trkpt>
      <trkpt lat="46.32029" lon="-0.49836">
        <ele>55</ele>
        <time>2012-02-14T15:07:45Z</time>
      </trkpt>
      <trkpt lat="46.32027" lon="-0.49839">
        <ele>55</ele>
        <time>2012-02-14T15:07:50Z</time>
      </trkpt>
      <trkpt lat="46.32024" lon="-0.49843">
        <ele>55</ele>
        <time>2012-02-14T15:07:55Z</time>
      </trkpt>
      <trkpt lat="46.32021" lon="-0.49847">
        <ele>56</ele>
        <time>2012-02-14T15:08:00Z</time>
      </trkpt>
      <trkpt lat="46.32017" lon="-0.49855">
        <ele>57</ele>
        <time>2012-02-14T15:08:05Z</time>
      </trkpt>
      <trkpt lat="46.32013" lon="-0.4986">
        <ele>57</ele>
        <time>2012-02-14T15:08:10Z</time>
      </trkpt>
      <trkpt lat="46.32011" lon="-0.4987">
        <ele>56</ele>
        <time>2012-02-14T15:08:15Z</time>
      </trkpt>
      <trkpt lat="46.32007" lon="-0.49874">
        <ele>55</ele>
        <time>2012-02-14T15:08:20Z</time>
      </trkpt>
      <trkpt lat="46.32008" lon="-0.49876">
        <ele>53</ele>
        <time>2012-02-14T15:08:25Z</time>
      </trkpt>
      <trkpt lat="46.32002" lon="-0.49884">
        <ele>56</ele>
        <time>2012-02-14T15:08:30Z</time>
      </trkpt>
      <trkpt lat="46.31998" lon="-0.4989">
        <ele>57</ele>
        <time>2012-02-14T15:08:35Z</time>
      </trkpt>
      <trkpt lat="46.31996" lon="-0.49893">
        <ele>57</ele>
        <time>2012-02-14T15:08:40Z</time>
      </trkpt>
      <trkpt lat="46.31991" lon="-0.49901">
        <ele>58</ele>
        <time>2012-02-14T15:08:45Z</time>
      </trkpt>
      <trkpt lat="46.31986" lon="-0.49909">
        <ele>61</ele>
        <time>2012-02-14T15:08:50Z</time>
      </trkpt>
      <trkpt lat="46.31985" lon="-0.49913">
        <ele>59</ele>
        <time>2012-02-14T15:08:55Z</time>
      </trkpt>
      <trkpt lat="46.31985" lon="-0.49918">
        <ele>60</ele>
        <time>2012-02-14T15:09:00Z</time>
      </trkpt>
      <trkpt lat="46.31983" lon="-0.49924">
        <ele>59</ele>
        <time>2012-02-14T15:09:05Z</time>
      </trkpt>
      <trkpt lat="46.31982" lon="-0.4993">
        <ele>58</ele>
        <time>2012-02-14T15:09:10Z</time>
      </trkpt>
      <trkpt lat="46.3198" lon="-0.49938">
        <ele>58</ele>
        <time>2012-02-14T15:09:15Z</time>
      </trkpt>
      <trkpt lat="46.31979" lon="-0.49944">
        <ele>58</ele>
        <time>2012-02-14T15:09:20Z</time>
      </trkpt>
      <trkpt lat="46.31979" lon="-0.49952">
        <ele>57</ele>
        <time>2012-02-14T15:09:25Z</time>
      </trkpt>
      <trkpt lat="46.3198" lon="-0.49961">
        <ele>56</ele>
        <time>2012-02-14T15:09:30Z</time>
      </trkpt>
      <trkpt lat="46.31981" lon="-0.49966">
        <ele>56</ele>
        <time>2012-02-14T15:09:35Z</time>
      </trkpt>
      <trkpt lat="46.31979" lon="-0.4998">
        <ele>57</ele>
        <time>2012-02-14T15:09:40Z</time>
      </trkpt>
      <trkpt lat="46.3198" lon="-0.49984">
        <ele>57</ele>
        <time>2012-02-14T15:09:45Z</time>
      </trkpt>
      <trkpt lat="46.31983" lon="-0.49989">
        <ele>56</ele>
        <time>2012-02-14T15:09:50Z</time>
      </trkpt>
      <trkpt lat="46.31986" lon="-0.49996">
        <ele>54</ele>
        <time>2012-02-14T15:09:55Z</time>
      </trkpt>
      <trkpt lat="46.31987" lon="-0.49999">
        <ele>55</ele>
        <time>2012-02-14T15:10:00Z</time>
      </trkpt>
      <trkpt lat="46.3199" lon="-0.50002">
        <ele>56</ele>
        <time>2012-02-14T15:10:05Z</time>
      </trkpt>
      <trkpt lat="46.31993" lon="-0.50009">
        <ele>55</ele>
        <time>2012-02-14T15:10:10Z</time>
      </trkpt>
      <trkpt lat="46.31993" lon="-0.5002">
        <ele>55</ele>
        <time>2012-02-14T15:10:15Z</time>
      </trkpt>
      <trkpt lat="46.31994" lon="-0.50032">
        <ele>59</ele>
        <time>2012-02-14T15:10:20Z</time>
      </trkpt>
      <trkpt lat="46.31993" lon="-0.50042">
        <ele>60</ele>
        <time>2012-02-14T15:10:25Z</time>
      </trkpt>
      <trkpt lat="46.31996" lon="-0.50045">
        <ele>60</ele>
        <time>2012-02-14T15:10:30Z</time>
      </trkpt>
      <trkpt lat="46.31998" lon="-0.50051">
        <ele>61</ele>
        <time>2012-02-14T15:10:35Z</time>
      </trkpt>
      <trkpt lat="46.32002" lon="-0.50058">
        <ele>60</ele>
        <time>2012-02-14T15:10:40Z</time>
      </trkpt>
      <trkpt lat="46.32004" lon="-0.50065">
        <ele>58</ele>
        <time>2012-02-14T15:10:45Z</time>
      </trkpt>
      <trkpt lat="46.32008" lon="-0.50069">
        <ele>57</ele>
        <time>2012-02-14T15:10:50Z</time>
      </trkpt>
      <trkpt lat="46.32012" lon="-0.50075">
        <ele>57</ele>
        <time>2012-02-14T15:10:55Z</time>
      </trkpt>
      <trkpt lat="46.32017" lon="-0.50082">
        <ele>57</ele>
        <time>2012-02-14T15:11:00Z</time>
      </trkpt>
      <trkpt lat="46.3202" lon="-0.50088">
        <ele>57</ele>
        <time>2012-02-14T15:11:05Z</time>
      </trkpt>
      <trkpt lat="46.32023" lon="-0.50095">
        <ele>56</ele>
        <time>2012-02-14T15:11:10Z</time>
      </trkpt>
      <trkpt lat="46.32025" lon="-0.50099">
        <ele>54</ele>
        <time>2012-02-14T15:11:15Z</time>
      </trkpt>
      <trkpt lat="46.32028" lon="-0.50105">
        <ele>54</ele>
        <time>2012-02-14T15:11:20Z</time>
      </trkpt>
      <trkpt lat="46.32031" lon="-0.50111">
        <ele>53</ele>
        <time>2012-02-14T15:11:25Z</time>
      </trkpt>
      <trkpt lat="46.32035" lon="-0.50118">
        <ele>53</ele>
        <time>2012-02-14T15:11:30Z</time>
      </trkpt>
      <trkpt lat="46.32038" lon="-0.50125">
        <ele>52</ele>
        <time>2012-02-14T15:11:35Z</time>
      </trkpt>
      <trkpt lat="46.3204" lon="-0.50131">
        <ele>52</ele>
        <time>2012-02-14T15:11:40Z</time>
      </trkpt>
      <trkpt lat="46.32043" lon="-0.50137">
        <ele>53</ele>
        <time>2012-02-14T15:11:45Z</time>
      </trkpt>
      <trkpt lat="46.32046" lon="-0.50143">
        <ele>52</ele>
        <time>2012-02-14T15:11:50Z</time>
      </trkpt>
      <trkpt lat="46.32048" lon="-0.50151">
        <ele>52</ele>
        <time>2012-02-14T15:11:55Z</time>
      </trkpt>
      <trkpt lat="46.32052" lon="-0.50156">
        <ele>53</ele>
        <time>2012-02-14T15:12:00Z</time>
      </trkpt>
      <trkpt lat="46.32054" lon="-0.50163">
        <ele>53</ele>
        <time>2012-02-14T15:12:05Z</time>
      </trkpt>
      <trkpt lat="46.32055" lon="-0.50169">
        <ele>54</ele>
        <time>2012-02-14T15:12:10Z</time>
      </trkpt>
      <trkpt lat="46.32057" lon="-0.50173">
        <ele>52</ele>
        <time>2012-02-14T15:12:15Z</time>
      </trkpt>
      <trkpt lat="46.32061" lon="-0.50179">
        <ele>52</ele>
        <time>2012-02-14T15:12:20Z</time>
      </trkpt>
      <trkpt lat="46.32062" lon="-0.50186">
        <ele>51</ele>
        <time>2012-02-14T15:12:25Z</time>
      </trkpt>
      <trkpt lat="46.32064" lon="-0.50192">
        <ele>50</ele>
        <time>2012-02-14T15:12:30Z</time>
      </trkpt>
      <trkpt lat="46.32066" lon="-0.50198">
        <ele>50</ele>
        <time>2012-02-14T15:12:35Z</time>
      </trkpt>
      <trkpt lat="46.32068" lon="-0.50206">
        <ele>51</ele>
        <time>2012-02-14T15:12:40Z</time>
      </trkpt>
      <trkpt lat="46.32069" lon="-0.50213">
        <ele>50</ele>
        <time>2012-02-14T15:12:45Z</time>
      </trkpt>
      <trkpt lat="46.32071" lon="-0.5022">
        <ele>51</ele>
        <time>2012-02-14T15:12:50Z</time>
      </trkpt>
      <trkpt lat="46.32073" lon="-0.50228">
        <ele>51</ele>
        <time>2012-02-14T15:12:55Z</time>
      </trkpt>
      <trkpt lat="46.32075" lon="-0.50236">
        <ele>52</ele>
        <time>2012-02-14T15:13:00Z</time>
      </trkpt>
      <trkpt lat="46.32075" lon="-0.50244">
        <ele>52</ele>
        <time>2012-02-14T15:13:05Z</time>
      </trkpt>
      <trkpt lat="46.32076" lon="-0.50252">
        <ele>52</ele>
        <time>2012-02-14T15:13:10Z</time>
      </trkpt>
      <trkpt lat="46.32079" lon="-0.50258">
        <ele>51</ele>
        <time>2012-02-14T15:13:15Z</time>
      </trkpt>
      <trkpt lat="46.32083" lon="-0.50264">
        <ele>53</ele>
        <time>2012-02-14T15:13:20Z</time>
      </trkpt>
      <trkpt lat="46.32085" lon="-0.50269">
        <ele>51</ele>
        <time>2012-02-14T15:13:25Z</time>
      </trkpt>
      <trkpt lat="46.32086" lon="-0.50274">
        <ele>50</ele>
        <time>2012-02-14T15:13:30Z</time>
      </trkpt>
      <trkpt lat="46.32089" lon="-0.50282">
        <ele>50</ele>
        <time>2012-02-14T15:13:35Z</time>
      </trkpt>
      <trkpt lat="46.3209" lon="-0.5029">
        <ele>50</ele>
        <time>2012-02-14T15:13:40Z</time>
      </trkpt>
      <trkpt lat="46.32091" lon="-0.50297">
        <ele>51</ele>
        <time>2012-02-14T15:13:45Z</time>
      </trkpt>
      <trkpt lat="46.32092" lon="-0.50304">
        <ele>51</ele>
        <time>2012-02-14T15:13:50Z</time>
      </trkpt>
      <trkpt lat="46.32091" lon="-0.50309">
        <ele>51</ele>
        <time>2012-02-14T15:13:55Z</time>
      </trkpt>
      <trkpt lat="46.3209" lon="-0.50317">
        <ele>51</ele>
        <time>2012-02-14T15:14:00Z</time>
      </trkpt>
      <trkpt lat="46.32089" lon="-0.50323">
        <ele>51</ele>
        <time>2012-02-14T15:14:05Z</time>
      </trkpt>
      <trkpt lat="46.32089" lon="-0.50325">
        <ele>51</ele>
        <time>2012-02-14T15:14:10Z</time>
      </trkpt>
      <trkpt lat="46.32086" lon="-0.50333">
        <ele>52</ele>
        <time>2012-02-14T15:14:15Z</time>
      </trkpt>
      <trkpt lat="46.32083" lon="-0.5034">
        <ele>52</ele>
        <time>2012-02-14T15:14:20Z</time>
      </trkpt>
      <trkpt lat="46.32081" lon="-0.50346">
        <ele>52</ele>
        <time>2012-02-14T15:14:25Z</time>
      </trkpt>
      <trkpt lat="46.32078" lon="-0.50357">
        <ele>53</ele>
        <time>2012-02-14T15:14:30Z</time>
      </trkpt>
      <trkpt lat="46.32074" lon="-0.50367">
        <ele>54</ele>
        <time>2012-02-14T15:14:35Z</time>
      </trkpt>
      <trkpt lat="46.32073" lon="-0.50373">
        <ele>55</ele>
        <time>2012-02-14T15:14:40Z</time>
      </trkpt>
      <trkpt lat="46.32071" lon="-0.50379">
        <ele>55</ele>
        <time>2012-02-14T15:14:45Z</time>
      </trkpt>
      <trkpt lat="46.32064" lon="-0.50394">
        <ele>56</ele>
        <time>2012-02-14T15:14:50Z</time>
      </trkpt>
      <trkpt lat="46.32061" lon="-0.50401">
        <ele>57</ele>
        <time>2012-02-14T15:14:55Z</time>
      </trkpt>
      <trkpt lat="46.3206" lon="-0.50409">
        <ele>54</ele>
        <time>2012-02-14T15:15:00Z</time>
      </trkpt>
      <trkpt lat="46.32055" lon="-0.50417">
        <ele>55</ele>
        <time>2012-02-14T15:15:05Z</time>
      </trkpt>
      <trkpt lat="46.32051" lon="-0.50426">
        <ele>54</ele>
        <time>2012-02-14T15:15:10Z</time>
      </trkpt>
      <trkpt lat="46.32049" lon="-0.50431">
        <ele>54</ele>
        <time>2012-02-14T15:15:15Z</time>
      </trkpt>
      <trkpt lat="46.32049" lon="-0.50438">
        <ele>54</ele>
        <time>2012-02-14T15:15:20Z</time>
      </trkpt>
      <trkpt lat="46.32048" lon="-0.50443">
        <ele>54</ele>
        <time>2012-02-14T15:15:25Z</time>
      </trkpt>
      <trkpt lat="46.32047" lon="-0.50449">
        <ele>55</ele>
        <time>2012-02-14T15:15:30Z</time>
      </trkpt>
      <trkpt lat="46.32041" lon="-0.50461">
        <ele>55</ele>
        <time>2012-02-14T15:15:35Z</time>
      </trkpt>
      <trkpt lat="46.32038" lon="-0.5047">
        <ele>57</ele>
        <time>2012-02-14T15:15:40Z</time>
      </trkpt>
      <trkpt lat="46.32035" lon="-0.50479">
        <ele>57</ele>
        <time>2012-02-14T15:15:45Z</time>
      </trkpt>
      <trkpt lat="46.32038" lon="-0.50484">
        <ele>56</ele>
        <time>2012-02-14T15:15:50Z</time>
      </trkpt>
      <trkpt lat="46.32038" lon="-0.50492">
        <ele>55</ele>
        <time>2012-02-14T15:15:55Z</time>
      </trkpt>
      <trkpt lat="46.32034" lon="-0.50504">
        <ele>54</ele>
        <time>2012-02-14T15:16:00Z</time>
      </trkpt>
      <trkpt lat="46.32033" lon="-0.50514">
        <ele>53</ele>
        <time>2012-02-14T15:16:05Z</time>
      </trkpt>
      <trkpt lat="46.32034" lon="-0.50523">
        <ele>52</ele>
        <time>2012-02-14T15:16:10Z</time>
      </trkpt>
      <trkpt lat="46.32035" lon="-0.50532">
        <ele>51</ele>
        <time>2012-02-14T15:16:15Z</time>
      </trkpt>
      <trkpt lat="46.32036" lon="-0.50538">
        <ele>51</ele>
        <time>2012-02-14T15:16:20Z</time>
      </trkpt>
      <trkpt lat="46.32035" lon="-0.50548">
        <ele>52</ele>
        <time>2012-02-14T15:16:25Z</time>
      </trkpt>
      <trkpt lat="46.32037" lon="-0.50556">
        <ele>51</ele>
        <time>2012-02-14T15:16:30Z</time>
      </trkpt>
      <trkpt lat="46.32037" lon="-0.50565">
        <ele>50</ele>
        <time>2012-02-14T15:16:35Z</time>
      </trkpt>
      <trkpt lat="46.32035" lon="-0.50575">
        <ele>51</ele>
        <time>2012-02-14T15:16:40Z</time>
      </trkpt>
      <trkpt lat="46.32036" lon="-0.50583">
        <ele>49</ele>
        <time>2012-02-14T15:16:45Z</time>
      </trkpt>
      <trkpt lat="46.32037" lon="-0.50592">
        <ele>47</ele>
        <time>2012-02-14T15:16:50Z</time>
      </trkpt>
      <trkpt lat="46.32037" lon="-0.506">
        <ele>46</ele>
        <time>2012-02-14T15:16:55Z</time>
      </trkpt>
      <trkpt lat="46.32039" lon="-0.50608">
        <ele>46</ele>
        <time>2012-02-14T15:17:00Z</time>
      </trkpt>
      <trkpt lat="46.3204" lon="-0.50617">
        <ele>46</ele>
        <time>2012-02-14T15:17:05Z</time>
      </trkpt>
      <trkpt lat="46.3204" lon="-0.50626">
        <ele>46</ele>
        <time>2012-02-14T15:17:10Z</time>
      </trkpt>
      <trkpt lat="46.32042" lon="-0.50633">
        <ele>47</ele>
        <time>2012-02-14T15:17:15Z</time>
      </trkpt>
      <trkpt lat="46.32043" lon="-0.50643">
        <ele>48</ele>
        <time>2012-02-14T15:17:20Z</time>
      </trkpt>
      <trkpt lat="46.32046" lon="-0.50651">
        <ele>48</ele>
        <time>2012-02-14T15:17:25Z</time>
      </trkpt>
      <trkpt lat="46.32047" lon="-0.50661">
        <ele>49</ele>
        <time>2012-02-14T15:17:30Z</time>
      </trkpt>
      <trkpt lat="46.32047" lon="-0.5067">
        <ele>50</ele>
        <time>2012-02-14T15:17:35Z</time>
      </trkpt>
      <trkpt lat="46.32051" lon="-0.50673">
        <ele>52</ele>
        <time>2012-02-14T15:17:40Z</time>
      </trkpt>
      <trkpt lat="46.32052" lon="-0.50681">
        <ele>52</ele>
        <time>2012-02-14T15:17:45Z</time>
      </trkpt>
      <trkpt lat="46.32051" lon="-0.50687">
        <ele>50</ele>
        <time>2012-02-14T15:17:50Z</time>
      </trkpt>
      <trkpt lat="46.3205" lon="-0.50692">
        <ele>49</ele>
        <time>2012-02-14T15:17:55Z</time>
      </trkpt>
      <trkpt lat="46.32051" lon="-0.50698">
        <ele>49</ele>
        <time>2012-02-14T15:18:00Z</time>
      </trkpt>
      <trkpt lat="46.32049" lon="-0.50706">
        <ele>50</ele>
        <time>2012-02-14T15:18:05Z</time>
      </trkpt>
      <trkpt lat="46.32052" lon="-0.50712">
        <ele>51</ele>
        <time>2012-02-14T15:18:10Z</time>
      </trkpt>
      <trkpt lat="46.32051" lon="-0.50723">
        <ele>51</ele>
        <time>2012-02-14T15:18:15Z</time>
      </trkpt>
      <trkpt lat="46.32051" lon="-0.5073">
        <ele>51</ele>
        <time>2012-02-14T15:18:20Z</time>
      </trkpt>
      <trkpt lat="46.3205" lon="-0.50739">
        <ele>52</ele>
        <time>2012-02-14T15:18:25Z</time>
      </trkpt>
      <trkpt lat="46.32052" lon="-0.50748">
        <ele>53</ele>
        <time>2012-02-14T15:18:30Z</time>
      </trkpt>
      <trkpt lat="46.32052" lon="-0.50754">
        <ele>53</ele>
        <time>2012-02-14T15:18:35Z</time>
      </trkpt>
      <trkpt lat="46.32054" lon="-0.50762">
        <ele>53</ele>
        <time>2012-02-14T15:18:40Z</time>
      </trkpt>
      <trkpt lat="46.32054" lon="-0.50776">
        <ele>53</ele>
        <time>2012-02-14T15:18:45Z</time>
      </trkpt>
      <trkpt lat="46.32057" lon="-0.50784">
        <ele>51</ele>
        <time>2012-02-14T15:18:50Z</time>
      </trkpt>
      <trkpt lat="46.32057" lon="-0.50792">
        <ele>51</ele>
        <time>2012-02-14T15:18:55Z</time>
      </trkpt>
      <trkpt lat="46.32061" lon="-0.50799">
        <ele>50</ele>
        <time>2012-02-14T15:19:00Z</time>
      </trkpt>
      <trkpt lat="46.32061" lon="-0.50809">
        <ele>52</ele>
        <time>2012-02-14T15:19:05Z</time>
      </trkpt>
      <trkpt lat="46.32064" lon="-0.50812">
        <ele>52</ele>
        <time>2012-02-14T15:19:10Z</time>
      </trkpt>
      <trkpt lat="46.32066" lon="-0.50822">
        <ele>54</ele>
        <time>2012-02-14T15:19:15Z</time>
      </trkpt>
      <trkpt lat="46.32069" lon="-0.50829">
        <ele>53</ele>
        <time>2012-02-14T15:19:20Z</time>
      </trkpt>
      <trkpt lat="46.32071" lon="-0.50839">
        <ele>54</ele>
        <time>2012-02-14T15:19:25Z</time>
      </trkpt>
      <trkpt lat="46.32075" lon="-0.50844">
        <ele>55</ele>
        <time>2012-02-14T15:19:30Z</time>
      </trkpt>
      <trkpt lat="46.32078" lon="-0.50849">
        <ele>54</ele>
        <time>2012-02-14T15:19:35Z</time>
      </trkpt>
      <trkpt lat="46.32084" lon="-0.5085">
        <ele>55</ele>
        <time>2012-02-14T15:19:40Z</time>
      </trkpt>
      <trkpt lat="46.3209" lon="-0.50855">
        <ele>56</ele>
        <time>2012-02-14T15:19:45Z</time>
      </trkpt>
      <trkpt lat="46.32094" lon="-0.50858">
        <ele>54</ele>
        <time>2012-02-14T15:19:50Z</time>
      </trkpt>
      <trkpt lat="46.32096" lon="-0.50861">
        <ele>53</ele>
        <time>2012-02-14T15:19:55Z</time>
      </trkpt>
      <trkpt lat="46.321" lon="-0.50869">
        <ele>53</ele>
        <time>2012-02-14T15:20:00Z</time>
      </trkpt>
      <trkpt lat="46.32106" lon="-0.50869">
        <ele>53</ele>
        <time>2012-02-14T15:20:05Z</time>
      </trkpt>
      <trkpt lat="46.32105" lon="-0.50878">
        <ele>54</ele>
        <time>2012-02-14T15:20:10Z</time>
      </trkpt>
      <trkpt lat="46.32108" lon="-0.50884">
        <ele>53</ele>
        <time>2012-02-14T15:20:15Z</time>
      </trkpt>
      <trkpt lat="46.32113" lon="-0.50887">
        <ele>53</ele>
        <time>2012-02-14T15:20:20Z</time>
      </trkpt>
      <trkpt lat="46.32112" lon="-0.50885">
        <ele>50</ele>
        <time>2012-02-14T15:20:25Z</time>
      </trkpt>
      <trkpt lat="46.32119" lon="-0.50885">
        <ele>53</ele>
        <time>2012-02-14T15:20:30Z</time>
      </trkpt>
      <trkpt lat="46.32124" lon="-0.50886">
        <ele>53</ele>
        <time>2012-02-14T15:20:35Z</time>
      </trkpt>
      <trkpt lat="46.32127" lon="-0.50887">
        <ele>53</ele>
        <time>2012-02-14T15:20:40Z</time>
      </trkpt>
      <trkpt lat="46.3213" lon="-0.50891">
        <ele>54</ele>
        <time>2012-02-14T15:20:45Z</time>
      </trkpt>
      <trkpt lat="46.32134" lon="-0.50893">
        <ele>53</ele>
        <time>2012-02-14T15:20:50Z</time>
      </trkpt>
      <trkpt lat="46.3214" lon="-0.50896">
        <ele>53</ele>
        <time>2012-02-14T15:20:55Z</time>
      </trkpt>
      <trkpt lat="46.32144" lon="-0.50899">
        <ele>54</ele>
        <time>2012-02-14T15:21:00Z</time>
      </trkpt>
      <trkpt lat="46.32148" lon="-0.50901">
        <ele>53</ele>
        <time>2012-02-14T15:21:05Z</time>
      </trkpt>
      <trkpt lat="46.3215" lon="-0.50903">
        <ele>52</ele>
        <time>2012-02-14T15:21:10Z</time>
      </trkpt>
      <trkpt lat="46.32153" lon="-0.50906">
        <ele>50</ele>
        <time>2012-02-14T15:21:15Z</time>
      </trkpt>
      <trkpt lat="46.32158" lon="-0.5091">
        <ele>50</ele>
        <time>2012-02-14T15:21:20Z</time>
      </trkpt>
      <trkpt lat="46.32162" lon="-0.50913">
        <ele>48</ele>
        <time>2012-02-14T15:21:25Z</time>
      </trkpt>
      <trkpt lat="46.32165" lon="-0.50917">
        <ele>50</ele>
        <time>2012-02-14T15:21:30Z</time>
      </trkpt>
      <trkpt lat="46.32172" lon="-0.50922">
        <ele>51</ele>
        <time>2012-02-14T15:21:35Z</time>
      </trkpt>
      <trkpt lat="46.3218" lon="-0.50925">
        <ele>53</ele>
        <time>2012-02-14T15:21:40Z</time>
      </trkpt>
      <trkpt lat="46.32185" lon="-0.50928">
        <ele>54</ele>
        <time>2012-02-14T15:21:45Z</time>
      </trkpt>
      <trkpt lat="46.32189" lon="-0.50933">
        <ele>55</ele>
        <time>2012-02-14T15:21:50Z</time>
      </trkpt>
      <trkpt lat="46.32194" lon="-0.50938">
        <ele>55</ele>
        <time>2012-02-14T15:21:55Z</time>
      </trkpt>
      <trkpt lat="46.32199" lon="-0.50941">
        <ele>54</ele>
        <time>2012-02-14T15:22:00Z</time>
      </trkpt>
      <trkpt lat="46.32203" lon="-0.5095">
        <ele>56</ele>
        <time>2012-02-14T15:22:05Z</time>
      </trkpt>
      <trkpt lat="46.32206" lon="-0.50956">
        <ele>56</ele>
        <time>2012-02-14T15:22:10Z</time>
      </trkpt>
      <trkpt lat="46.32211" lon="-0.50965">
        <ele>55</ele>
        <time>2012-02-14T15:22:15Z</time>
      </trkpt>
      <trkpt lat="46.32214" lon="-0.50974">
        <ele>58</ele>
        <time>2012-02-14T15:22:20Z</time>
      </trkpt>
      <trkpt lat="46.32221" lon="-0.50975">
        <ele>60</ele>
        <time>2012-02-14T15:22:25Z</time>
      </trkpt>
      <trkpt lat="46.32222" lon="-0.50981">
        <ele>59</ele>
        <time>2012-02-14T15:22:30Z</time>
      </trkpt>
      <trkpt lat="46.32226" lon="-0.50987">
        <ele>59</ele>
        <time>2012-02-14T15:22:35Z</time>
      </trkpt>
      <trkpt lat="46.32228" lon="-0.50991">
        <ele>57</ele>
        <time>2012-02-14T15:22:40Z</time>
      </trkpt>
      <trkpt lat="46.32235" lon="-0.50993">
        <ele>59</ele>
        <time>2012-02-14T15:22:45Z</time>
      </trkpt>
      <trkpt lat="46.32243" lon="-0.50993">
        <ele>59</ele>
        <time>2012-02-14T15:22:50Z</time>
      </trkpt>
      <trkpt lat="46.32246" lon="-0.51">
        <ele>58</ele>
        <time>2012-02-14T15:22:55Z</time>
      </trkpt>
      <trkpt lat="46.32251" lon="-0.51004">
        <ele>57</ele>
        <time>2012-02-14T15:23:00Z</time>
      </trkpt>
      <trkpt lat="46.32256" lon="-0.5101">
        <ele>56</ele>
        <time>2012-02-14T15:23:05Z</time>
      </trkpt>
      <trkpt lat="46.32262" lon="-0.51011">
        <ele>55</ele>
        <time>2012-02-14T15:23:10Z</time>
      </trkpt>
      <trkpt lat="46.32267" lon="-0.51018">
        <ele>57</ele>
        <time>2012-02-14T15:23:15Z</time>
      </trkpt>
      <trkpt lat="46.32273" lon="-0.51023">
        <ele>58</ele>
        <time>2012-02-14T15:23:20Z</time>
      </trkpt>
      <trkpt lat="46.32277" lon="-0.51023">
        <ele>56</ele>
        <time>2012-02-14T15:23:25Z</time>
      </trkpt>
      <trkpt lat="46.32282" lon="-0.51026">
        <ele>54</ele>
        <time>2012-02-14T15:23:30Z</time>
      </trkpt>
      <trkpt lat="46.32288" lon="-0.51028">
        <ele>55</ele>
        <time>2012-02-14T15:23:35Z</time>
      </trkpt>
      <trkpt lat="46.32296" lon="-0.51031">
        <ele>56</ele>
        <time>2012-02-14T15:23:40Z</time>
      </trkpt>
      <trkpt lat="46.323" lon="-0.51033">
        <ele>57</ele>
        <time>2012-02-14T15:23:45Z</time>
      </trkpt>
      <trkpt lat="46.32307" lon="-0.51035">
        <ele>57</ele>
        <time>2012-02-14T15:23:50Z</time>
      </trkpt>
      <trkpt lat="46.32317" lon="-0.51037">
        <ele>58</ele>
        <time>2012-02-14T15:23:55Z</time>
      </trkpt>
      <trkpt lat="46.32322" lon="-0.51039">
        <ele>58</ele>
        <time>2012-02-14T15:24:00Z</time>
      </trkpt>
      <trkpt lat="46.32327" lon="-0.51039">
        <ele>59</ele>
        <time>2012-02-14T15:24:05Z</time>
      </trkpt>
      <trkpt lat="46.32333" lon="-0.51041">
        <ele>60</ele>
        <time>2012-02-14T15:24:10Z</time>
      </trkpt>
      <trkpt lat="46.32342" lon="-0.51039">
        <ele>59</ele>
        <time>2012-02-14T15:24:15Z</time>
      </trkpt>
      <trkpt lat="46.32346" lon="-0.51039">
        <ele>58</ele>
        <time>2012-02-14T15:24:20Z</time>
      </trkpt>
      <trkpt lat="46.32351" lon="-0.51039">
        <ele>58</ele>
        <time>2012-02-14T15:24:25Z</time>
      </trkpt>
      <trkpt lat="46.32356" lon="-0.51041">
        <ele>57</ele>
        <time>2012-02-14T15:24:30Z</time>
      </trkpt>
      <trkpt lat="46.3236" lon="-0.51043">
        <ele>57</ele>
        <time>2012-02-14T15:24:35Z</time>
      </trkpt>
      <trkpt lat="46.32363" lon="-0.51042">
        <ele>55</ele>
        <time>2012-02-14T15:24:40Z</time>
      </trkpt>
      <trkpt lat="46.32365" lon="-0.51041">
        <ele>55</ele>
        <time>2012-02-14T15:24:45Z</time>
      </trkpt>
      <trkpt lat="46.32372" lon="-0.51043">
        <ele>56</ele>
        <time>2012-02-14T15:24:50Z</time>
      </trkpt>
      <trkpt lat="46.3238" lon="-0.51042">
        <ele>55</ele>
        <time>2012-02-14T15:24:55Z</time>
      </trkpt>
      <trkpt lat="46.32384" lon="-0.51043">
        <ele>54</ele>
        <time>2012-02-14T15:25:00Z</time>
      </trkpt>
      <trkpt lat="46.32392" lon="-0.51043">
        <ele>54</ele>
        <time>2012-02-14T15:25:05Z</time>
      </trkpt>
      <trkpt lat="46.32397" lon="-0.51043">
        <ele>56</ele>
        <time>2012-02-14T15:25:10Z</time>
      </trkpt>
      <trkpt lat="46.32402" lon="-0.51044">
        <ele>58</ele>
        <time>2012-02-14T15:25:15Z</time>
      </trkpt>
      <trkpt lat="46.32403" lon="-0.51044">
        <ele>57</ele>
        <time>2012-02-14T15:25:20Z</time>
      </trkpt>
      <trkpt lat="46.32408" lon="-0.51047">
        <ele>57</ele>
        <time>2012-02-14T15:25:25Z</time>
      </trkpt>
      <trkpt lat="46.32414" lon="-0.51047">
        <ele>56</ele>
        <time>2012-02-14T15:25:30Z</time>
      </trkpt>
      <trkpt lat="46.32421" lon="-0.51047">
        <ele>57</ele>
        <time>2012-02-14T15:25:35Z</time>
      </trkpt>
      <trkpt lat="46.32428" lon="-0.51048">
        <ele>58</ele>
        <time>2012-02-14T15:25:40Z</time>
      </trkpt>
      <trkpt lat="46.32429" lon="-0.51048">
        <ele>58</ele>
        <time>2012-02-14T15:25:45Z</time>
      </trkpt>
      <trkpt lat="46.3243" lon="-0.51048">
        <ele>56</ele>
        <time>2012-02-14T15:25:50Z</time>
      </trkpt>
      <trkpt lat="46.32437" lon="-0.51046">
        <ele>54</ele>
        <time>2012-02-14T15:25:55Z</time>
      </trkpt>
      <trkpt lat="46.32442" lon="-0.51044">
        <ele>54</ele>
        <time>2012-02-14T15:26:00Z</time>
      </trkpt>
      <trkpt lat="46.32448" lon="-0.51044">
        <ele>55</ele>
        <time>2012-02-14T15:26:05Z</time>
      </trkpt>
      <trkpt lat="46.32454" lon="-0.5104">
        <ele>54</ele>
        <time>2012-02-14T15:26:10Z</time>
      </trkpt>
      <trkpt lat="46.32458" lon="-0.51038">
        <ele>54</ele>
        <time>2012-02-14T15:26:15Z</time>
      </trkpt>
      <trkpt lat="46.32462" lon="-0.51035">
        <ele>54</ele>
        <time>2012-02-14T15:26:20Z</time>
      </trkpt>
      <trkpt lat="46.32468" lon="-0.51031">
        <ele>55</ele>
        <time>2012-02-14T15:26:25Z</time>
      </trkpt>
      <trkpt lat="46.3247" lon="-0.51025">
        <ele>54</ele>
        <time>2012-02-14T15:26:30Z</time>
      </trkpt>
      <trkpt lat="46.32474" lon="-0.5102">
        <ele>56</ele>
        <time>2012-02-14T15:26:35Z</time>
      </trkpt>
      <trkpt lat="46.32478" lon="-0.51018">
        <ele>54</ele>
        <time>2012-02-14T15:26:40Z</time>
      </trkpt>
      <trkpt lat="46.32488" lon="-0.51017">
        <ele>54</ele>
        <time>2012-02-14T15:26:45Z</time>
      </trkpt>
      <trkpt lat="46.32495" lon="-0.51016">
        <ele>54</ele>
        <time>2012-02-14T15:26:50Z</time>
      </trkpt>
      <trkpt lat="46.32503" lon="-0.51012">
        <ele>56</ele>
        <time>2012-02-14T15:26:55Z</time>
      </trkpt>
      <trkpt lat="46.32506" lon="-0.51009">
        <ele>57</ele>
        <time>2012-02-14T15:27:00Z</time>
      </trkpt>
      <trkpt lat="46.32511" lon="-0.51006">
        <ele>56</ele>
        <time>2012-02-14T15:27:05Z</time>
      </trkpt>
      <trkpt lat="46.32517" lon="-0.51004">
        <ele>57</ele>
        <time>2012-02-14T15:27:10Z</time>
      </trkpt>
      <trkpt lat="46.32522" lon="-0.51001">
        <ele>57</ele>
        <time>2012-02-14T15:27:15Z</time>
      </trkpt>
      <trkpt lat="46.32529" lon="-0.50996">
        <ele>57</ele>
        <time>2012-02-14T15:27:20Z</time>
      </trkpt>
      <trkpt lat="46.32528" lon="-0.50993">
        <ele>54</ele>
        <time>2012-02-14T15:27:25Z</time>
      </trkpt>
      <trkpt lat="46.32529" lon="-0.50988">
        <ele>53</ele>
        <time>2012-02-14T15:27:30Z</time>
      </trkpt>
      <trkpt lat="46.32535" lon="-0.50982">
        <ele>53</ele>
        <time>2012-02-14T15:27:35Z</time>
      </trkpt>
      <trkpt lat="46.3254" lon="-0.50976">
        <ele>52</ele>
        <time>2012-02-14T15:27:40Z</time>
      </trkpt>
      <trkpt lat="46.32549" lon="-0.50974">
        <ele>53</ele>
        <time>2012-02-14T15:27:45Z</time>
      </trkpt>
      <trkpt lat="46.32554" lon="-0.50969">
        <ele>54</ele>
        <time>2012-02-14T15:27:50Z</time>
      </trkpt>
      <trkpt lat="46.32558" lon="-0.50964">
        <ele>53</ele>
        <time>2012-02-14T15:27:55Z</time>
      </trkpt>
      <trkpt lat="46.32563" lon="-0.5096">
        <ele>52</ele>
        <time>2012-02-14T15:28:00Z</time>
      </trkpt>
      <trkpt lat="46.32568" lon="-0.50953">
        <ele>52</ele>
        <time>2012-02-14T15:28:05Z</time>
      </trkpt>
      <trkpt lat="46.32571" lon="-0.50946">
        <ele>53</ele>
        <time>2012-02-14T15:28:10Z</time>
      </trkpt>
      <trkpt lat="46.32576" lon="-0.50938">
        <ele>53</ele>
        <time>2012-02-14T15:28:15Z</time>
      </trkpt>
      <trkpt lat="46.3258" lon="-0.50931">
        <ele>54</ele>
        <time>2012-02-14T15:28:20Z</time>
      </trkpt>
      <trkpt lat="46.32582" lon="-0.50923">
        <ele>54</ele>
        <time>2012-02-14T15:28:25Z</time>
      </trkpt>
      <trkpt lat="46.32584" lon="-0.50916">
        <ele>54</ele>
        <time>2012-02-14T15:28:30Z</time>
      </trkpt>
      <trkpt lat="46.32587" lon="-0.50909">
        <ele>54</ele>
        <time>2012-02-14T15:28:35Z</time>
      </trkpt>
      <trkpt lat="46.3259" lon="-0.509">
        <ele>53</ele>
        <time>2012-02-14T15:28:40Z</time>
      </trkpt>
      <trkpt lat="46.3259" lon="-0.5089">
        <ele>54</ele>
        <time>2012-02-14T15:28:45Z</time>
      </trkpt>
      <trkpt lat="46.32591" lon="-0.50882">
        <ele>54</ele>
        <time>2012-02-14T15:28:50Z</time>
      </trkpt>
      <trkpt lat="46.32591" lon="-0.50875">
        <ele>54</ele>
        <time>2012-02-14T15:28:55Z</time>
      </trkpt>
      <trkpt lat="46.32596" lon="-0.50865">
        <ele>55</ele>
        <time>2012-02-14T15:29:00Z</time>
      </trkpt>
      <trkpt lat="46.32598" lon="-0.50861">
        <ele>56</ele>
        <time>2012-02-14T15:29:05Z</time>
      </trkpt>
      <trkpt lat="46.32665" lon="-0.50795">
        <ele>56</ele>
        <time>2012-02-14T15:30:15Z</time>
      </trkpt>
      <trkpt lat="46.3266" lon="-0.50785">
        <ele>53</ele>
        <time>2012-02-14T15:30:20Z</time>
      </trkpt>
      <trkpt lat="46.32666" lon="-0.50777">
        <ele>54</ele>
        <time>2012-02-14T15:30:25Z</time>
      </trkpt>
      <trkpt lat="46.3267" lon="-0.50773">
        <ele>53</ele>
        <time>2012-02-14T15:30:30Z</time>
      </trkpt>
      <trkpt lat="46.32674" lon="-0.50769">
        <ele>53</ele>
        <time>2012-02-14T15:30:35Z</time>
      </trkpt>
      <trkpt lat="46.32677" lon="-0.50763">
        <ele>53</ele>
        <time>2012-02-14T15:30:40Z</time>
      </trkpt>
      <trkpt lat="46.32682" lon="-0.50759">
        <ele>55</ele>
        <time>2012-02-14T15:30:45Z</time>
      </trkpt>
      <trkpt lat="46.32688" lon="-0.50757">
        <ele>56</ele>
        <time>2012-02-14T15:30:50Z</time>
      </trkpt>
      <trkpt lat="46.32694" lon="-0.50754">
        <ele>57</ele>
        <time>2012-02-14T15:30:55Z</time>
      </trkpt>
      <trkpt lat="46.32699" lon="-0.50749">
        <ele>59</ele>
        <time>2012-02-14T15:31:00Z</time>
      </trkpt>
      <trkpt lat="46.32703" lon="-0.50747">
        <ele>59</ele>
        <time>2012-02-14T15:31:05Z</time>
      </trkpt>
      <trkpt lat="46.32708" lon="-0.50746">
        <ele>59</ele>
        <time>2012-02-14T15:31:10Z</time>
      </trkpt>
      <trkpt lat="46.32712" lon="-0.50746">
        <ele>58</ele>
        <time>2012-02-14T15:31:15Z</time>
      </trkpt>
      <trkpt lat="46.32718" lon="-0.50746">
        <ele>59</ele>
        <time>2012-02-14T15:31:20Z</time>
      </trkpt>
      <trkpt lat="46.32723" lon="-0.50747">
        <ele>59</ele>
        <time>2012-02-14T15:31:25Z</time>
      </trkpt>
      <trkpt lat="46.32727" lon="-0.50749">
        <ele>58</ele>
        <time>2012-02-14T15:31:30Z</time>
      </trkpt>
      <trkpt lat="46.32733" lon="-0.50749">
        <ele>56</ele>
        <time>2012-02-14T15:31:35Z</time>
      </trkpt>
      <trkpt lat="46.32737" lon="-0.5075">
        <ele>57</ele>
        <time>2012-02-14T15:31:40Z</time>
      </trkpt>
      <trkpt lat="46.32741" lon="-0.50755">
        <ele>57</ele>
        <time>2012-02-14T15:31:45Z</time>
      </trkpt>
      <trkpt lat="46.32745" lon="-0.50757">
        <ele>57</ele>
        <time>2012-02-14T15:31:50Z</time>
      </trkpt>
      <trkpt lat="46.32749" lon="-0.50758">
        <ele>57</ele>
        <time>2012-02-14T15:31:55Z</time>
      </trkpt>
      <trkpt lat="46.32754" lon="-0.50757">
        <ele>57</ele>
        <time>2012-02-14T15:32:00Z</time>
      </trkpt>
      <trkpt lat="46.32754" lon="-0.50757">
        <ele>57</ele>
        <time>2012-02-14T15:32:05Z</time>
      </trkpt>
      <trkpt lat="46.32759" lon="-0.50758">
        <ele>58</ele>
        <time>2012-02-14T15:32:10Z</time>
      </trkpt>
      <trkpt lat="46.32766" lon="-0.5076">
        <ele>58</ele>
        <time>2012-02-14T15:32:15Z</time>
      </trkpt>
      <trkpt lat="46.32773" lon="-0.50763">
        <ele>57</ele>
        <time>2012-02-14T15:32:20Z</time>
      </trkpt>
      <trkpt lat="46.32775" lon="-0.50765">
        <ele>57</ele>
        <time>2012-02-14T15:32:25Z</time>
      </trkpt>
      <trkpt lat="46.32781" lon="-0.50765">
        <ele>59</ele>
        <time>2012-02-14T15:32:30Z</time>
      </trkpt>
      <trkpt lat="46.32788" lon="-0.50765">
        <ele>58</ele>
        <time>2012-02-14T15:32:35Z</time>
      </trkpt>
      <trkpt lat="46.32791" lon="-0.50766">
        <ele>55</ele>
        <time>2012-02-14T15:32:40Z</time>
      </trkpt>
      <trkpt lat="46.32796" lon="-0.50767">
        <ele>54</ele>
        <time>2012-02-14T15:32:45Z</time>
      </trkpt>
      <trkpt lat="46.32805" lon="-0.50766">
        <ele>53</ele>
        <time>2012-02-14T15:32:50Z</time>
      </trkpt>
      <trkpt lat="46.32813" lon="-0.5077">
        <ele>51</ele>
        <time>2012-02-14T15:32:55Z</time>
      </trkpt>
      <trkpt lat="46.32819" lon="-0.5077">
        <ele>52</ele>
        <time>2012-02-14T15:33:00Z</time>
      </trkpt>
      <trkpt lat="46.32824" lon="-0.50771">
        <ele>53</ele>
        <time>2012-02-14T15:33:05Z</time>
      </trkpt>
      <trkpt lat="46.32826" lon="-0.50776">
        <ele>53</ele>
        <time>2012-02-14T15:33:10Z</time>
      </trkpt>
      <trkpt lat="46.32831" lon="-0.5078">
        <ele>53</ele>
        <time>2012-02-14T15:33:15Z</time>
      </trkpt>
      <trkpt lat="46.32837" lon="-0.50779">
        <ele>53</ele>
        <time>2012-02-14T15:33:20Z</time>
      </trkpt>
      <trkpt lat="46.32843" lon="-0.50782">
        <ele>54</ele>
        <time>2012-02-14T15:33:25Z</time>
      </trkpt>
      <trkpt lat="46.32851" lon="-0.50782">
        <ele>55</ele>
        <time>2012-02-14T15:33:30Z</time>
      </trkpt>
      <trkpt lat="46.32856" lon="-0.50783">
        <ele>53</ele>
        <time>2012-02-14T15:33:35Z</time>
      </trkpt>
      <trkpt lat="46.32861" lon="-0.50784">
        <ele>53</ele>
        <time>2012-02-14T15:33:40Z</time>
      </trkpt>
      <trkpt lat="46.32867" lon="-0.50787">
        <ele>54</ele>
        <time>2012-02-14T15:33:45Z</time>
      </trkpt>
      <trkpt lat="46.32872" lon="-0.50786">
        <ele>53</ele>
        <time>2012-02-14T15:33:50Z</time>
      </trkpt>
      <trkpt lat="46.32878" lon="-0.50787">
        <ele>54</ele>
        <time>2012-02-14T15:33:55Z</time>
      </trkpt>
      <trkpt lat="46.32886" lon="-0.50788">
        <ele>56</ele>
        <time>2012-02-14T15:34:00Z</time>
      </trkpt>
      <trkpt lat="46.32889" lon="-0.50781">
        <ele>56</ele>
        <time>2012-02-14T15:34:05Z</time>
      </trkpt>
      <trkpt lat="46.32893" lon="-0.50782">
        <ele>55</ele>
        <time>2012-02-14T15:34:10Z</time>
      </trkpt>
      <trkpt lat="46.32898" lon="-0.50779">
        <ele>55</ele>
        <time>2012-02-14T15:34:15Z</time>
      </trkpt>
      <trkpt lat="46.32904" lon="-0.50776">
        <ele>54</ele>
        <time>2012-02-14T15:34:20Z</time>
      </trkpt>
      <trkpt lat="46.32909" lon="-0.50774">
        <ele>54</ele>
        <time>2012-02-14T15:34:25Z</time>
      </trkpt>
      <trkpt lat="46.32914" lon="-0.50774">
        <ele>55</ele>
        <time>2012-02-14T15:34:30Z</time>
      </trkpt>
      <trkpt lat="46.32917" lon="-0.50773">
        <ele>55</ele>
        <time>2012-02-14T15:34:35Z</time>
      </trkpt>
      <trkpt lat="46.32922" lon="-0.50774">
        <ele>54</ele>
        <time>2012-02-14T15:34:40Z</time>
      </trkpt>
      <trkpt lat="46.32928" lon="-0.50768">
        <ele>55</ele>
        <time>2012-02-14T15:34:45Z</time>
      </trkpt>
      <trkpt lat="46.32935" lon="-0.50772">
        <ele>54</ele>
        <time>2012-02-14T15:34:50Z</time>
      </trkpt>
      <trkpt lat="46.3294" lon="-0.50774">
        <ele>56</ele>
        <time>2012-02-14T15:34:55Z</time>
      </trkpt>
      <trkpt lat="46.32942" lon="-0.50772">
        <ele>57</ele>
        <time>2012-02-14T15:35:00Z</time>
      </trkpt>
      <trkpt lat="46.32947" lon="-0.5077">
        <ele>54</ele>
        <time>2012-02-14T15:35:05Z</time>
      </trkpt>
      <trkpt lat="46.32952" lon="-0.50768">
        <ele>50</ele>
        <time>2012-02-14T15:35:10Z</time>
      </trkpt>
      <trkpt lat="46.32959" lon="-0.50766">
        <ele>50</ele>
        <time>2012-02-14T15:35:15Z</time>
      </trkpt>
      <trkpt lat="46.32968" lon="-0.50765">
        <ele>52</ele>
        <time>2012-02-14T15:35:20Z</time>
      </trkpt>
      <trkpt lat="46.32973" lon="-0.50767">
        <ele>55</ele>
        <time>2012-02-14T15:35:25Z</time>
      </trkpt>
      <trkpt lat="46.32978" lon="-0.50763">
        <ele>55</ele>
        <time>2012-02-14T15:35:30Z</time>
      </trkpt>
      <trkpt lat="46.32982" lon="-0.50765">
        <ele>55</ele>
        <time>2012-02-14T15:35:35Z</time>
      </trkpt>
      <trkpt lat="46.32988" lon="-0.50766">
        <ele>57</ele>
        <time>2012-02-14T15:35:40Z</time>
      </trkpt>
      <trkpt lat="46.32996" lon="-0.50764">
        <ele>58</ele>
        <time>2012-02-14T15:35:45Z</time>
      </trkpt>
      <trkpt lat="46.33002" lon="-0.50761">
        <ele>57</ele>
        <time>2012-02-14T15:35:50Z</time>
      </trkpt>
      <trkpt lat="46.33006" lon="-0.5076">
        <ele>56</ele>
        <time>2012-02-14T15:35:55Z</time>
      </trkpt>
      <trkpt lat="46.33012" lon="-0.50758">
        <ele>57</ele>
        <time>2012-02-14T15:36:00Z</time>
      </trkpt>
      <trkpt lat="46.33017" lon="-0.50759">
        <ele>56</ele>
        <time>2012-02-14T15:36:05Z</time>
      </trkpt>
      <trkpt lat="46.3302" lon="-0.5076">
        <ele>56</ele>
        <time>2012-02-14T15:36:10Z</time>
      </trkpt>
      <trkpt lat="46.33025" lon="-0.50758">
        <ele>56</ele>
        <time>2012-02-14T15:36:15Z</time>
      </trkpt>
      <trkpt lat="46.33031" lon="-0.50755">
        <ele>55</ele>
        <time>2012-02-14T15:36:20Z</time>
      </trkpt>
      <trkpt lat="46.33037" lon="-0.50753">
        <ele>55</ele>
        <time>2012-02-14T15:36:25Z</time>
      </trkpt>
      <trkpt lat="46.33045" lon="-0.50752">
        <ele>53</ele>
        <time>2012-02-14T15:36:30Z</time>
      </trkpt>
      <trkpt lat="46.33048" lon="-0.50751">
        <ele>51</ele>
        <time>2012-02-14T15:36:35Z</time>
      </trkpt>
      <trkpt lat="46.3305" lon="-0.5075">
        <ele>52</ele>
        <time>2012-02-14T15:36:40Z</time>
      </trkpt>
      <trkpt lat="46.33051" lon="-0.50751">
        <ele>53</ele>
        <time>2012-02-14T15:36:45Z</time>
      </trkpt>
      <trkpt lat="46.33052" lon="-0.50751">
        <ele>54</ele>
        <time>2012-02-14T15:36:50Z</time>
      </trkpt>
      <trkpt lat="46.33052" lon="-0.50752">
        <ele>54</ele>
        <time>2012-02-14T15:37:05Z</time>
      </trkpt>
      <trkpt lat="46.33052" lon="-0.50751">
        <ele>54</ele>
        <time>2012-02-14T15:37:40Z</time>
      </trkpt>
      <trkpt lat="46.33052" lon="-0.50752">
        <ele>54</ele>
        <time>2012-02-14T15:38:00Z</time>
      </trkpt>
      <trkpt lat="46.33053" lon="-0.5075">
        <ele>53</ele>
        <time>2012-02-14T15:40:05Z</time>
      </trkpt>
      <trkpt lat="46.33056" lon="-0.50747">
        <ele>52</ele>
        <time>2012-02-14T15:40:10Z</time>
      </trkpt>
      <trkpt lat="46.3306" lon="-0.50744">
        <ele>50</ele>
        <time>2012-02-14T15:40:15Z</time>
      </trkpt>
      <trkpt lat="46.33069" lon="-0.50745">
        <ele>54</ele>
        <time>2012-02-14T15:40:20Z</time>
      </trkpt>
      <trkpt lat="46.33077" lon="-0.50746">
        <ele>57</ele>
        <time>2012-02-14T15:40:25Z</time>
      </trkpt>
      <trkpt lat="46.33082" lon="-0.50744">
        <ele>56</ele>
        <time>2012-02-14T15:40:30Z</time>
      </trkpt>
      <trkpt lat="46.33088" lon="-0.50742">
        <ele>56</ele>
        <time>2012-02-14T15:40:35Z</time>
      </trkpt>
      <trkpt lat="46.33093" lon="-0.50739">
        <ele>57</ele>
        <time>2012-02-14T15:40:40Z</time>
      </trkpt>
      <trkpt lat="46.331" lon="-0.50736">
        <ele>57</ele>
        <time>2012-02-14T15:40:45Z</time>
      </trkpt>
      <trkpt lat="46.33107" lon="-0.50736">
        <ele>55</ele>
        <time>2012-02-14T15:40:50Z</time>
      </trkpt>
      <trkpt lat="46.33114" lon="-0.50736">
        <ele>58</ele>
        <time>2012-02-14T15:40:55Z</time>
      </trkpt>
      <trkpt lat="46.33121" lon="-0.50732">
        <ele>59</ele>
        <time>2012-02-14T15:41:00Z</time>
      </trkpt>
      <trkpt lat="46.33129" lon="-0.50729">
        <ele>60</ele>
        <time>2012-02-14T15:41:05Z</time>
      </trkpt>
      <trkpt lat="46.33134" lon="-0.50729">
        <ele>59</ele>
        <time>2012-02-14T15:41:10Z</time>
      </trkpt>
      <trkpt lat="46.33138" lon="-0.50726">
        <ele>60</ele>
        <time>2012-02-14T15:41:15Z</time>
      </trkpt>
      <trkpt lat="46.33146" lon="-0.50725">
        <ele>63</ele>
        <time>2012-02-14T15:41:20Z</time>
      </trkpt>
      <trkpt lat="46.3315" lon="-0.50724">
        <ele>63</ele>
        <time>2012-02-14T15:41:25Z</time>
      </trkpt>
      <trkpt lat="46.33155" lon="-0.50721">
        <ele>64</ele>
        <time>2012-02-14T15:41:30Z</time>
      </trkpt>
      <trkpt lat="46.33157" lon="-0.50719">
        <ele>65</ele>
        <time>2012-02-14T15:41:35Z</time>
      </trkpt>
      <trkpt lat="46.33161" lon="-0.50719">
        <ele>66</ele>
        <time>2012-02-14T15:41:40Z</time>
      </trkpt>
      <trkpt lat="46.33167" lon="-0.50715">
        <ele>64</ele>
        <time>2012-02-14T15:41:45Z</time>
      </trkpt>
      <trkpt lat="46.33172" lon="-0.50715">
        <ele>63</ele>
        <time>2012-02-14T15:41:50Z</time>
      </trkpt>
      <trkpt lat="46.3317" lon="-0.50713">
        <ele>56</ele>
        <time>2012-02-14T15:41:55Z</time>
      </trkpt>
      <trkpt lat="46.33174" lon="-0.50715">
        <ele>55</ele>
        <time>2012-02-14T15:42:00Z</time>
      </trkpt>
      <trkpt lat="46.3318" lon="-0.50715">
        <ele>54</ele>
        <time>2012-02-14T15:42:05Z</time>
      </trkpt>
      <trkpt lat="46.33183" lon="-0.50717">
        <ele>56</ele>
        <time>2012-02-14T15:42:10Z</time>
      </trkpt>
      <trkpt lat="46.33189" lon="-0.50715">
        <ele>56</ele>
        <time>2012-02-14T15:42:15Z</time>
      </trkpt>
      <trkpt lat="46.33194" lon="-0.50713">
        <ele>57</ele>
        <time>2012-02-14T15:42:20Z</time>
      </trkpt>
      <trkpt lat="46.332" lon="-0.50711">
        <ele>57</ele>
        <time>2012-02-14T15:42:25Z</time>
      </trkpt>
      <trkpt lat="46.33208" lon="-0.50711">
        <ele>57</ele>
        <time>2012-02-14T15:42:30Z</time>
      </trkpt>
      <trkpt lat="46.33212" lon="-0.50708">
        <ele>58</ele>
        <time>2012-02-14T15:42:35Z</time>
      </trkpt>
      <trkpt lat="46.33218" lon="-0.50705">
        <ele>57</ele>
        <time>2012-02-14T15:42:40Z</time>
      </trkpt>
      <trkpt lat="46.33223" lon="-0.50705">
        <ele>54</ele>
        <time>2012-02-14T15:42:45Z</time>
      </trkpt>
      <trkpt lat="46.33229" lon="-0.50707">
        <ele>55</ele>
        <time>2012-02-14T15:42:50Z</time>
      </trkpt>
      <trkpt lat="46.33233" lon="-0.50704">
        <ele>51</ele>
        <time>2012-02-14T15:42:55Z</time>
      </trkpt>
      <trkpt lat="46.33237" lon="-0.50706">
        <ele>50</ele>
        <time>2012-02-14T15:43:00Z</time>
      </trkpt>
      <trkpt lat="46.33242" lon="-0.50709">
        <ele>52</ele>
        <time>2012-02-14T15:43:05Z</time>
      </trkpt>
      <trkpt lat="46.33245" lon="-0.50712">
        <ele>51</ele>
        <time>2012-02-14T15:43:10Z</time>
      </trkpt>
      <trkpt lat="46.3325" lon="-0.50716">
        <ele>52</ele>
        <time>2012-02-14T15:43:15Z</time>
      </trkpt>
      <trkpt lat="46.33255" lon="-0.50718">
        <ele>52</ele>
        <time>2012-02-14T15:43:20Z</time>
      </trkpt>
      <trkpt lat="46.33255" lon="-0.50727">
        <ele>52</ele>
        <time>2012-02-14T15:43:25Z</time>
      </trkpt>
      <trkpt lat="46.33253" lon="-0.50732">
        <ele>50</ele>
        <time>2012-02-14T15:43:30Z</time>
      </trkpt>
      <trkpt lat="46.33255" lon="-0.50735">
        <ele>49</ele>
        <time>2012-02-14T15:43:35Z</time>
      </trkpt>
      <trkpt lat="46.33254" lon="-0.50744">
        <ele>48</ele>
        <time>2012-02-14T15:43:40Z</time>
      </trkpt>
      <trkpt lat="46.33254" lon="-0.50753">
        <ele>49</ele>
        <time>2012-02-14T15:43:45Z</time>
      </trkpt>
      <trkpt lat="46.33253" lon="-0.50756">
        <ele>51</ele>
        <time>2012-02-14T15:43:50Z</time>
      </trkpt>
      <trkpt lat="46.33253" lon="-0.50761">
        <ele>52</ele>
        <time>2012-02-14T15:43:55Z</time>
      </trkpt>
      <trkpt lat="46.33253" lon="-0.50768">
        <ele>51</ele>
        <time>2012-02-14T15:44:00Z</time>
      </trkpt>
      <trkpt lat="46.33253" lon="-0.50776">
        <ele>50</ele>
        <time>2012-02-14T15:44:05Z</time>
      </trkpt>
      <trkpt lat="46.33254" lon="-0.50785">
        <ele>51</ele>
        <time>2012-02-14T15:44:10Z</time>
      </trkpt>
      <trkpt lat="46.33251" lon="-0.508">
        <ele>51</ele>
        <time>2012-02-14T15:44:15Z</time>
      </trkpt>
      <trkpt lat="46.33253" lon="-0.50803">
        <ele>50</ele>
        <time>2012-02-14T15:44:20Z</time>
      </trkpt>
      <trkpt lat="46.33252" lon="-0.50803">
        <ele>50</ele>
        <time>2012-02-14T15:44:25Z</time>
      </trkpt>
      <trkpt lat="46.33244" lon="-0.50812">
        <ele>54</ele>
        <time>2012-02-14T15:44:30Z</time>
      </trkpt>
      <trkpt lat="46.33244" lon="-0.50812">
        <ele>55</ele>
        <time>2012-02-14T15:44:35Z</time>
      </trkpt>
      <trkpt lat="46.33238" lon="-0.50809">
        <ele>59</ele>
        <time>2012-02-14T15:44:45Z</time>
      </trkpt>
      <trkpt lat="46.33234" lon="-0.50809">
        <ele>59</ele>
        <time>2012-02-14T15:44:50Z</time>
      </trkpt>
      <trkpt lat="46.33233" lon="-0.50814">
        <ele>58</ele>
        <time>2012-02-14T15:44:55Z</time>
      </trkpt>
      <trkpt lat="46.33231" lon="-0.50818">
        <ele>57</ele>
        <time>2012-02-14T15:45:00Z</time>
      </trkpt>
      <trkpt lat="46.33227" lon="-0.50828">
        <ele>57</ele>
        <time>2012-02-14T15:45:05Z</time>
      </trkpt>
      <trkpt lat="46.33224" lon="-0.50835">
        <ele>57</ele>
        <time>2012-02-14T15:45:10Z</time>
      </trkpt>
      <trkpt lat="46.3322" lon="-0.50844">
        <ele>58</ele>
        <time>2012-02-14T15:45:15Z</time>
      </trkpt>
      <trkpt lat="46.3322" lon="-0.50851">
        <ele>59</ele>
        <time>2012-02-14T15:45:20Z</time>
      </trkpt>
      <trkpt lat="46.33218" lon="-0.50859">
        <ele>58</ele>
        <time>2012-02-14T15:45:25Z</time>
      </trkpt>
      <trkpt lat="46.33216" lon="-0.50866">
        <ele>57</ele>
        <time>2012-02-14T15:45:30Z</time>
      </trkpt>
      <trkpt lat="46.33212" lon="-0.50875">
        <ele>57</ele>
        <time>2012-02-14T15:45:35Z</time>
      </trkpt>
      <trkpt lat="46.3321" lon="-0.50881">
        <ele>58</ele>
        <time>2012-02-14T15:45:40Z</time>
      </trkpt>
      <trkpt lat="46.33207" lon="-0.50887">
        <ele>59</ele>
        <time>2012-02-14T15:45:45Z</time>
      </trkpt>
      <trkpt lat="46.33199" lon="-0.50891">
        <ele>58</ele>
        <time>2012-02-14T15:45:50Z</time>
      </trkpt>
      <trkpt lat="46.33195" lon="-0.5089">
        <ele>58</ele>
        <time>2012-02-14T15:45:55Z</time>
      </trkpt>
      <trkpt lat="46.33192" lon="-0.50891">
        <ele>58</ele>
        <time>2012-02-14T15:46:00Z</time>
      </trkpt>
      <trkpt lat="46.33185" lon="-0.5089">
        <ele>58</ele>
        <time>2012-02-14T15:46:05Z</time>
      </trkpt>
      <trkpt lat="46.33179" lon="-0.50888">
        <ele>58</ele>
        <time>2012-02-14T15:46:10Z</time>
      </trkpt>
      <trkpt lat="46.33177" lon="-0.50892">
        <ele>59</ele>
        <time>2012-02-14T15:46:15Z</time>
      </trkpt>
      <trkpt lat="46.33177" lon="-0.50891">
        <ele>60</ele>
        <time>2012-02-14T15:46:20Z</time>
      </trkpt>
      <trkpt lat="46.33175" lon="-0.50888">
        <ele>60</ele>
        <time>2012-02-14T15:46:25Z</time>
      </trkpt>
      <trkpt lat="46.33174" lon="-0.50888">
        <ele>59</ele>
        <time>2012-02-14T15:46:30Z</time>
      </trkpt>
      <trkpt lat="46.33174" lon="-0.50888">
        <ele>59</ele>
        <time>2012-02-14T15:46:45Z</time>
      </trkpt>
      <trkpt lat="46.33175" lon="-0.5089">
        <ele>58</ele>
        <time>2012-02-14T15:46:50Z</time>
      </trkpt>
      <trkpt lat="46.33174" lon="-0.50889">
        <ele>58</ele>
        <time>2012-02-14T15:46:55Z</time>
      </trkpt>
    </trkseg>
  </trk>
</gpx>